Provisional Data: Baldwin Creek near Lowman, NY


Please select a monitoring station.
Please select start date.
Please select start date.

Toggle Unit: C/F Toggle Unit: C/F
Sample Time Temperature (C) Temperature (F) Specific Conductivity (mS/cm) pH   Turbidity (NTU+) DO (mg/L)
1/12/2021 12:00:00 AM 0.45 32.81 0.173 7.22 3.06 14.03
1/12/2021 12:15:00 AM 0.45 32.81 0.173 7.14 2.96 14.02
1/12/2021 12:30:00 AM 0.45 32.81 0.173 7.22 3.04 14.03
1/12/2021 12:45:00 AM 0.45 32.81 0.173 7.22 2.96 14.02
1/12/2021 1:00:00 AM 0.45 32.81 0.173 7.22 3.14 14.02
1/12/2021 1:15:00 AM 0.45 32.81 0.173 7.22 2.96 14.03
1/12/2021 1:30:00 AM 0.45 32.81 0.173 7.22 3.19 14.03
1/12/2021 1:45:00 AM 0.45 32.81 0.172 7.23 3.07 14.03
1/12/2021 2:00:00 AM 0.45 32.81 0.172 7.23 3.01 14.03
1/12/2021 2:15:00 AM 0.46 32.828 0.172 7.14 3.02 14.03
1/12/2021 2:30:00 AM 0.46 32.828 0.172 7.23 3.03 14.02
1/12/2021 2:45:00 AM 0.46 32.828 0.172 7.23 2.86 14.02
1/12/2021 3:00:00 AM 0.47 32.846 0.171 7.23 3.23 14.02
1/12/2021 3:15:00 AM 0.47 32.846 0.171 7.24 3.1 14.02
1/12/2021 3:30:00 AM 0.48 32.864 0.171 7.23 2.96 14.01
1/12/2021 3:45:00 AM 0.48 32.864 0.171 7.23 2.93 14.01
1/12/2021 4:00:00 AM 0.48 32.864 0.171 7.23 2.93 14.01
1/12/2021 4:15:00 AM 0.48 32.864 0.171 7.24 2.86 14.02
1/12/2021 4:30:00 AM 0.48 32.864 0.17 7.23 2.89 14.01
1/12/2021 4:45:00 AM 0.48 32.864 0.17 7.23 2.87 14
1/12/2021 5:00:00 AM 0.48 32.864 0.17 7.24 2.81 14.01
1/12/2021 5:15:00 AM 0.47 32.846 0.17 7.23 2.88 14
1/12/2021 5:30:00 AM 0.46 32.828 0.17 7.24 2.89 14.01
1/12/2021 5:45:00 AM 0.44 32.792 0.17 7.23 2.78 14.01
1/12/2021 6:00:00 AM 0.43 32.774 0.17 7.15 2.97 14.01
1/12/2021 6:15:00 AM 0.42 32.756 0.17 7.23 2.94 14.01
1/12/2021 6:30:00 AM 0.41 32.738 0.17 7.17 2.66 14.02
1/12/2021 6:45:00 AM 0.38 32.684 0.17 7.24 2.87 14.02
1/12/2021 7:00:00 AM 0.37 32.666 0.17 7.24 2.86 14.03
1/12/2021 7:15:00 AM 0.36 32.648 0.17 7.23 2.8 14.04
1/12/2021 7:30:00 AM 0.35 32.63 0.17 7.23 2.74 14.04
1/12/2021 7:45:00 AM 0.35 32.63 0.17 7.24 2.88 14.06
1/12/2021 8:00:00 AM 0.35 32.63 0.17 7.15 2.72 14.06
1/12/2021 8:15:00 AM 0.36 32.648 0.17 7.24 2.97 14.07
1/12/2021 8:30:00 AM 0.38 32.684 0.17 7.24 2.76 14.09
1/12/2021 8:45:00 AM 0.41 32.738 0.17 7.24 2.9 14.1
1/12/2021 9:00:00 AM 0.44 32.792 0.17 7.24 2.81 14.1
1/12/2021 9:15:00 AM 0.48 32.864 0.17 7.25 2.74 14.12
1/12/2021 9:30:00 AM 0.52 32.936 0.17 7.25 2.74 14.12
1/12/2021 9:45:00 AM 0.58 33.044 0.171 7.26 2.7 14.12
1/12/2021 10:00:00 AM 0.64 33.152 0.17 7.26 2.69 14.11
1/12/2021 10:15:00 AM 0.72 33.296 0.17 7.26 2.6 14.1
1/12/2021 10:30:00 AM 0.78 33.404 0.17 7.27 2.53 14.09
1/12/2021 10:45:00 AM 0.86 33.548 0.17 7.27 2.55 14.08
1/12/2021 11:00:00 AM 0.94 33.692 0.17 7.28 2.66 14.07
1/12/2021 11:15:00 AM 1.02 33.836 0.17 7.28 2.63 14.05
1/12/2021 11:30:00 AM 1.07 33.926 0.17 7.29 2.65 14.04
1/12/2021 11:45:00 AM 1.11 33.998 0.17 7.28 2.74 14.03
1/12/2021 12:00:00 PM 1.16 34.088 0.17 7.29 2.81 14.01
1/12/2021 12:15:00 PM 1.23 34.214 0.171 7.28 2.73 13.99
1/12/2021 12:30:00 PM 1.32 34.376 0.17 7.3 2.68 13.96
1/12/2021 12:45:00 PM 1.38 34.484 0.17 7.26 146.61 13.91
1/12/2021 1:00:00 PM 1.42 34.556 0.17 7.28 23.77 13.9
1/12/2021 1:15:00 PM 1.47 34.646 0.17 7.29 7.38 13.9
1/12/2021 1:30:00 PM 1.51 34.718 0.17 7.29 4.27 13.88
1/12/2021 1:45:00 PM 1.54 34.772 0.17 7.28 3.28 13.87
1/12/2021 2:00:00 PM 1.57 34.826 0.17 7.28 2.99 13.85
1/12/2021 2:15:00 PM 1.6 34.88 0.17 7.28 2.89 13.83
1/12/2021 2:30:00 PM 1.64 34.952 0.17 7.27 3.15 13.81
1/12/2021 2:45:00 PM 1.66 34.988 0.17 7.29 2.85 13.8
1/12/2021 3:00:00 PM 1.65 34.97 0.17 7.28 3.12 13.79
1/12/2021 3:15:00 PM 1.63 34.934 0.17 7.28 2.91 13.77
1/12/2021 3:30:00 PM 1.61 34.898 0.171 7.25 2.74 13.76
1/12/2021 3:45:00 PM 1.6 34.88 0.171 7.28 2.75 13.74
1/12/2021 4:00:00 PM 1.58 34.844 0.171 7.28 2.75 13.74
1/12/2021 4:15:00 PM 1.55 34.79 0.171 7.27 2.87 13.73
1/12/2021 4:30:00 PM 1.52 34.736 0.17 7.27 2.97 13.72
1/12/2021 4:45:00 PM 1.5 34.7 0.171 7.26 2.96 13.71
1/12/2021 5:00:00 PM 1.48 34.664 0.171 7.24 2.81 13.69
1/12/2021 5:15:00 PM 1.45 34.61 0.171 7.25 2.81 13.68
1/12/2021 5:30:00 PM 1.43 34.574 0.171 7.24 2.74 13.68
1/12/2021 5:45:00 PM 1.41 34.538 0.171 7.23 2.7 13.68
1/12/2021 6:00:00 PM 1.39 34.502 0.171 7.16 2.81 13.67
1/12/2021 6:15:00 PM 1.38 34.484 0.171 7.24 2.87 13.67
1/12/2021 6:30:00 PM 1.36 34.448 0.171 7.24 3.05 13.66
1/12/2021 6:45:00 PM 1.34 34.412 0.171 7.23 2.82 13.66
1/12/2021 7:00:00 PM 1.33 34.394 0.171 7.23 2.75 13.66
1/12/2021 7:15:00 PM 1.32 34.376 0.171 7.25 2.83 13.66
1/12/2021 7:30:00 PM 1.3 34.34 0.171 7.23 2.81 13.67
1/12/2021 7:45:00 PM 1.29 34.322 0.171 7.23 2.8 13.67
1/12/2021 8:00:00 PM 1.28 34.304 0.171 7.25 2.95 13.67
1/12/2021 8:15:00 PM 1.26 34.268 0.171 7.23 2.85 13.67
1/12/2021 8:30:00 PM 1.25 34.25 0.171 7.24 2.86 13.68
1/12/2021 8:45:00 PM 1.23 34.214 0.171 7.23 2.95 13.68
1/12/2021 9:00:00 PM 1.22 34.196 0.171 7.24 2.86 13.69
1/12/2021 9:15:00 PM 1.21 34.178 0.171 7.22 2.86 13.7
1/12/2021 9:30:00 PM 1.2 34.16 0.171 7.23 2.82 13.7
1/12/2021 9:45:00 PM 1.18 34.124 0.171 7.23 2.9 13.7
1/12/2021 10:00:00 PM 1.17 34.106 0.171 7.23 2.66 13.71
1/12/2021 10:15:00 PM 1.17 34.106 0.171 7.23 2.73 13.71
1/12/2021 10:30:00 PM 1.16 34.088 0.172 7.22 2.82 13.71
1/12/2021 10:45:00 PM 1.15 34.07 0.172 7.22 2.77 13.71
1/12/2021 11:00:00 PM 1.14 34.052 0.172 7.23 3.19 13.71
1/12/2021 11:15:00 PM 1.14 34.052 0.172 7.23 2.73 13.71
1/12/2021 11:30:00 PM 1.13 34.034 0.172 7.23 2.77 13.72
1/12/2021 11:45:00 PM 1.12 34.016 0.172 7.23 2.76 13.72
1/13/2021 12:00:00 AM 1.12 34.016 0.172 7.24 2.71 13.72
1/13/2021 12:15:00 AM 1.11 33.998 0.172 7.24 3.04 13.72
1/13/2021 12:30:00 AM 1.1 33.98 0.172 7.25 2.72 13.73
1/13/2021 12:45:00 AM 1.1 33.98 0.172 7.24 2.83 13.72
1/13/2021 1:00:00 AM 1.09 33.962 0.172 7.24 2.71 13.72
1/13/2021 1:15:00 AM 1.09 33.962 0.172 7.23 2.74 13.72
1/13/2021 1:30:00 AM 1.09 33.962 0.172 7.24 2.83 13.73
1/13/2021 1:45:00 AM 1.08 33.944 0.172 7.24 2.63 13.73
1/13/2021 2:00:00 AM 1.08 33.944 0.172 7.24 2.62 13.72
1/13/2021 2:15:00 AM 1.08 33.944 0.172 7.24 2.65 13.72
1/13/2021 2:30:00 AM 1.08 33.944 0.172 7.24 2.75 13.73
1/13/2021 2:45:00 AM 1.07 33.926 0.172 7.24 2.67 13.72
1/13/2021 3:00:00 AM 1.07 33.926 0.172 7.24 2.7 13.72
1/13/2021 3:15:00 AM 1.07 33.926 0.172 7.24 2.62 13.73
1/13/2021 3:30:00 AM 1.06 33.908 0.172 7.25 2.74 13.73
1/13/2021 3:45:00 AM 1.05 33.89 0.172 7.24 2.69 13.73
1/13/2021 4:00:00 AM 1.05 33.89 0.172 7.24 2.71 13.73
1/13/2021 4:15:00 AM 1.04 33.872 0.172 7.24 2.62 13.73
1/13/2021 4:30:00 AM 1.03 33.854 0.172 7.24 2.68 13.73
1/13/2021 4:45:00 AM 1.02 33.836 0.172 7.23 2.78 13.73
1/13/2021 5:00:00 AM 1.02 33.836 0.172 7.25 2.64 13.74
1/13/2021 5:15:00 AM 1.01 33.818 0.172 7.24 2.81 13.74
1/13/2021 5:30:00 AM 1 33.8 0.172 7.24 2.61 13.74
1/13/2021 5:45:00 AM 1 33.8 0.172 7.24 2.64 13.74
1/13/2021 6:00:00 AM 1 33.8 0.172 7.24 2.65 13.75
1/13/2021 6:15:00 AM 0.99 33.782 0.172 7.25 2.55 13.74
1/13/2021 6:30:00 AM 0.99 33.782 0.172 7.24 2.71 13.75
1/13/2021 6:45:00 AM 0.99 33.782 0.172 7.24 2.48 13.75
1/13/2021 7:00:00 AM 0.98 33.764 0.172 7.24 2.46 13.75
1/13/2021 7:15:00 AM 0.98 33.764 0.172 7.24 2.48 13.75
1/13/2021 7:30:00 AM 0.97 33.746 0.172 7.25 2.51 13.76
1/13/2021 7:45:00 AM 0.97 33.746 0.172 7.25 2.34 13.76
1/13/2021 8:00:00 AM 0.97 33.746 0.172 7.26 2.72 13.76
1/13/2021 8:15:00 AM 0.96 33.728 0.173 7.26 2.56 13.77
1/13/2021 8:30:00 AM 0.97 33.746 0.172 7.25 2.44 13.78
1/13/2021 8:45:00 AM 0.97 33.746 0.172 7.26 2.53 13.79
1/13/2021 9:00:00 AM 0.98 33.764 0.173 7.27 2.49 13.8
1/13/2021 9:15:00 AM 0.98 33.764 0.172 7.27 2.58 13.81
1/13/2021 9:30:00 AM 1 33.8 0.172 7.27 2.96 13.83
1/13/2021 9:45:00 AM 1.02 33.836 0.172 7.28 3.77 13.84
1/13/2021 10:00:00 AM 1.04 33.872 0.172 7.28 2.85 13.85
1/13/2021 10:15:00 AM 1.06 33.908 0.172 7.29 2.78 13.85
1/13/2021 10:30:00 AM 1.08 33.944 0.172 7.29 2.6 13.86
1/13/2021 10:45:00 AM 1.11 33.998 0.172 7.3 2.44 13.86
1/13/2021 11:00:00 AM 1.13 34.034 0.172 7.3 2.45 13.86
1/13/2021 11:15:00 AM 1.16 34.088 0.172 7.3 2.4 13.86
1/13/2021 11:30:00 AM 1.18 34.124 0.172 7.3 2.5 13.85
1/13/2021 11:45:00 AM 1.22 34.196 0.172 7.3 2.45 13.85
1/13/2021 12:00:00 PM 1.25 34.25 0.172 7.31 2.46 13.84
1/13/2021 12:15:00 PM 1.28 34.304 0.172 7.31 2.49 13.84
1/13/2021 12:30:00 PM 1.31 34.358 0.172 7.31 2.49 13.83
1/13/2021 12:45:00 PM 1.35 34.43 0.172 7.23 2.45 13.82
1/13/2021 1:00:00 PM 1.41 34.538 0.172 7.32 2.39 13.81
1/13/2021 1:15:00 PM 1.47 34.646 0.172 7.26 2.53 13.8
1/13/2021 1:30:00 PM 1.54 34.772 0.172 7.33 2.27 13.78
1/13/2021 1:45:00 PM 1.61 34.898 0.172 7.32 2.55 13.77
1/13/2021 2:00:00 PM 1.67 35.006 0.172 7.32 2.58 13.75
1/13/2021 2:15:00 PM 1.69 35.042 0.172 7.32 2.36 13.73
1/13/2021 2:30:00 PM 1.72 35.096 0.172 7.32 2.59 13.71
1/13/2021 2:45:00 PM 1.76 35.168 0.172 7.32 2.48 13.7
1/13/2021 3:00:00 PM 1.77 35.186 0.172 7.32 2.67 13.68
1/13/2021 3:15:00 PM 1.75 35.15 0.172 7.32 2.57 13.68
1/13/2021 3:30:00 PM 1.73 35.114 0.172 7.32 2.54 13.67
1/13/2021 3:45:00 PM 1.72 35.096 0.172 7.32 2.48 13.66
1/13/2021 4:00:00 PM 1.72 35.096 0.172 7.32 2.63 13.65
1/13/2021 4:15:00 PM 1.7 35.06 0.172 7.32 2.52 13.64
1/13/2021 4:30:00 PM 1.67 35.006 0.172 7.31 2.57 13.62
1/13/2021 4:45:00 PM 1.64 34.952 0.172 7.3 2.63 13.6
1/13/2021 5:00:00 PM 1.62 34.916 0.172 7.3 2.51 13.58
1/13/2021 5:15:00 PM 1.59 34.862 0.172 7.29 2.57 13.56
1/13/2021 5:30:00 PM 1.57 34.826 0.172 7.28 2.43 13.55
1/13/2021 5:45:00 PM 1.56 34.808 0.172 7.28 2.62 13.53
1/13/2021 6:00:00 PM 1.54 34.772 0.172 7.28 2.58 13.52
1/13/2021 6:15:00 PM 1.53 34.754 0.172 7.25 2.64 13.52
1/13/2021 6:30:00 PM 1.52 34.736 0.172 7.25 2.59 13.51
1/13/2021 6:45:00 PM 1.51 34.718 0.172 7.22 2.58 13.5
1/13/2021 7:00:00 PM 1.5 34.7 0.172 7.25 2.52 13.5
1/13/2021 7:15:00 PM 1.5 34.7 0.172 7.25 2.41 13.5
1/13/2021 7:30:00 PM 1.5 34.7 0.172 7.23 2.72 13.5
1/13/2021 7:45:00 PM 1.5 34.7 0.172 7.24 2.63 13.48
1/13/2021 8:00:00 PM 1.49 34.682 0.172 7.24 2.37 13.49
1/13/2021 8:15:00 PM 1.48 34.664 0.172 7.21 2.56 13.49
1/13/2021 8:30:00 PM 1.46 34.628 0.172 7.25 2.59 13.49
1/13/2021 8:45:00 PM 1.44 34.592 0.173 7.24 2.38 13.49
1/13/2021 9:00:00 PM 1.41 34.538 0.173 7.24 2.56 13.49
1/13/2021 9:15:00 PM 1.38 34.484 0.173 7.24 2.35 13.5
1/13/2021 9:30:00 PM 1.35 34.43 0.173 7.23 2.59 13.51
1/13/2021 9:45:00 PM 1.32 34.376 0.173 7.23 2.54 13.51
1/13/2021 10:00:00 PM 1.28 34.304 0.173 7.24 2.66 13.52
1/13/2021 10:15:00 PM 1.24 34.232 0.173 7.24 2.45 13.54
1/13/2021 10:30:00 PM 1.2 34.16 0.173 7.25 2.49 13.55
1/13/2021 10:45:00 PM 1.16 34.088 0.173 7.26 2.61 13.56
1/13/2021 11:00:00 PM 1.13 34.034 0.173 7.24 2.49 13.58
1/13/2021 11:15:00 PM 1.1 33.98 0.173 7.24 2.55 13.58
1/13/2021 11:30:00 PM 1.07 33.926 0.173 7.21 2.5 13.6
1/13/2021 11:45:00 PM 1.05 33.89 0.173 7.25 2.5 13.6
1/14/2021 12:00:00 AM 1.03 33.854 0.173 7.24 2.51 13.61
1/14/2021 12:15:00 AM 1.02 33.836 0.173 7.24 2.5 13.61
1/14/2021 12:30:00 AM 1.01 33.818 0.173 7.23 2.54 13.62
1/14/2021 12:45:00 AM 1.01 33.818 0.173 7.23 2.42 13.62
1/14/2021 1:00:00 AM 1 33.8 0.173 7.19 2.37 13.63
1/14/2021 1:15:00 AM 0.99 33.782 0.173 7.24 2.38 13.63
1/14/2021 1:30:00 AM 0.98 33.764 0.173 7.24 2.44 13.63
1/14/2021 1:45:00 AM 0.97 33.746 0.173 7.24 2.49 13.64
1/14/2021 2:00:00 AM 0.97 33.746 0.173 7.24 2.5 13.64
1/14/2021 2:15:00 AM 0.96 33.728 0.173 7.25 2.45 13.64
1/14/2021 2:30:00 AM 0.95 33.71 0.173 7.24 2.56 13.65
1/14/2021 2:45:00 AM 0.95 33.71 0.173 7.25 2.48 13.65
1/14/2021 3:00:00 AM 0.95 33.71 0.173 7.25 2.6 13.65
1/14/2021 3:15:00 AM 0.95 33.71 0.173 7.25 2.41 13.66
1/14/2021 3:30:00 AM 0.95 33.71 0.173 7.24 2.58 13.66
1/14/2021 3:45:00 AM 0.94 33.692 0.173 7.24 2.3 13.66
1/14/2021 4:00:00 AM 0.95 33.71 0.173 7.25 2.52 13.66
1/14/2021 4:15:00 AM 0.94 33.692 0.173 7.21 2.42 13.66
1/14/2021 4:30:00 AM 0.94 33.692 0.173 7.24 2.6 13.66
1/14/2021 4:45:00 AM 0.94 33.692 0.173 7.25 2.4 13.66
1/14/2021 5:00:00 AM 0.94 33.692 0.173 7.25 2.54 13.66
1/14/2021 5:15:00 AM 0.94 33.692 0.173 7.25 2.29 13.66
1/14/2021 5:30:00 AM 0.94 33.692 0.173 7.25 2.34 13.66
1/14/2021 5:45:00 AM 0.94 33.692 0.173 7.25 2.4 13.67
1/14/2021 6:00:00 AM 0.95 33.71 0.173 7.25 2.26 13.67
1/14/2021 6:15:00 AM 0.95 33.71 0.173 7.26 2.42 13.67
1/14/2021 6:30:00 AM 0.96 33.728 0.173 7.25 2.29 13.66
1/14/2021 6:45:00 AM 0.96 33.728 0.173 7.25 2.34 13.67
1/14/2021 7:00:00 AM 0.96 33.728 0.173 7.26 2.45 13.66
1/14/2021 7:15:00 AM 0.97 33.746 0.173 7.25 2.4 13.66
1/14/2021 7:30:00 AM 0.97 33.746 0.173 7.25 2.35 13.66
1/14/2021 7:45:00 AM 0.98 33.764 0.174 7.26 2.21 13.66
1/14/2021 8:00:00 AM 0.99 33.782 0.173 7.25 2.35 13.67
1/14/2021 8:15:00 AM 1 33.8 0.173 7.25 2.45 13.68
1/14/2021 8:30:00 AM 1.02 33.836 0.173 7.25 2.29 13.69
1/14/2021 8:45:00 AM 1.04 33.872 0.173 7.23 2.4 13.7
1/14/2021 9:00:00 AM 1.06 33.908 0.173 7.27 2.25 13.71
1/14/2021 9:15:00 AM 1.09 33.962 0.173 7.26 2.45 13.73
1/14/2021 9:30:00 AM 1.12 34.016 0.173 7.26 2.28 13.74
1/14/2021 9:45:00 AM 1.16 34.088 0.173 7.28 2.27 13.76
1/14/2021 10:00:00 AM 1.19 34.142 0.173 7.28 2.29 13.76
1/14/2021 10:15:00 AM 1.23 34.214 0.173 7.29 2.25 13.77
1/14/2021 10:30:00 AM 1.28 34.304 0.172 7.29 2.41 13.77
1/14/2021 10:45:00 AM 1.32 34.376 0.172 7.3 2.37 13.77
1/14/2021 11:00:00 AM 1.39 34.502 0.172 7.29 2.42 13.77
1/14/2021 11:15:00 AM 1.45 34.61 0.172 7.3 2.45 13.76
1/14/2021 11:30:00 AM 1.5 34.7 0.172 7.29 2.37 13.75
1/14/2021 11:45:00 AM 1.55 34.79 0.172 7.31 2.36 13.74
1/14/2021 12:00:00 PM 1.6 34.88 0.172 7.31 2.25 13.73
1/14/2021 12:15:00 PM 1.66 34.988 0.172 7.31 2.4 13.71
1/14/2021 12:30:00 PM 1.73 35.114 0.172 7.32 2.38 13.7
1/14/2021 12:45:00 PM 1.8 35.24 0.172 7.3 2.57 13.68
1/14/2021 1:00:00 PM 1.86 35.348 0.172 7.33 2.29 13.67
1/14/2021 1:15:00 PM 1.92 35.456 0.172 7.28 2.33 13.65
1/14/2021 1:30:00 PM 1.98 35.564 0.172 7.33 2.45 13.63
1/14/2021 1:45:00 PM 2.04 35.672 0.172 7.32 2.38 13.62
1/14/2021 2:00:00 PM 2.08 35.744 0.172 7.33 2.45 13.6
1/14/2021 2:15:00 PM 2.11 35.798 0.172 7.32 2.46 13.58
1/14/2021 2:30:00 PM 2.13 35.834 0.172 7.32 2.39 13.56
1/14/2021 2:45:00 PM 2.12 35.816 0.172 7.32 2.41 13.55
1/14/2021 3:00:00 PM 2.12 35.816 0.172 7.32 2.37 13.53
1/14/2021 3:15:00 PM 2.11 35.798 0.172 7.32 2.35 13.52
1/14/2021 3:30:00 PM 2.1 35.78 0.172 7.31 2.5 13.5
1/14/2021 3:45:00 PM 2.08 35.744 0.172 7.3 2.66 13.49
1/14/2021 4:00:00 PM 2.07 35.726 0.172 7.3 2.58 13.47
1/14/2021 4:15:00 PM 2.05 35.69 0.172 7.22 2.64 13.46
1/14/2021 4:30:00 PM 2.03 35.654 0.172 7.29 2.54 13.44
1/14/2021 4:45:00 PM 2.02 35.636 0.172 7.28 2.65 13.42
1/14/2021 5:00:00 PM 2 35.6 0.172 7.29 2.54 13.4
1/14/2021 5:15:00 PM 1.99 35.582 0.172 7.27 2.65 13.39
1/14/2021 5:30:00 PM 1.98 35.564 0.172 7.27 2.55 13.37
1/14/2021 5:45:00 PM 1.97 35.546 0.172 7.27 2.86 13.36
1/14/2021 6:00:00 PM 1.96 35.528 0.172 7.27 3.41 13.35
1/14/2021 6:15:00 PM 1.96 35.528 0.172 7.27 3.63 13.34
1/14/2021 6:30:00 PM 1.95 35.51 0.172 7.27 3.59 13.34
1/14/2021 6:45:00 PM 1.95 35.51 0.172 7.27 3.8 13.34
1/14/2021 7:00:00 PM 1.95 35.51 0.172 7.27 3.48 13.33
1/14/2021 7:15:00 PM 1.95 35.51 0.172 7.27 3.32 13.33
1/14/2021 7:30:00 PM 1.95 35.51 0.172 7.27 3.13 13.33
1/14/2021 7:45:00 PM 1.95 35.51 0.172 7.27 3.18 13.33
1/14/2021 8:00:00 PM 1.95 35.51 0.172 7.27 2.65 13.32
1/14/2021 8:15:00 PM 1.94 35.492 0.172 7.18 2.7 13.32
1/14/2021 8:30:00 PM 1.94 35.492 0.172 7.27 2.62 13.32
1/14/2021 8:45:00 PM 1.94 35.492 0.172 7.25 2.5 13.32
1/14/2021 9:00:00 PM 1.93 35.474 0.172 7.26 2.47 13.32
1/14/2021 9:15:00 PM 1.93 35.474 0.172 7.26 2.65 13.32
1/14/2021 9:30:00 PM 1.92 35.456 0.172 7.25 2.62 13.32
1/14/2021 9:45:00 PM 1.92 35.456 0.172 7.26 2.61 13.33
1/14/2021 10:00:00 PM 1.91 35.438 0.172 7.25 2.64 13.33
1/14/2021 10:15:00 PM 1.9 35.42 0.172 7.25 2.68 13.33
1/14/2021 10:30:00 PM 1.9 35.42 0.172 7.24 2.42 13.33
1/14/2021 10:45:00 PM 1.89 35.402 0.172 7.25 2.61 13.34
1/14/2021 11:00:00 PM 1.89 35.402 0.172 7.25 2.63 13.34
1/14/2021 11:15:00 PM 1.88 35.384 0.172 7.26 2.67 13.34
1/14/2021 11:30:00 PM 1.88 35.384 0.172 7.26 2.75 13.34
1/14/2021 11:45:00 PM 1.87 35.366 0.172 7.25 2.99 13.34
1/15/2021 12:00:00 AM 1.87 35.366 0.172 7.25 3.92 13.35
1/15/2021 12:15:00 AM 1.86 35.348 0.173 7.25 4.87 13.35
1/15/2021 12:30:00 AM 1.86 35.348 0.173 7.25 6.73 13.34
1/15/2021 12:45:00 AM 1.86 35.348 0.173 7.25 9.64 13.34
1/15/2021 1:00:00 AM 1.85 35.33 0.173 7.25 14.6 13.34
1/15/2021 1:15:00 AM 1.85 35.33 0.173 7.25 15.77 13.34
1/15/2021 1:30:00 AM 1.85 35.33 0.173 7.26 41.43 13.35
1/15/2021 1:45:00 AM 1.85 35.33 0.173 7.25 22.05 13.35
1/15/2021 2:00:00 AM 1.85 35.33 0.173 7.25 44.65 13.34
1/15/2021 2:15:00 AM 1.85 35.33 0.173 7.25 58.66 13.35
1/15/2021 2:30:00 AM 1.85 35.33 0.173 7.2 127.94 13.35
1/15/2021 2:45:00 AM 1.85 35.33 0.173 7.25 57.55 13.35
1/15/2021 3:00:00 AM 1.85 35.33 0.173 7.2 49.51 13.35
1/15/2021 3:15:00 AM 1.83 35.294 0.173 7.25 66.07 13.35
1/15/2021 3:30:00 AM 1.81 35.258 0.173 7.23 86.04 13.36
1/15/2021 3:45:00 AM 1.8 35.24 0.173 7.24 76.56 13.36
1/15/2021 4:00:00 AM 1.79 35.222 0.173 7.25 92.13 13.36
1/15/2021 4:15:00 AM 1.79 35.222 0.173 7.25 72.39 13.37
1/15/2021 4:30:00 AM 1.77 35.186 0.173 7.25 51.55 13.37
1/15/2021 4:45:00 AM 1.75 35.15 0.173 7.25 69.13 13.37
1/15/2021 5:00:00 AM 1.73 35.114 0.173 7.25 72.83 13.38
1/15/2021 5:15:00 AM 1.71 35.078 0.173 7.26 64.7 13.38
1/15/2021 5:30:00 AM 1.68 35.024 0.173 7.26 58.64 13.39
1/15/2021 5:45:00 AM 1.66 34.988 0.173 7.25 74.74 13.39
1/15/2021 6:00:00 AM 1.63 34.934 0.173 7.26 75.92 13.4
1/15/2021 6:15:00 AM 1.6 34.88 0.173 7.25 80.03 13.41
1/15/2021 6:30:00 AM 1.58 34.844 0.173 7.26 74.25 13.42
1/15/2021 6:45:00 AM 1.55 34.79 0.173 7.25 79.23 13.43
1/15/2021 7:00:00 AM 1.53 34.754 0.173 7.25 65.95 13.43
1/15/2021 7:15:00 AM 1.5 34.7 0.173 7.26 105.62 13.44
1/15/2021 7:30:00 AM 1.48 34.664 0.173 7.25 79.29 13.45
1/15/2021 7:45:00 AM 1.47 34.646 0.173 7.25 163.37 13.46
1/15/2021 8:00:00 AM 1.46 34.628 0.173 7.26 61.86 13.47
1/15/2021 8:15:00 AM 1.46 34.628 0.173 7.26 63.29 13.49
1/15/2021 8:30:00 AM 1.46 34.628 0.173 7.27 101.08 13.5
1/15/2021 8:45:00 AM 1.47 34.646 0.173 7.27 98.57 13.51
1/15/2021 9:00:00 AM 1.49 34.682 0.173 7.27 61.52 13.52
1/15/2021 9:15:00 AM 1.51 34.718 0.173 7.28 56.66 13.54
1/15/2021 9:30:00 AM 1.55 34.79 0.173 7.29 62.24 13.55
1/15/2021 9:45:00 AM 1.58 34.844 0.173 7.29 40.33 13.57
1/15/2021 10:00:00 AM 1.63 34.934 0.173 7.3 41.1 13.59
1/15/2021 10:15:00 AM 1.68 35.024 0.173 7.2 22.71 13.61
1/15/2021 10:30:00 AM 1.75 35.15 0.173 7.37 26.25 13.62
1/15/2021 10:45:00 AM 1.82 35.276 0.173 7.28 13.36 13.62
1/15/2021 11:00:00 AM 1.91 35.438 0.173 7.33 16.47 13.61
1/15/2021 11:15:00 AM 2.01 35.618 0.173 7.33 15.98 13.61
1/15/2021 11:30:00 AM 2.09 35.762 0.173 7.28 11.76 13.6
1/15/2021 11:45:00 AM 2.15 35.87 0.173 7.35 12.33 13.58
1/15/2021 12:00:00 PM 2.19 35.942 0.173 7.29 11.47 13.57
1/15/2021 12:15:00 PM 2.23 36.014 0.172 7.34 10.32 13.55
1/15/2021 12:30:00 PM 2.28 36.104 0.173 7.36 9.28 13.54
1/15/2021 12:45:00 PM 2.33 36.194 0.172 7.35 8.62 13.52
1/15/2021 1:00:00 PM 2.36 36.248 0.172 7.3 7.6 13.5
1/15/2021 1:15:00 PM 2.36 36.248 0.172 7.35 7.19 13.49
1/15/2021 1:30:00 PM 2.37 36.266 0.172 7.34 6.64 13.48
1/15/2021 1:45:00 PM 2.4 36.32 0.172 7.34 6.29 13.46
1/15/2021 2:00:00 PM 2.44 36.392 0.172 7.35 6.32 13.45
1/15/2021 2:15:00 PM 2.47 36.446 0.172 7.35 6.21 13.44
1/15/2021 2:30:00 PM 2.49 36.482 0.172 7.35 5.87 13.42
1/15/2021 2:45:00 PM 2.51 36.518 0.172 7.29 5.67 13.41
1/15/2021 3:00:00 PM 2.51 36.518 0.172 7.35 4.85 13.4
1/15/2021 3:15:00 PM 2.5 36.5 0.172 7.33 5.18 13.37
1/15/2021 3:30:00 PM 2.49 36.482 0.172 7.34 5.13 13.34
1/15/2021 3:45:00 PM 2.47 36.446 0.172 7.33 4.94 13.31
1/15/2021 4:00:00 PM 2.46 36.428 0.172 7.25 4.7 13.28
1/15/2021 4:15:00 PM 2.45 36.41 0.172 7.3 4.84 13.27
1/15/2021 4:30:00 PM 2.44 36.392 0.172 7.31 4.61 13.25
1/15/2021 4:45:00 PM 2.44 36.392 0.172 7.31 4.51 13.23
1/15/2021 5:00:00 PM 2.44 36.392 0.172 7.3 4.55 13.21
1/15/2021 5:15:00 PM 2.44 36.392 0.172 7.3 4.37 13.19
1/15/2021 5:30:00 PM 2.44 36.392 0.172 7.3 4.07 13.18
1/15/2021 5:45:00 PM 2.44 36.392 0.172 7.29 4.33 13.16
1/15/2021 6:00:00 PM 2.44 36.392 0.172 7.28 4.2 13.15
1/15/2021 6:15:00 PM 2.44 36.392 0.172 7.29 4.21 13.14
1/15/2021 6:30:00 PM 2.45 36.41 0.172 7.23 4.24 13.13
1/15/2021 6:45:00 PM 2.45 36.41 0.172 7.28 4.11 13.12
1/15/2021 7:00:00 PM 2.45 36.41 0.172 7.29 4.29 13.12
1/15/2021 7:15:00 PM 2.45 36.41 0.172 7.22 3.99 13.12
1/15/2021 7:30:00 PM 2.46 36.428 0.172 7.28 4.18 13.11
1/15/2021 7:45:00 PM 2.46 36.428 0.172 7.29 4.07 13.1
1/15/2021 8:00:00 PM 2.46 36.428 0.171 7.28 4.09 13.1
1/15/2021 8:15:00 PM 2.46 36.428 0.171 7.29 3.94 13.1
1/15/2021 8:30:00 PM 2.46 36.428 0.171 7.37 3.94 13.1
1/15/2021 8:45:00 PM 2.45 36.41 0.171 7.25 4.11 13.1
1/15/2021 9:00:00 PM 2.45 36.41 0.171 7.28 4.28 13.1
1/15/2021 9:15:00 PM 2.45 36.41 0.171 7.28 3.83 13.1
1/15/2021 9:30:00 PM 2.45 36.41 0.171 7.28 4.48 13.09
1/15/2021 9:45:00 PM 2.45 36.41 0.17 7.27 4.56 13.09
1/15/2021 10:00:00 PM 2.45 36.41 0.17 7.28 4.36 13.09
1/15/2021 10:15:00 PM 2.45 36.41 0.17 7.28 4.78 13.08
1/15/2021 10:30:00 PM 2.45 36.41 0.17 7.2 4.94 13.08
1/15/2021 10:45:00 PM 2.45 36.41 0.17 7.28 5.34 13.08
1/15/2021 11:00:00 PM 2.45 36.41 0.17 7.28 5.27 13.08
1/15/2021 11:15:00 PM 2.45 36.41 0.17 7.28 5.91 13.07
1/15/2021 11:30:00 PM 2.45 36.41 0.17 7.27 5.95 13.07
1/15/2021 11:45:00 PM 2.45 36.41 0.17 7.21 6.38 13.06
1/16/2021 12:00:00 AM 2.45 36.41 0.17 7.28 6.38 13.06
1/16/2021 12:15:00 AM 2.45 36.41 0.171 7.27 6.83 13.05
1/16/2021 12:30:00 AM 2.46 36.428 0.171 7.26 7.2 13.05
1/16/2021 12:45:00 AM 2.46 36.428 0.171 7.27 7.3 13.05
1/16/2021 1:00:00 AM 2.45 36.41 0.172 7.25 8.33 13.05
1/16/2021 1:15:00 AM 2.45 36.41 0.172 7.2 9 13.05
1/16/2021 1:30:00 AM 2.39 36.302 0.172 7.24 10.35 13.05
1/16/2021 1:45:00 AM 2.33 36.194 0.172 7.23 12.3 13.06
1/16/2021 2:00:00 AM 2.26 36.068 0.173 7.17 13.97 13.07
1/16/2021 2:15:00 AM 2.18 35.924 0.174 7.21 16.31 13.09
1/16/2021 2:30:00 AM 2.13 35.834 0.176 7.22 18.88 13.11
1/16/2021 2:45:00 AM 2.09 35.762 0.177 7.21 22.71 13.12
1/16/2021 3:00:00 AM 2.06 35.708 0.176 7.21 29.63 13.13
1/16/2021 3:15:00 AM 2.01 35.618 0.175 7.2 35.69 13.15
1/16/2021 3:30:00 AM 1.95 35.51 0.174 7.11 33.99 13.17
1/16/2021 3:45:00 AM 1.9 35.42 0.174 7.17 47 13.19
1/16/2021 4:00:00 AM 1.87 35.366 0.174 7.19 57.64 13.22
1/16/2021 4:15:00 AM 1.84 35.312 0.174 7.17 58.33 13.24
1/16/2021 4:30:00 AM 1.8 35.24 0.174 7.18 66.42 13.26
1/16/2021 4:45:00 AM 1.76 35.168 0.174 7.18 63.01 13.28
1/16/2021 5:00:00 AM 1.71 35.078 0.174 7.18 93.17 13.31
1/16/2021 5:15:00 AM 1.66 34.988 0.172 7.18 77.37 13.33
1/16/2021 5:30:00 AM 1.62 34.916 0.169 7.15 105.7 13.35
1/16/2021 5:45:00 AM 1.59 34.862 0.167 7.16 77.89 13.36
1/16/2021 6:00:00 AM 1.56 34.808 0.165 7.14 71.91 13.38
1/16/2021 6:15:00 AM 1.55 34.79 0.164 7.06 80.74 13.38
1/16/2021 6:30:00 AM 1.53 34.754 0.163 7.13 95.78 13.39
1/16/2021 6:45:00 AM 1.53 34.754 0.163 7.13 62.53 13.4
1/16/2021 7:00:00 AM 1.5 34.7 0.163 7.14 76.31 13.39
1/16/2021 7:15:00 AM 1.5 34.7 0.162 7.12 59.3 13.39
1/16/2021 7:30:00 AM 1.51 34.718 0.161 7.11 86.14 13.38
1/16/2021 7:45:00 AM 1.52 34.736 0.16 7.03 62.22 13.38
1/16/2021 8:00:00 AM 1.53 34.754 0.159 7.1 55.19 13.38
1/16/2021 8:15:00 AM 1.53 34.754 0.158 7.09 45.18 13.38
1/16/2021 8:30:00 AM 1.54 34.772 0.157 7.09 60.48 13.39
1/16/2021 8:45:00 AM 1.56 34.808 0.156 7.1 46.17 13.38
1/16/2021 9:00:00 AM 1.6 34.88 0.154 7.1 35.7 13.37
1/16/2021 9:15:00 AM 1.63 34.934 0.154 7.11 44.09 13.37
1/16/2021 9:30:00 AM 1.66 34.988 0.153 7.11 44.75 13.37
1/16/2021 9:45:00 AM 1.69 35.042 0.152 7.09 62.15 13.36
1/16/2021 10:00:00 AM 1.71 35.078 0.152 7.09 31.68 13.36
1/16/2021 10:15:00 AM 1.75 35.15 0.151 7.09 37.74 13.35
1/16/2021 10:30:00 AM 1.79 35.222 0.151 7.1 80.14 13.35
1/16/2021 10:45:00 AM 1.81 35.258 0.151 7.09 40.96 13.34
1/16/2021 11:00:00 AM 1.83 35.294 0.15 7.1 41.48 13.32
1/16/2021 11:15:00 AM 1.86 35.348 0.15 7.1 41.6 13.32
1/16/2021 11:30:00 AM 1.91 35.438 0.15 7.11 490.92 13.31
1/16/2021 11:45:00 AM 1.95 35.51 0.15 7.1 30.64 13.3
1/16/2021 12:00:00 PM 1.99 35.582 0.149 7.11 43.46 13.3
1/16/2021 12:15:00 PM 2.06 35.708 0.149 7 36.28 13.29
1/16/2021 12:30:00 PM 2.13 35.834 0.149 7.11 34.03 13.28
1/16/2021 12:45:00 PM 2.19 35.942 0.149 7.05 27.14 13.26
1/16/2021 1:00:00 PM 2.25 36.05 0.149 7.12 30.91 13.24
1/16/2021 1:15:00 PM 2.31 36.158 0.148 7.12 30.12 13.22
1/16/2021 1:30:00 PM 2.36 36.248 0.148 7.12 29.93 13.21
1/16/2021 1:45:00 PM 2.4 36.32 0.148 7.03 36.58 13.19
1/16/2021 2:00:00 PM 2.45 36.41 0.148 7.14 29.15 13.16
1/16/2021 2:15:00 PM 2.49 36.482 0.148 7.12 21.92 13.15
1/16/2021 2:30:00 PM 2.53 36.554 0.147 7.05 26.68 13.13
1/16/2021 2:45:00 PM 2.55 36.59 0.147 7.11 22.85 13.11
1/16/2021 3:00:00 PM 2.58 36.644 0.147 7.12 24.63 13.09
1/16/2021 3:15:00 PM 2.61 36.698 0.147 7.13 25.51 13.08
1/16/2021 3:30:00 PM 2.63 36.734 0.147 7.12 25 13.07
1/16/2021 3:45:00 PM 2.64 36.752 0.147 7.13 25.45 13.06
1/16/2021 4:00:00 PM 2.64 36.752 0.147 7.11 23.78 13.04
1/16/2021 4:15:00 PM 2.64 36.752 0.147 7.11 22.78 13.02
1/16/2021 4:30:00 PM 2.63 36.734 0.147 7.11 22.28 13.01
1/16/2021 4:45:00 PM 2.63 36.734 0.147 7.1 23.81 12.99
1/16/2021 5:00:00 PM 2.61 36.698 0.146 7.1 24.76 12.99
1/16/2021 5:15:00 PM 2.59 36.662 0.146 7.09 18.63 12.98
1/16/2021 5:30:00 PM 2.57 36.626 0.146 7.1 24.04 12.97
1/16/2021 5:45:00 PM 2.54 36.572 0.147 7.07 16.31 12.97
1/16/2021 6:00:00 PM 2.51 36.518 0.147 7.09 27.16 12.97
1/16/2021 6:15:00 PM 2.48 36.464 0.146 6.99 26.09 12.98
1/16/2021 6:30:00 PM 2.45 36.41 0.147 7.07 23.82 12.98
1/16/2021 6:45:00 PM 2.42 36.356 0.147 7.09 23.52 12.99
1/16/2021 7:00:00 PM 2.39 36.302 0.146 7.09 20.92 12.99
1/16/2021 7:15:00 PM 2.36 36.248 0.146 7.08 27.54 13
1/16/2021 7:30:00 PM 2.34 36.212 0.146 7.07 21.69 13
1/16/2021 7:45:00 PM 2.32 36.176 0.146 7.03 25.32 13.01
1/16/2021 8:00:00 PM 2.3 36.14 0.146 7.08 21.73 13.01
1/16/2021 8:15:00 PM 2.27 36.086 0.146 7.07 27.3 13.02
1/16/2021 8:30:00 PM 2.25 36.05 0.146 7.08 24.3 13.02
1/16/2021 8:45:00 PM 2.22 35.996 0.146 7.08 30.83 13.03
1/16/2021 9:00:00 PM 2.18 35.924 0.145 7.07 28.63 13.05
1/16/2021 9:15:00 PM 2.14 35.852 0.145 7.07 22.92 13.05
1/16/2021 9:30:00 PM 2.1 35.78 0.145 7.07 29.11 13.07
1/16/2021 9:45:00 PM 2.07 35.726 0.145 7.08 22.52 13.08
1/16/2021 10:00:00 PM 2.04 35.672 0.145 7.06 22.63 13.09
1/16/2021 10:15:00 PM 2.01 35.618 0.145 7.07 21.25 13.1
1/16/2021 10:30:00 PM 1.98 35.564 0.145 7.07 20.96 13.11
1/16/2021 10:45:00 PM 1.95 35.51 0.145 7.07 19.89 13.12
1/16/2021 11:00:00 PM 1.91 35.438 0.145 7.06 19.7 13.13
1/16/2021 11:15:00 PM 1.88 35.384 0.145 7.06 20.19 13.14
1/16/2021 11:30:00 PM 1.86 35.348 0.145 7.07 14.58 13.15
1/16/2021 11:45:00 PM 1.85 35.33 0.146 7.07 18.85 13.16
1/17/2021 12:00:00 AM 1.84 35.312 0.145 6.97 18.61 13.17
1/17/2021 12:15:00 AM 1.83 35.294 0.146 7.07 15.68 13.17
1/17/2021 12:30:00 AM 1.82 35.276 0.145 7.07 15.98 13.18
1/17/2021 12:45:00 AM 1.81 35.258 0.145 7.07 22.9 13.19
1/17/2021 1:00:00 AM 1.8 35.24 0.145 7.06 17.24 13.2
1/17/2021 1:15:00 AM 1.79 35.222 0.145 7.07 16.24 13.2
1/17/2021 1:30:00 AM 1.77 35.186 0.145 7.07 16.3 13.21
1/17/2021 1:45:00 AM 1.75 35.15 0.145 6.98 12.35 13.22
1/17/2021 2:00:00 AM 1.74 35.132 0.145 7.08 16.25 13.22
1/17/2021 2:15:00 AM 1.72 35.096 0.145 7.07 13.71 13.22
1/17/2021 2:30:00 AM 1.71 35.078 0.145 7.02 15.67 13.23
1/17/2021 2:45:00 AM 1.7 35.06 0.145 7.07 15.41 13.24
1/17/2021 3:00:00 AM 1.69 35.042 0.145 7.07 15.97 13.25
1/17/2021 3:15:00 AM 1.67 35.006 0.145 7.07 15.06 13.25
1/17/2021 3:30:00 AM 1.66 34.988 0.145 6.97 18.19 13.26
1/17/2021 3:45:00 AM 1.65 34.97 0.145 7.08 15.34 13.26
1/17/2021 4:00:00 AM 1.65 34.97 0.145 7.06 14.63 13.26
1/17/2021 4:15:00 AM 1.64 34.952 0.145 7.07 13.41 13.27
1/17/2021 4:30:00 AM 1.63 34.934 0.145 7.07 14.79 13.27
1/17/2021 4:45:00 AM 1.63 34.934 0.145 7.05 13.42 13.27
1/17/2021 5:00:00 AM 1.62 34.916 0.145 7.07 13.8 13.28
1/17/2021 5:15:00 AM 1.61 34.898 0.145 7.07 14.42 13.28
1/17/2021 5:30:00 AM 1.6 34.88 0.145 7.07 13.33 13.29
1/17/2021 5:45:00 AM 1.6 34.88 0.145 7.07 12.9 13.29
1/17/2021 6:00:00 AM 1.59 34.862 0.146 6.96 13.03 13.29
1/17/2021 6:15:00 AM 1.59 34.862 0.146 7.05 12.82 13.3
1/17/2021 6:30:00 AM 1.58 34.844 0.146 7.07 12.97 13.3
1/17/2021 6:45:00 AM 1.58 34.844 0.146 7 12.9 13.3
1/17/2021 7:00:00 AM 1.57 34.826 0.146 7.08 12.9 13.31
1/17/2021 7:15:00 AM 1.57 34.826 0.146 7.07 12.42 13.31
1/17/2021 7:30:00 AM 1.57 34.826 0.146 7.04 12.47 13.31
1/17/2021 7:45:00 AM 1.57 34.826 0.146 7.07 12.52 13.31
1/17/2021 8:00:00 AM 1.57 34.826 0.146 7.07 11.6 13.31
1/17/2021 8:15:00 AM 1.57 34.826 0.146 7.08 12.17 13.33
1/17/2021 8:30:00 AM 1.56 34.808 0.146 7.08 11.93 13.34
1/17/2021 8:45:00 AM 1.56 34.808 0.146 7.09 11.6 13.37
1/17/2021 9:00:00 AM 1.57 34.826 0.146 7.09 11.12 13.38
1/17/2021 9:15:00 AM 1.58 34.844 0.146 7.09 11.25 13.4
1/17/2021 9:30:00 AM 1.59 34.862 0.146 7.1 11.12 13.39
1/17/2021 9:45:00 AM 1.61 34.898 0.147 7.1 10.54 13.41
1/17/2021 10:00:00 AM 1.64 34.952 0.146 7.11 10.87 13.42
1/17/2021 10:15:00 AM 1.66 34.988 0.147 7.01 9.88 13.43
1/17/2021 10:30:00 AM 1.68 35.024 0.147 7.11 10.11 13.43
1/17/2021 10:45:00 AM 1.7 35.06 0.147 7.11 9.95 13.44
1/17/2021 11:00:00 AM 1.72 35.096 0.147 7.11 9.96 13.44
1/17/2021 11:15:00 AM 1.73 35.114 0.147 7.11 9.91 13.43
1/17/2021 11:30:00 AM 1.76 35.168 0.147 7.11 9.85 13.43
1/17/2021 11:45:00 AM 1.8 35.24 0.147 7.12 9.7 13.44
1/17/2021 12:00:00 PM 1.85 35.33 0.147 7.12 9.57 13.43
1/17/2021 12:15:00 PM 1.9 35.42 0.147 7.13 9.55 13.42
1/17/2021 12:30:00 PM 1.96 35.528 0.147 7.13 9.7 13.42
1/17/2021 12:45:00 PM 2.07 35.726 0.147 7.14 9.21 13.41
1/17/2021 1:00:00 PM 2.15 35.87 0.147 7.14 8.88 13.39
1/17/2021 1:15:00 PM 2.19 35.942 0.147 7.14 9.29 13.38
1/17/2021 1:30:00 PM 2.25 36.05 0.147 7.14 8.84 13.36
1/17/2021 1:45:00 PM 2.31 36.158 0.147 7.14 8.98 13.34
1/17/2021 2:00:00 PM 2.34 36.212 0.147 7.14 9.1 13.33
1/17/2021 2:15:00 PM 2.37 36.266 0.147 7.15 8.95 13.32
1/17/2021 2:30:00 PM 2.4 36.32 0.147 7.14 8.53 13.3
1/17/2021 2:45:00 PM 2.43 36.374 0.147 7.14 8.68 13.29
1/17/2021 3:00:00 PM 2.46 36.428 0.148 7.14 8.54 13.28
1/17/2021 3:15:00 PM 2.46 36.428 0.148 7.14 8.94 13.26
1/17/2021 3:30:00 PM 2.47 36.446 0.147 7.15 8.55 13.24
1/17/2021 3:45:00 PM 2.46 36.428 0.148 7.14 8.43 13.23
1/17/2021 4:00:00 PM 2.46 36.428 0.148 7.13 8.94 13.21
1/17/2021 4:15:00 PM 2.45 36.41 0.148 7.13 8.53 13.19
1/17/2021 4:30:00 PM 2.44 36.392 0.148 7.13 8.47 13.16
1/17/2021 4:45:00 PM 2.43 36.374 0.148 7.12 8.69 13.15
1/17/2021 5:00:00 PM 2.42 36.356 0.148 7.12 8.74 13.13
1/17/2021 5:15:00 PM 2.42 36.356 0.148 7.03 8.63 13.12
1/17/2021 5:30:00 PM 2.41 36.338 0.148 7.09 8.81 13.11
1/17/2021 5:45:00 PM 2.4 36.32 0.148 7.09 8.57 13.1
1/17/2021 6:00:00 PM 2.39 36.302 0.148 7.11 9.86 13.1
1/17/2021 6:15:00 PM 2.38 36.284 0.148 7.11 13.73 13.09
1/17/2021 6:30:00 PM 2.38 36.284 0.148 7.11 21.64 13.08
1/17/2021 6:45:00 PM 2.37 36.266 0.148 7.06 29.17 13.08
1/17/2021 7:00:00 PM 2.36 36.248 0.148 7.11 35.38 13.07
1/17/2021 7:15:00 PM 2.34 36.212 0.149 7.1 54.31 13.07
1/17/2021 7:30:00 PM 2.33 36.194 0.148 7.1 70.69 13.07
1/17/2021 7:45:00 PM 2.31 36.158 0.149 7.1 66.41 13.08
1/17/2021 8:00:00 PM 2.3 36.14 0.149 7.1 64.76 13.08
1/17/2021 8:15:00 PM 2.29 36.122 0.149 7.1 52.57 13.09
1/17/2021 8:30:00 PM 2.28 36.104 0.149 7.1 45.05 13.09
1/17/2021 8:45:00 PM 2.27 36.086 0.149 7.1 55.34 13.09
1/17/2021 9:00:00 PM 2.26 36.068 0.149 7.1 29.37 13.09
1/17/2021 9:15:00 PM 2.25 36.05 0.15 7.11 21.91 13.1
1/17/2021 9:30:00 PM 2.25 36.05 0.15 7.11 24.65 13.1
1/17/2021 9:45:00 PM 2.24 36.032 0.15 7.1 15.82 13.1
1/17/2021 10:00:00 PM 2.23 36.014 0.15 7.02 14.15 13.1
1/17/2021 10:15:00 PM 2.22 35.996 0.15 7.09 12.84 13.11
1/17/2021 10:30:00 PM 2.21 35.978 0.15 7.11 11.95 13.11
1/17/2021 10:45:00 PM 2.21 35.978 0.15 7.11 11.35 13.11
1/17/2021 11:00:00 PM 2.2 35.96 0.15 7.12 11.08 13.11
1/17/2021 11:15:00 PM 2.19 35.942 0.15 7.11 10.54 13.12
1/17/2021 11:30:00 PM 2.18 35.924 0.15 7.11 10.55 13.12
1/17/2021 11:45:00 PM 2.17 35.906 0.15 7.11 10.02 13.12
1/18/2021 12:00:00 AM 2.17 35.906 0.151 7.12 9.67 13.12
1/18/2021 12:15:00 AM 2.16 35.888 0.151 7.11 9.83 13.12
1/18/2021 12:30:00 AM 2.15 35.87 0.151 7.05 9.98 13.12
1/18/2021 12:45:00 AM 2.14 35.852 0.151 7.12 9.96 13.13
1/18/2021 1:00:00 AM 2.13 35.834 0.151 7.1 9.42 13.13
1/18/2021 1:15:00 AM 2.12 35.816 0.151 7.11 9.35 13.13
1/18/2021 1:30:00 AM 2.11 35.798 0.151 7.01 9.05 13.13
1/18/2021 1:45:00 AM 2.1 35.78 0.151 7.11 8.82 13.14
1/18/2021 2:00:00 AM 2.1 35.78 0.151 7.04 8.72 13.14
1/18/2021 2:15:00 AM 2.08 35.744 0.151 7.11 8.54 13.15
1/18/2021 2:30:00 AM 2.05 35.69 0.151 7.04 8.55 13.15
1/18/2021 2:45:00 AM 2.03 35.654 0.151 7.11 8.84 13.16
1/18/2021 3:00:00 AM 2 35.6 0.151 7.11 8.2 13.17
1/18/2021 3:15:00 AM 1.97 35.546 0.151 7.07 8.27 13.17
1/18/2021 3:30:00 AM 1.94 35.492 0.151 7.1 8.08 13.18
1/18/2021 3:45:00 AM 1.91 35.438 0.151 7.11 7.87 13.18
1/18/2021 4:00:00 AM 1.88 35.384 0.152 7.11 8.48 13.19
1/18/2021 4:15:00 AM 1.87 35.366 0.152 7.11 8.05 13.2
1/18/2021 4:30:00 AM 1.86 35.348 0.152 7.11 7.88 13.21
1/18/2021 4:45:00 AM 1.84 35.312 0.152 7 7.83 13.22
1/18/2021 5:00:00 AM 1.83 35.294 0.152 7.11 8.16 13.22
1/18/2021 5:15:00 AM 1.83 35.294 0.152 7.11 7.69 13.23
1/18/2021 5:30:00 AM 1.82 35.276 0.152 7.11 7.92 13.23
1/18/2021 5:45:00 AM 1.81 35.258 0.152 7.01 7.73 13.24
1/18/2021 6:00:00 AM 1.8 35.24 0.152 7.11 7.56 13.24
1/18/2021 6:15:00 AM 1.79 35.222 0.152 7.11 7.48 13.25
1/18/2021 6:30:00 AM 1.78 35.204 0.152 7.11 7.37 13.26
1/18/2021 6:45:00 AM 1.77 35.186 0.152 7.11 7.47 13.26
1/18/2021 7:00:00 AM 1.76 35.168 0.152 7.1 7.36 13.26
1/18/2021 7:15:00 AM 1.75 35.15 0.152 7.03 7.34 13.27
1/18/2021 7:30:00 AM 1.74 35.132 0.152 7.11 7.29 13.27
1/18/2021 7:45:00 AM 1.73 35.114 0.152 7.11 7.1 13.28
1/18/2021 8:00:00 AM 1.74 35.132 0.152 7.11 7.22 13.3
1/18/2021 8:15:00 AM 1.74 35.132 0.152 7.13 7.05 13.33
1/18/2021 8:30:00 AM 1.75 35.15 0.152 7.13 7.3 13.35
1/18/2021 8:45:00 AM 1.76 35.168 0.152 7.14 6.86 13.37
1/18/2021 9:00:00 AM 1.78 35.204 0.152 7.14 6.69 13.39
1/18/2021 9:15:00 AM 1.8 35.24 0.152 7.15 6.62 13.41
1/18/2021 9:30:00 AM 1.84 35.312 0.152 7.07 6.75 13.43
1/18/2021 9:45:00 AM 1.89 35.402 0.152 7.17 6.76 13.44
1/18/2021 10:00:00 AM 1.92 35.456 0.152 7.16 6.56 13.44
1/18/2021 10:15:00 AM 1.95 35.51 0.152 7.17 6.42 13.45
1/18/2021 10:30:00 AM 1.94 35.492 0.152 7.11 6.34 13.44
1/18/2021 10:45:00 AM 1.96 35.528 0.152 7.17 6.14 13.44
1/18/2021 11:00:00 AM 1.99 35.582 0.152 7.17 6.15 13.45
1/18/2021 11:15:00 AM 2.07 35.726 0.152 7.19 6.3 13.46
1/18/2021 11:30:00 AM 2.11 35.798 0.152 7.17 6.11 13.46
1/18/2021 11:45:00 AM 2.16 35.888 0.152 7.19 6.58 13.46
1/18/2021 12:00:00 PM 2.3 36.14 0.152 7.21 6.3 13.44
1/18/2021 12:15:00 PM 2.35 36.23 0.152 7.2 6.14 13.43
1/18/2021 12:30:00 PM 2.4 36.32 0.152 7.2 6.52 13.41
1/18/2021 12:45:00 PM 2.46 36.428 0.152 7.21 6.63 13.4
1/18/2021 1:00:00 PM 2.51 36.518 0.152 7.21 6.36 13.39
1/18/2021 1:15:00 PM 2.57 36.626 0.152 7.21 6.14 13.37
1/18/2021 1:30:00 PM 2.57 36.626 0.152 7.2 6.26 13.36
1/18/2021 1:45:00 PM 2.57 36.626 0.152 7.25 6.01 13.33
1/18/2021 2:00:00 PM 2.6 36.68 0.152 7.1 6.27 13.32
1/18/2021 2:15:00 PM 2.61 36.698 0.152 7.2 6.2 13.31
1/18/2021 2:30:00 PM 2.65 36.77 0.152 7.19 6.01 13.3
1/18/2021 2:45:00 PM 2.68 36.824 0.152 7.2 5.77 13.3
1/18/2021 3:00:00 PM 2.68 36.824 0.152 7.19 5.86 13.29
1/18/2021 3:15:00 PM 2.7 36.86 0.152 7.2 5.92 13.27
1/18/2021 3:30:00 PM 2.71 36.878 0.152 7.2 5.8 13.26
1/18/2021 3:45:00 PM 2.71 36.878 0.151 7.2 5.88 13.25
1/18/2021 4:00:00 PM 2.71 36.878 0.151 7.2 5.84 13.24
1/18/2021 4:15:00 PM 2.7 36.86 0.151 7.19 5.76 13.23
1/18/2021 4:30:00 PM 2.69 36.842 0.152 7.19 5.8 13.21
1/18/2021 4:45:00 PM 2.68 36.824 0.152 7.18 5.44 13.17
1/18/2021 5:00:00 PM 2.65 36.77 0.152 7.17 5.75 13.16
1/18/2021 5:15:00 PM 2.63 36.734 0.152 7.17 7.37 13.13
1/18/2021 5:30:00 PM 2.61 36.698 0.152 7.16 7.18 13.12
1/18/2021 5:45:00 PM 2.59 36.662 0.152 7.16 7.02 13.11
1/18/2021 6:00:00 PM 2.58 36.644 0.152 7.16 7.92 13.1
1/18/2021 6:15:00 PM 2.56 36.608 0.152 7.07 10.3 13.1
1/18/2021 6:30:00 PM 2.54 36.572 0.152 7.14 17.62 13.09
1/18/2021 6:45:00 PM 2.49 36.482 0.152 7.15 27.89 13.09
1/18/2021 7:00:00 PM 2.43 36.374 0.152 7.13 41.94 13.09
1/18/2021 7:15:00 PM 2.42 36.356 0.152 7.14 41.49 13.1
1/18/2021 7:30:00 PM 2.4 36.32 0.152 7.14 59 13.1
1/18/2021 7:45:00 PM 2.38 36.284 0.152 7.14 53.52 13.11
1/18/2021 8:00:00 PM 2.37 36.266 0.152 7.13 43.76 13.11
1/18/2021 8:15:00 PM 2.36 36.248 0.152 7.13 61.59 13.13
1/18/2021 8:30:00 PM 2.36 36.248 0.152 7.14 51.79 13.13
1/18/2021 8:45:00 PM 2.35 36.23 0.152 7.14 38.98 13.13
1/18/2021 9:00:00 PM 2.34 36.212 0.152 7.13 33.76 13.14
1/18/2021 9:15:00 PM 2.33 36.194 0.152 7.14 24.51 13.14
1/18/2021 9:30:00 PM 2.3 36.14 0.152 7.14 25.31 13.15
1/18/2021 9:45:00 PM 2.28 36.104 0.152 7.14 14.36 13.16
1/18/2021 10:00:00 PM 2.27 36.086 0.152 7.14 14.21 13.17
1/18/2021 10:15:00 PM 2.25 36.05 0.152 7.14 12 13.18
1/18/2021 10:30:00 PM 2.24 36.032 0.152 7.14 10.94 13.19
1/18/2021 10:45:00 PM 2.22 35.996 0.152 7.14 10.23 13.19
1/18/2021 11:00:00 PM 2.21 35.978 0.152 7.13 9.64 13.2
1/18/2021 11:15:00 PM 2.2 35.96 0.152 7.13 8.46 13.2
1/18/2021 11:30:00 PM 2.18 35.924 0.152 7.13 7.99 13.21
1/18/2021 11:45:00 PM 2.16 35.888 0.152 7.13 8.07 13.22
1/19/2021 12:00:00 AM 2.14 35.852 0.152 7.13 7.3 13.23
1/19/2021 12:15:00 AM 2.12 35.816 0.152 7.14 7.6 13.24
1/19/2021 12:30:00 AM 2.11 35.798 0.152 7.14 7.18 13.24
1/19/2021 12:45:00 AM 2.09 35.762 0.152 7.13 7.07 13.25
1/19/2021 1:00:00 AM 2.08 35.744 0.152 7.14 6.84 13.26
1/19/2021 1:15:00 AM 2.06 35.708 0.152 7.13 6.61 13.26
1/19/2021 1:30:00 AM 2.05 35.69 0.152 7.13 6.72 13.27
1/19/2021 1:45:00 AM 2.03 35.654 0.152 7.13 6.5 13.28
1/19/2021 2:00:00 AM 2.01 35.618 0.152 7.13 6.85 13.29
1/19/2021 2:15:00 AM 2 35.6 0.153 7.13 6.53 13.29
1/19/2021 2:30:00 AM 1.99 35.582 0.153 7.13 6.41 13.3
1/19/2021 2:45:00 AM 1.98 35.564 0.153 7.12 6.08 13.3
1/19/2021 3:00:00 AM 1.97 35.546 0.153 7.13 6.35 13.31
1/19/2021 3:15:00 AM 1.95 35.51 0.153 7.13 6.22 13.31
1/19/2021 3:30:00 AM 1.94 35.492 0.153 7.14 6.22 13.32
1/19/2021 3:45:00 AM 1.93 35.474 0.153 7.13 6.03 13.32
1/19/2021 4:00:00 AM 1.92 35.456 0.153 7.13 5.89 13.33
1/19/2021 4:15:00 AM 1.9 35.42 0.153 7.13 6 13.33
1/19/2021 4:30:00 AM 1.89 35.402 0.153 7.05 5.97 13.34
1/19/2021 4:45:00 AM 1.88 35.384 0.153 7.13 5.97 13.35
1/19/2021 5:00:00 AM 1.86 35.348 0.153 7.11 5.94 13.35
1/19/2021 5:15:00 AM 1.83 35.294 0.153 7.14 5.91 13.36
1/19/2021 5:30:00 AM 1.82 35.276 0.153 7.14 5.87 13.37
1/19/2021 5:45:00 AM 1.8 35.24 0.153 7.14 6 13.38
1/19/2021 6:00:00 AM 1.78 35.204 0.153 7.13 6.1 13.39
1/19/2021 6:15:00 AM 1.76 35.168 0.153 7.14 6 13.4
1/19/2021 6:30:00 AM 1.75 35.15 0.153 7.13 5.88 13.4
1/19/2021 6:45:00 AM 1.74 35.132 0.153 7.14 6.09 13.4
1/19/2021 7:00:00 AM 1.72 35.096 0.153 7.15 5.85 13.42
1/19/2021 7:15:00 AM 1.7 35.06 0.153 7.14 5.77 13.42
1/19/2021 7:30:00 AM 1.69 35.042 0.153 7.14 5.62 13.43
1/19/2021 7:45:00 AM 1.67 35.006 0.153 7.14 5.73 13.44
1/19/2021 8:00:00 AM 1.66 34.988 0.153 7.15 5.53 13.46
1/19/2021 8:15:00 AM 1.65 34.97 0.154 7.16 5.91 13.49
1/19/2021 8:30:00 AM 1.65 34.97 0.154 7.17 5.52 13.52
1/19/2021 8:45:00 AM 1.66 34.988 0.154 7.17 5.59 13.55
1/19/2021 9:00:00 AM 1.68 35.024 0.154 7.08 5.39 13.59
1/19/2021 9:15:00 AM 1.7 35.06 0.154 7.19 5.47 13.62
1/19/2021 9:30:00 AM 1.73 35.114 0.154 7.2 5.34 13.64
1/19/2021 9:45:00 AM 1.76 35.168 0.154 7.2 5.38 13.65
1/19/2021 10:00:00 AM 1.79 35.222 0.153 7.21 5.54 13.67
1/19/2021 10:15:00 AM 1.83 35.294 0.153 7.21 5.15 13.68
1/19/2021 10:30:00 AM 1.88 35.384 0.153 7.22 5.42 13.68
1/19/2021 10:45:00 AM 1.95 35.51 0.154 7.23 5.02 13.68
1/19/2021 11:00:00 AM 2.01 35.618 0.153 7.23 5.07 13.68
1/19/2021 11:15:00 AM 2.07 35.726 0.153 7.16 5.13 13.68
1/19/2021 11:30:00 AM 2.13 35.834 0.153 7.23 5.4 13.67
1/19/2021 11:45:00 AM 2.19 35.942 0.153 7.23 5.12 13.66
1/19/2021 12:00:00 PM 2.24 36.032 0.153 7.15 5.11 13.65
1/19/2021 12:15:00 PM 2.3 36.14 0.153 7.23 5.02 13.64
1/19/2021 12:30:00 PM 2.36 36.248 0.153 7.25 4.98 13.62
1/19/2021 12:45:00 PM 2.42 36.356 0.153 7.24 5.02 13.6
1/19/2021 1:00:00 PM 2.44 36.392 0.153 7.23 5 13.59
1/19/2021 1:15:00 PM 2.44 36.392 0.153 7.24 4.96 13.57
1/19/2021 1:30:00 PM 2.47 36.446 0.153 7.24 4.95 13.55
1/19/2021 1:45:00 PM 2.51 36.518 0.153 7.21 4.97 13.54
1/19/2021 2:00:00 PM 2.54 36.572 0.153 7.25 4.83 13.53
1/19/2021 2:15:00 PM 2.57 36.626 0.153 7.26 4.86 13.52
1/19/2021 2:30:00 PM 2.57 36.626 0.153 7.25 4.91 13.5
1/19/2021 2:45:00 PM 2.58 36.644 0.153 7.25 4.86 13.5
1/19/2021 3:00:00 PM 2.6 36.68 0.153 7.24 4.98 13.48
1/19/2021 3:15:00 PM 2.61 36.698 0.153 7.24 4.62 13.48
1/19/2021 3:30:00 PM 2.6 36.68 0.153 7.25 4.81 13.47
1/19/2021 3:45:00 PM 2.58 36.644 0.153 7.24 4.82 13.47
1/19/2021 4:00:00 PM 2.56 36.608 0.154 7.16 4.92 13.45
1/19/2021 4:15:00 PM 2.54 36.572 0.153 7.24 4.83 13.43
1/19/2021 4:30:00 PM 2.51 36.518 0.153 7.22 4.65 13.4
1/19/2021 4:45:00 PM 2.48 36.464 0.154 7.23 4.51 13.38
1/19/2021 5:00:00 PM 2.45 36.41 0.154 7.23 4.91 13.36
1/19/2021 5:15:00 PM 2.42 36.356 0.154 7.21 4.83 13.34
1/19/2021 5:30:00 PM 2.39 36.302 0.154 7.2 4.75 13.32
1/19/2021 5:45:00 PM 2.37 36.266 0.154 7.12 4.62 13.3
1/19/2021 6:00:00 PM 2.34 36.212 0.154 7.19 4.5 13.29
1/19/2021 6:15:00 PM 2.32 36.176 0.154 7.19 4.62 13.29
1/19/2021 6:30:00 PM 2.3 36.14 0.154 7.19 4.76 13.29
1/19/2021 6:45:00 PM 2.27 36.086 0.154 7.19 4.65 13.29
1/19/2021 7:00:00 PM 2.25 36.05 0.154 7.18 4.81 13.29
1/19/2021 7:15:00 PM 2.23 36.014 0.154 7.17 4.86 13.29
1/19/2021 7:30:00 PM 2.21 35.978 0.154 7.19 4.74 13.3
1/19/2021 7:45:00 PM 2.18 35.924 0.154 7.18 4.61 13.3
1/19/2021 8:00:00 PM 2.17 35.906 0.154 7.17 4.69 13.3
1/19/2021 8:15:00 PM 2.15 35.87 0.154 7.17 4.55 13.3
1/19/2021 8:30:00 PM 2.13 35.834 0.154 7.16 4.7 13.31
1/19/2021 8:45:00 PM 2.11 35.798 0.154 7.16 4.58 13.31
1/19/2021 9:00:00 PM 2.09 35.762 0.155 7.17 4.5 13.31
1/19/2021 9:15:00 PM 2.07 35.726 0.155 7.17 4.69 13.32
1/19/2021 9:30:00 PM 2.05 35.69 0.155 7.06 5.15 13.32
1/19/2021 9:45:00 PM 2.02 35.636 0.155 7.17 5.35 13.32
1/19/2021 10:00:00 PM 2 35.6 0.155 7.17 5.88 13.32
1/19/2021 10:15:00 PM 1.97 35.546 0.155 7.22 5.62 13.33
1/19/2021 10:30:00 PM 1.95 35.51 0.155 7.17 6.04 13.34
1/19/2021 10:45:00 PM 1.93 35.474 0.155 7.17 6.02 13.34
1/19/2021 11:00:00 PM 1.91 35.438 0.155 7.16 5.67 13.35
1/19/2021 11:15:00 PM 1.89 35.402 0.155 7.17 5.35 13.35
1/19/2021 11:30:00 PM 1.88 35.384 0.155 7.16 5.34 13.36
1/19/2021 11:45:00 PM 1.86 35.348 0.155 7.16 5.04 13.36
1/20/2021 12:00:00 AM 1.85 35.33 0.155 7.16 5.09 13.36
1/20/2021 12:15:00 AM 1.83 35.294 0.155 7.17 4.81 13.36
1/20/2021 12:30:00 AM 1.82 35.276 0.155 7.17 4.61 13.37
1/20/2021 12:45:00 AM 1.8 35.24 0.155 7.17 4.61 13.38
1/20/2021 1:00:00 AM 1.78 35.204 0.155 7.17 4.35 13.38
1/20/2021 1:15:00 AM 1.77 35.186 0.155 7.17 4.53 13.38
1/20/2021 1:30:00 AM 1.75 35.15 0.155 7.17 4.75 13.39
1/20/2021 1:45:00 AM 1.74 35.132 0.155 7.16 4.54 13.39
1/20/2021 2:00:00 AM 1.73 35.114 0.155 7.17 4.33 13.39
1/20/2021 2:15:00 AM 1.72 35.096 0.155 7.17 4.6 13.39
1/20/2021 2:30:00 AM 1.71 35.078 0.155 7.16 4.32 13.39
1/20/2021 2:45:00 AM 1.7 35.06 0.155 7.07 4.3 13.4
1/20/2021 3:00:00 AM 1.69 35.042 0.155 7.17 4.5 13.4
1/20/2021 3:15:00 AM 1.68 35.024 0.155 7.18 4.5 13.4
1/20/2021 3:30:00 AM 1.67 35.006 0.156 7.17 4.43 13.4
1/20/2021 3:45:00 AM 1.66 34.988 0.155 7.08 4.65 13.4
1/20/2021 4:00:00 AM 1.66 34.988 0.155 7.17 4.56 13.4
1/20/2021 4:15:00 AM 1.65 34.97 0.155 7.17 4.59 13.4
1/20/2021 4:30:00 AM 1.63 34.934 0.155 7.14 4.34 13.41
1/20/2021 4:45:00 AM 1.6 34.88 0.155 7.18 4.39 13.41
1/20/2021 5:00:00 AM 1.57 34.826 0.155 7.17 4.31 13.41
1/20/2021 5:15:00 AM 1.55 34.79 0.155 7.17 4.3 13.43
1/20/2021 5:30:00 AM 1.54 34.772 0.155 7.17 4.38 13.43
1/20/2021 5:45:00 AM 1.44 34.592 0.155 7.17 4.41 13.43
1/20/2021 6:00:00 AM 1.35 34.43 0.155 7.16 4.56 13.44
1/20/2021 6:15:00 AM 1.33 34.394 0.155 7.18 4.19 13.45
1/20/2021 6:30:00 AM 1.3 34.34 0.155 7.17 4.4 13.47
1/20/2021 6:45:00 AM 1.28 34.304 0.155 7.18 4.37 13.48
1/20/2021 7:00:00 AM 1.28 34.304 0.155 7.19 4.19 13.49
1/20/2021 7:15:00 AM 1.28 34.304 0.155 7.17 4.3 13.51
1/20/2021 7:30:00 AM 1.28 34.304 0.156 7.17 4.11 13.52
1/20/2021 7:45:00 AM 1.27 34.286 0.155 7.17 4.63 13.53
1/20/2021 8:00:00 AM 1.26 34.268 0.155 7.19 4.42 13.55
1/20/2021 8:15:00 AM 1.25 34.25 0.155 7.19 4.25 13.6
1/20/2021 8:30:00 AM 1.26 34.268 0.156 7.2 4.2 13.63
1/20/2021 8:45:00 AM 1.25 34.25 0.156 7.21 4.28 13.67
1/20/2021 9:00:00 AM 1.24 34.232 0.156 7.21 4.07 13.71
1/20/2021 9:15:00 AM 1.26 34.268 0.156 7.23 4.4 13.76
1/20/2021 9:30:00 AM 1.29 34.322 0.156 7.23 4.18 13.79
1/20/2021 9:45:00 AM 1.31 34.358 0.156 7.24 4.12 13.82
1/20/2021 10:00:00 AM 1.38 34.484 0.156 7.26 4.27 13.85
1/20/2021 10:15:00 AM 1.45 34.61 0.156 7.25 4.15 13.85
1/20/2021 10:30:00 AM 1.53 34.754 0.155 7.27 4.2 13.86
1/20/2021 10:45:00 AM 1.65 34.97 0.156 7.27 4.22 13.84
1/20/2021 11:00:00 AM 1.71 35.078 0.155 7.28 4.12 13.85
1/20/2021 11:15:00 AM 1.75 35.15 0.155 7.27 4.39 13.84
1/20/2021 11:30:00 AM 1.75 35.15 0.156 7.21 4.3 13.83
1/20/2021 11:45:00 AM 1.76 35.168 0.155 7.27 4.23 13.84
1/20/2021 12:00:00 PM 1.8 35.24 0.156 7.27 4.24 13.83
1/20/2021 12:15:00 PM 1.83 35.294 0.156 7.21 3.95 13.84
1/20/2021 12:30:00 PM 1.83 35.294 0.156 7.28 4.1 13.82
1/20/2021 12:45:00 PM 1.76 35.168 0.156 7.27 4.05 13.82
1/20/2021 1:00:00 PM 1.78 35.204 0.156 7.28 4.1 13.82
1/20/2021 1:15:00 PM 1.83 35.294 0.156 7.28 3.93 13.82
1/20/2021 1:30:00 PM 1.84 35.312 0.156 7.23 3.95 13.82
1/20/2021 1:45:00 PM 1.81 35.258 0.156 7.28 3.88 13.83
1/20/2021 2:00:00 PM 1.82 35.276 0.156 7.29 3.78 13.83
1/20/2021 2:15:00 PM 1.86 35.348 0.156 7.29 3.9 13.82
1/20/2021 2:30:00 PM 1.87 35.366 0.156 7.3 3.83 13.82
1/20/2021 2:45:00 PM 1.84 35.312 0.156 7.28 3.69 13.82
1/20/2021 3:00:00 PM 1.81 35.258 0.156 7.29 3.8 13.82
1/20/2021 3:15:00 PM 1.79 35.222 0.156 7.29 3.69 13.83
1/20/2021 3:30:00 PM 1.74 35.132 0.156 7.28 3.78 13.82
1/20/2021 3:45:00 PM 1.69 35.042 0.156 7.27 3.81 13.81
1/20/2021 4:00:00 PM 1.65 34.97 0.156 7.29 3.81 13.81
1/20/2021 4:15:00 PM 1.58 34.844 0.156 7.27 3.81 13.81
1/20/2021 4:30:00 PM 1.53 34.754 0.156 7.27 3.86 13.81
1/20/2021 4:45:00 PM 1.47 34.646 0.156 7.27 3.8 13.79
1/20/2021 5:00:00 PM 1.41 34.538 0.156 7.25 3.84 13.78
1/20/2021 5:15:00 PM 1.37 34.466 0.156 7.25 3.98 13.75
1/20/2021 5:30:00 PM 1.34 34.412 0.156 7.23 3.68 13.72
1/20/2021 5:45:00 PM 1.31 34.358 0.156 7.23 3.7 13.7
1/20/2021 6:00:00 PM 1.28 34.304 0.156 7.22 3.78 13.7
1/20/2021 6:15:00 PM 1.24 34.232 0.156 7.21 3.85 13.69
1/20/2021 6:30:00 PM 1.2 34.16 0.156 7.2 3.71 13.7
1/20/2021 6:45:00 PM 1.16 34.088 0.157 7.21 3.94 13.7
1/20/2021 7:00:00 PM 1.13 34.034 0.157 7.2 3.95 13.71
1/20/2021 7:15:00 PM 1.1 33.98 0.157 7.2 3.84 13.71
1/20/2021 7:30:00 PM 1.08 33.944 0.157 7.2 3.95 13.72
1/20/2021 7:45:00 PM 1.05 33.89 0.157 7.2 3.77 13.72
1/20/2021 8:00:00 PM 1.02 33.836 0.157 7.2 3.6 13.73
1/20/2021 8:15:00 PM 0.99 33.782 0.157 7.2 3.79 13.73
1/20/2021 8:30:00 PM 0.97 33.746 0.157 7.2 3.93 13.74
1/20/2021 8:45:00 PM 0.95 33.71 0.157 7.2 3.66 13.74
1/20/2021 9:00:00 PM 0.93 33.674 0.157 7.12 3.6 13.75
1/20/2021 9:15:00 PM 0.91 33.638 0.157 7.21 3.78 13.76
1/20/2021 9:30:00 PM 0.89 33.602 0.157 7.2 3.8 13.76
1/20/2021 9:45:00 PM 0.86 33.548 0.157 7.2 3.84 13.77
1/20/2021 10:00:00 PM 0.84 33.512 0.157 7.21 3.77 13.77
1/20/2021 10:15:00 PM 0.82 33.476 0.157 7.2 3.9 13.78
1/20/2021 10:30:00 PM 0.8 33.44 0.157 7.2 3.59 13.78
1/20/2021 10:45:00 PM 0.78 33.404 0.157 7.2 3.65 13.79
1/20/2021 11:00:00 PM 0.75 33.35 0.157 7.2 3.67 13.8
1/20/2021 11:15:00 PM 0.72 33.296 0.157 7.1 3.82 13.8
1/20/2021 11:30:00 PM 0.7 33.26 0.157 7.19 3.7 13.81
1/20/2021 11:45:00 PM 0.66 33.188 0.157 7.2 3.73 13.81
1/21/2021 12:00:00 AM 0.62 33.116 0.158 7.2 3.76 13.82
1/21/2021 12:15:00 AM 0.58 33.044 0.158 7.19 3.79 13.83
1/21/2021 12:30:00 AM 0.54 32.972 0.158 7.19 3.73 13.84
1/21/2021 12:45:00 AM 0.5 32.9 0.158 7.2 4.01 13.86
1/21/2021 1:00:00 AM 0.47 32.846 0.158 7.19 3.72 13.87
1/21/2021 1:15:00 AM 0.44 32.792 0.158 7.19 3.64 13.88
1/21/2021 1:30:00 AM 0.41 32.738 0.158 7.19 3.7 13.89
1/21/2021 1:45:00 AM 0.37 32.666 0.158 7.17 3.74 13.9
1/21/2021 2:00:00 AM 0.32 32.576 0.158 7.19 3.49 13.91
1/21/2021 2:15:00 AM 0.28 32.504 0.158 7.19 3.67 13.92
1/21/2021 2:30:00 AM 0.23 32.414 0.158 7.13 3.52 13.93
1/21/2021 2:45:00 AM 0.19 32.342 0.158 7.19 3.53 13.94
1/21/2021 3:00:00 AM 0.15 32.27 0.158 7.2 3.53 13.95
1/21/2021 3:15:00 AM 0.1 32.18 0.158 7.19 3.53 13.97
1/21/2021 3:30:00 AM 0.06 32.108 0.158 7.19 3.8 13.98
1/21/2021 3:45:00 AM 0.02 32.036 0.158 7.19 3.6 13.99
1/21/2021 4:00:00 AM -0.01 31.982 0.159 7.09 3.66 14
1/21/2021 4:15:00 AM -0.04 31.928 0.159 7.17 3.53 14.01
1/21/2021 4:30:00 AM -0.04 31.928 0.159 7.2 3.62 14.02
1/21/2021 4:45:00 AM -0.04 31.928 0.159 7.18 3.59 14.02
1/21/2021 5:00:00 AM -0.03 31.946 0.159 7.25 3.92 14.03
1/21/2021 5:15:00 AM -0.02 31.964 0.16 7.24 3.83 14.02
1/21/2021 5:30:00 AM -0.02 31.964 0.16 7.24 3.64 14.02
1/21/2021 5:45:00 AM -0.02 31.964 0.16 7.21 3.71 14.01
1/21/2021 6:00:00 AM -0.01 31.982 0.16 7.23 3.26 14
1/21/2021 6:15:00 AM -0.01 31.982 0.16 7.19 3.51 13.99
1/21/2021 6:30:00 AM 0 32 0.161 7.21 3.76 13.98
1/21/2021 6:45:00 AM 0.01 32.018 0.161 7.17 3.91 13.97
1/21/2021 7:00:00 AM 0.04 32.072 0.161 7.2 3.57 13.95
1/21/2021 7:15:00 AM 0.08 32.144 0.162 7.2 3.62 13.94
1/21/2021 7:30:00 AM 0.09 32.162 0.162 7.2 3.55 13.94
1/21/2021 7:45:00 AM 0.12 32.216 0.162 7.07 3.57 13.93
1/21/2021 8:00:00 AM 0.13 32.234 0.163 7.21 3.64 13.94
1/21/2021 8:15:00 AM 0.15 32.27 0.163 7.22 3.3 13.95
1/21/2021 8:30:00 AM 0.17 32.306 0.163 7.13 3.34 13.97
1/21/2021 8:45:00 AM 0.19 32.342 0.163 7.22 3.5 13.98
1/21/2021 9:00:00 AM 0.22 32.396 0.163 7.23 3.43 14
1/21/2021 9:15:00 AM 0.25 32.45 0.164 7.23 3.51 14.03
1/21/2021 9:30:00 AM 0.29 32.522 0.164 7.25 3.32 14.07
1/21/2021 9:45:00 AM 0.33 32.594 0.163 7.26 3.36 14.09
1/21/2021 10:00:00 AM 0.38 32.684 0.163 7.27 3.32 14.11
1/21/2021 10:15:00 AM 0.44 32.792 0.163 7.29 3.23 14.12
1/21/2021 10:30:00 AM 0.51 32.918 0.163 7.29 3.37 14.14
1/21/2021 10:45:00 AM 0.56 33.008 0.163 7.3 3.41 14.14
1/21/2021 11:00:00 AM 0.61 33.098 0.163 7.3 3.37 14.13
1/21/2021 11:15:00 AM 0.66 33.188 0.163 7.29 3.38 14.13
1/21/2021 11:30:00 AM 0.71 33.278 0.162 7.31 3.34 14.12
1/21/2021 11:45:00 AM 0.76 33.368 0.162 7.3 3.39 14.11
1/21/2021 12:00:00 PM 0.8 33.44 0.162 7.31 3.33 14.1
1/21/2021 12:15:00 PM 0.85 33.53 0.161 7.31 3.52 14.1
1/21/2021 12:30:00 PM 0.9 33.62 0.161 7.31 3.44 14.08
1/21/2021 12:45:00 PM 0.95 33.71 0.16 7.31 3.41 14.07
1/21/2021 1:00:00 PM 1 33.8 0.16 7.3 3.55 14.06
1/21/2021 1:15:00 PM 1.05 33.89 0.159 7.31 3.55 14.05
1/21/2021 1:30:00 PM 1.1 33.98 0.159 7.31 3.56 14.04
1/21/2021 1:45:00 PM 1.13 34.034 0.158 7.23 3.72 14.03
1/21/2021 2:00:00 PM 1.14 34.052 0.158 7.31 3.58 14.01
1/21/2021 2:15:00 PM 1.17 34.106 0.158 7.31 3.5 14
1/21/2021 2:30:00 PM 1.24 34.232 0.158 7.31 3.54 13.97
1/21/2021 2:45:00 PM 1.22 34.196 0.158 7.3 3.8 13.96
1/21/2021 3:00:00 PM 1.22 34.196 0.158 7.3 3.59 13.95
1/21/2021 3:15:00 PM 1.29 34.322 0.158 7.3 3.6 13.93
1/21/2021 3:30:00 PM 1.31 34.358 0.158 7.24 3.51 13.91
1/21/2021 3:45:00 PM 1.28 34.304 0.159 7.3 3.68 13.9
1/21/2021 4:00:00 PM 1.31 34.358 0.159 7.31 3.65 13.87
1/21/2021 4:15:00 PM 1.34 34.412 0.159 7.31 3.74 13.84
1/21/2021 4:30:00 PM 1.36 34.448 0.16 7.31 3.8 13.8
1/21/2021 4:45:00 PM 1.38 34.484 0.16 7.29 3.75 13.76
1/21/2021 5:00:00 PM 1.38 34.484 0.16 7.28 3.73 13.7
1/21/2021 5:15:00 PM 1.38 34.484 0.161 7.28 3.55 13.65
1/21/2021 5:30:00 PM 1.39 34.502 0.161 7.26 3.73 13.6
1/21/2021 5:45:00 PM 1.4 34.52 0.161 7.25 3.65 13.56
1/21/2021 6:00:00 PM 1.4 34.52 0.161 7.25 3.69 13.53
1/21/2021 6:15:00 PM 1.4 34.52 0.161 7.25 3.66 13.51
1/21/2021 6:30:00 PM 1.4 34.52 0.161 7.22 3.74 13.48
1/21/2021 6:45:00 PM 1.4 34.52 0.161 7.15 3.95 13.48
1/21/2021 7:00:00 PM 1.39 34.502 0.161 7.23 3.92 13.48
1/21/2021 7:15:00 PM 1.38 34.484 0.161 7.21 3.68 13.47
1/21/2021 7:30:00 PM 1.36 34.448 0.161 7.22 3.77 13.47
1/21/2021 7:45:00 PM 1.35 34.43 0.161 7.23 3.62 13.46
1/21/2021 8:00:00 PM 1.34 34.412 0.161 7.22 3.86 13.47
1/21/2021 8:15:00 PM 1.33 34.394 0.161 7.22 3.72 13.46
1/21/2021 8:30:00 PM 1.32 34.376 0.161 7.22 3.88 13.46
1/21/2021 8:45:00 PM 1.31 34.358 0.161 7.22 3.71 13.45
1/21/2021 9:00:00 PM 1.31 34.358 0.161 7.22 3.77 13.45
1/21/2021 9:15:00 PM 1.31 34.358 0.16 7.27 3.77 13.44
1/21/2021 9:30:00 PM 1.31 34.358 0.16 7.17 3.62 13.44
1/21/2021 9:45:00 PM 1.32 34.376 0.16 7.22 4.11 13.44
1/21/2021 10:00:00 PM 1.32 34.376 0.16 7.22 3.67 13.43
1/21/2021 10:15:00 PM 1.33 34.394 0.16 7.22 3.71 13.43
1/21/2021 10:30:00 PM 1.33 34.394 0.16 7.22 3.55 13.42
1/21/2021 10:45:00 PM 1.31 34.358 0.159 7.21 3.72 13.42
1/21/2021 11:00:00 PM 1.31 34.358 0.159 7.21 3.69 13.42
1/21/2021 11:15:00 PM 1.29 34.322 0.159 7.21 3.8 13.42
1/21/2021 11:30:00 PM 1.27 34.286 0.159 7.22 3.66 13.43
1/21/2021 11:45:00 PM 1.27 34.286 0.159 7.22 3.84 13.43
1/22/2021 12:00:00 AM 1.26 34.268 0.158 7.21 3.77 13.44
1/22/2021 12:15:00 AM 1.23 34.214 0.158 7.21 3.84 13.44
1/22/2021 12:30:00 AM 1.19 34.142 0.158 7.13 3.94 13.45
1/22/2021 12:45:00 AM 1.18 34.124 0.158 7.22 3.68 13.45
1/22/2021 1:00:00 AM 1.16 34.088 0.158 7.21 3.83 13.46
1/22/2021 1:15:00 AM 1.14 34.052 0.158 7.22 3.69 13.46
1/22/2021 1:30:00 AM 1.12 34.016 0.159 7.22 4.13 13.47
1/22/2021 1:45:00 AM 1.11 33.998 0.158 7.21 3.81 13.48
1/22/2021 2:00:00 AM 1.11 33.998 0.158 7.21 3.67 13.48
1/22/2021 2:15:00 AM 1.11 33.998 0.159 7.22 3.77 13.48
1/22/2021 2:30:00 AM 1.1 33.98 0.159 7.23 3.85 13.49
1/22/2021 2:45:00 AM 1.06 33.908 0.159 7.21 3.73 13.48
1/22/2021 3:00:00 AM 1.05 33.89 0.159 7.21 3.71 13.49
1/22/2021 3:15:00 AM 1.06 33.908 0.159 7.21 3.66 13.49
1/22/2021 3:30:00 AM 1.06 33.908 0.159 7.21 3.79 13.5
1/22/2021 3:45:00 AM 1.06 33.908 0.159 7.21 3.83 13.51
1/22/2021 4:00:00 AM 1.06 33.908 0.159 7.21 3.55 13.51
1/22/2021 4:15:00 AM 1.06 33.908 0.159 7.21 3.8 13.52
1/22/2021 4:30:00 AM 1.06 33.908 0.159 7.21 3.82 13.52
1/22/2021 4:45:00 AM 1.06 33.908 0.159 7.21 3.56 13.52
1/22/2021 5:00:00 AM 1.06 33.908 0.159 7.21 3.89 13.52
1/22/2021 5:15:00 AM 1.06 33.908 0.159 7.11 3.56 13.52
1/22/2021 5:30:00 AM 1.06 33.908 0.159 7.21 3.65 13.52
1/22/2021 5:45:00 AM 1.06 33.908 0.159 7.13 3.74 13.52
1/22/2021 6:00:00 AM 1.05 33.89 0.159 7.21 3.69 13.53
1/22/2021 6:15:00 AM 1.03 33.854 0.159 7.22 3.71 13.53
1/22/2021 6:30:00 AM 1 33.8 0.159 7.21 3.8 13.54
1/22/2021 6:45:00 AM 0.96 33.728 0.159 7.22 3.69 13.55
1/22/2021 7:00:00 AM 0.93 33.674 0.159 7.21 3.86 13.56
1/22/2021 7:15:00 AM 0.91 33.638 0.159 7.22 3.61 13.57
1/22/2021 7:30:00 AM 0.9 33.62 0.159 7.22 3.63 13.59
1/22/2021 7:45:00 AM 0.89 33.602 0.159 7.21 3.61 13.6
1/22/2021 8:00:00 AM 0.89 33.602 0.159 7.21 3.53 13.63
1/22/2021 8:15:00 AM 0.91 33.638 0.159 7.16 3.67 13.67
1/22/2021 8:30:00 AM 0.93 33.674 0.159 7.25 3.55 13.7
1/22/2021 8:45:00 AM 0.95 33.71 0.159 7.27 3.6 13.75
1/22/2021 9:00:00 AM 0.98 33.764 0.159 7.27 3.58 13.79
1/22/2021 9:15:00 AM 1.02 33.836 0.159 7.19 3.57 13.83
1/22/2021 9:30:00 AM 1.06 33.908 0.159 7.3 3.4 13.86
1/22/2021 9:45:00 AM 1.11 33.998 0.159 7.28 3.46 13.89
1/22/2021 10:00:00 AM 1.16 34.088 0.159 7.3 3.52 13.9
1/22/2021 10:15:00 AM 1.22 34.196 0.159 7.31 3.51 13.91
1/22/2021 10:30:00 AM 1.29 34.322 0.159 7.31 3.42 13.91
1/22/2021 10:45:00 AM 1.35 34.43 0.159 7.25 3.42 13.92
1/22/2021 11:00:00 AM 1.45 34.61 0.159 7.34 3.42 13.91
1/22/2021 11:15:00 AM 1.54 34.772 0.159 7.33 3.58 13.9
1/22/2021 11:30:00 AM 1.62 34.916 0.159 7.34 3.5 13.88
1/22/2021 11:45:00 AM 1.69 35.042 0.159 7.36 3.45 13.87
1/22/2021 12:00:00 PM 1.71 35.078 0.159 7.33 3.46 13.85
1/22/2021 12:15:00 PM 1.7 35.06 0.159 7.32 3.51 13.84
1/22/2021 12:30:00 PM 1.76 35.168 0.159 7.34 3.48 13.83
1/22/2021 12:45:00 PM 1.8 35.24 0.159 7.35 3.44 13.82
1/22/2021 1:00:00 PM 1.82 35.276 0.159 7.45 3.36 13.81
1/22/2021 1:15:00 PM 1.89 35.402 0.159 7.35 3.4 13.79
1/22/2021 1:30:00 PM 1.85 35.33 0.159 7.35 3.44 13.75
1/22/2021 1:45:00 PM 1.79 35.222 0.159 7.33 3.44 13.72
1/22/2021 2:00:00 PM 1.83 35.294 0.159 7.34 3.47 13.7
1/22/2021 2:15:00 PM 1.95 35.51 0.159 7.35 3.55 13.71
1/22/2021 2:30:00 PM 1.97 35.546 0.159 7.33 3.41 13.71
1/22/2021 2:45:00 PM 1.94 35.492 0.159 7.34 3.44 13.69
1/22/2021 3:00:00 PM 1.94 35.492 0.159 7.35 3.34 13.68
1/22/2021 3:15:00 PM 1.99 35.582 0.159 7.33 3.31 13.68
1/22/2021 3:30:00 PM 1.99 35.582 0.159 7.32 3.43 13.67
1/22/2021 3:45:00 PM 1.96 35.528 0.159 7.35 3.16 13.65
1/22/2021 4:00:00 PM 1.92 35.456 0.159 7.33 3.39 13.61
1/22/2021 4:15:00 PM 1.89 35.402 0.159 7.37 3.38 13.58
1/22/2021 4:30:00 PM 1.86 35.348 0.159 7.3 3.41 13.57
1/22/2021 4:45:00 PM 1.82 35.276 0.159 7.31 3.39 13.55
1/22/2021 5:00:00 PM 1.79 35.222 0.159 7.29 3.36 13.53
1/22/2021 5:15:00 PM 1.75 35.15 0.159 7.28 3.44 13.51
1/22/2021 5:30:00 PM 1.72 35.096 0.159 7.27 3.25 13.5
1/22/2021 5:45:00 PM 1.68 35.024 0.159 7.26 3.4 13.48
1/22/2021 6:00:00 PM 1.65 34.97 0.159 7.19 3.41 13.47
1/22/2021 6:15:00 PM 1.62 34.916 0.16 7.26 3.56 13.47
1/22/2021 6:30:00 PM 1.58 34.844 0.16 7.26 3.47 13.47
1/22/2021 6:45:00 PM 1.55 34.79 0.16 7.23 3.4 13.48
1/22/2021 7:00:00 PM 1.52 34.736 0.16 7.25 3.46 13.48
1/22/2021 7:15:00 PM 1.48 34.664 0.16 7.24 3.34 13.49
1/22/2021 7:30:00 PM 1.45 34.61 0.16 7.22 3.18 13.5
1/22/2021 7:45:00 PM 1.41 34.538 0.16 7.24 3.2 13.51
1/22/2021 8:00:00 PM 1.36 34.448 0.16 7.23 3.22 13.52
1/22/2021 8:15:00 PM 1.31 34.358 0.16 7.13 3.32 13.53
1/22/2021 8:30:00 PM 1.27 34.286 0.16 7.24 3.2 13.54
1/22/2021 8:45:00 PM 1.23 34.214 0.16 7.23 3.28 13.55
1/22/2021 9:00:00 PM 1.18 34.124 0.16 7.18 3.21 13.57
1/22/2021 9:15:00 PM 1.13 34.034 0.16 7.23 3.24 13.59
1/22/2021 9:30:00 PM 1.1 33.98 0.16 7.23 3.17 13.6
1/22/2021 9:45:00 PM 1.08 33.944 0.161 7.23 3.16 13.61
1/22/2021 10:00:00 PM 1.06 33.908 0.161 7.16 3.29 13.62
1/22/2021 10:15:00 PM 1.03 33.854 0.161 7.24 3.18 13.63
1/22/2021 10:30:00 PM 1 33.8 0.161 7.22 3.38 13.64
1/22/2021 10:45:00 PM 0.96 33.728 0.161 7.23 3.33 13.66
1/22/2021 11:00:00 PM 0.91 33.638 0.161 7.18 3.26 13.67
1/22/2021 11:15:00 PM 0.87 33.566 0.161 7.23 3.11 13.69
1/22/2021 11:30:00 PM 0.84 33.512 0.161 7.17 3.32 13.7
1/22/2021 11:45:00 PM 0.8 33.44 0.161 7.22 3.38 13.72
1/23/2021 12:00:00 AM 0.76 33.368 0.161 7.24 3.35 13.73
1/23/2021 12:15:00 AM 0.73 33.314 0.161 7.16 3.07 13.74
1/23/2021 12:30:00 AM 0.69 33.242 0.161 7.23 3.2 13.76
1/23/2021 12:45:00 AM 0.64 33.152 0.161 7.17 3.25 13.77
1/23/2021 1:00:00 AM 0.59 33.062 0.161 7.24 3.37 13.79
1/23/2021 1:15:00 AM 0.52 32.936 0.161 7.28 5.66 13.82
1/23/2021 1:30:00 AM 0.48 32.864 0.162 7.21 3.35 13.83
1/23/2021 1:45:00 AM 0.44 32.792 0.162 7.23 3.11 13.85
1/23/2021 2:00:00 AM 0.39 32.702 0.162 7.24 3.1 13.87
1/23/2021 2:15:00 AM 0.33 32.594 0.162 7.23 3.12 13.9
1/23/2021 2:30:00 AM 0.29 32.522 0.162 7.14 3.27 13.91
1/23/2021 2:45:00 AM 0.27 32.486 0.162 7.23 3.33 13.94
1/23/2021 3:00:00 AM 0.24 32.432 0.162 7.23 3.2 13.95
1/23/2021 3:15:00 AM 0.2 32.36 0.162 7.23 3.2 13.97
1/23/2021 3:30:00 AM 0.16 32.288 0.162 7.23 3.29 13.98
1/23/2021 3:45:00 AM 0.11 32.198 0.162 7.23 3.3 14
1/23/2021 4:00:00 AM 0.07 32.126 0.162 7.22 3.42 14.02
1/23/2021 4:15:00 AM 0.02 32.036 0.162 7.22 3.11 14.04
1/23/2021 4:30:00 AM -0.02 31.964 0.162 7.22 3.22 14.05
1/23/2021 4:45:00 AM -0.05 31.91 0.162 7.22 3.28 14.07
1/23/2021 5:00:00 AM -0.04 31.928 0.162 7.27 3.3 14.09
1/23/2021 5:15:00 AM -0.03 31.946 0.162 7.26 3.78 14.11
1/23/2021 5:30:00 AM -0.03 31.946 0.162 7.27 3.74 14.12
1/23/2021 5:45:00 AM -0.03 31.946 0.162 7.27 3.66 14.13
1/23/2021 6:00:00 AM -0.03 31.946 0.163 7.27 3.33 14.14
1/23/2021 6:15:00 AM -0.03 31.946 0.163 7.26 3.65 14.14
1/23/2021 6:30:00 AM -0.03 31.946 0.163 7.26 3.54 14.15
1/23/2021 6:45:00 AM -0.03 31.946 0.163 7.26 3.51 14.15
1/23/2021 7:00:00 AM -0.03 31.946 0.164 7.24 3.53 14.16
1/23/2021 7:15:00 AM -0.03 31.946 0.164 7.25 3.16 14.16
1/23/2021 7:30:00 AM -0.03 31.946 0.164 7.17 3.32 14.16
1/23/2021 7:45:00 AM -0.03 31.946 0.165 7.25 3.59 14.17
1/23/2021 8:00:00 AM -0.02 31.964 0.165 7.25 3.24 14.2
1/23/2021 8:15:00 AM -0.02 31.964 0.165 7.25 3.12 14.24
1/23/2021 8:30:00 AM -0.02 31.964 0.165 7.24 3.08 14.28
1/23/2021 8:45:00 AM -0.01 31.982 0.165 7.26 3.34 14.33
1/23/2021 9:00:00 AM -0.01 31.982 0.165 7.29 3.41 14.38
1/23/2021 9:15:00 AM -0.01 31.982 0.165 7.29 3.38 14.43
1/23/2021 9:30:00 AM 0 32 0.165 7.35 3.24 14.47
1/23/2021 9:45:00 AM 0 32 0.165 7.31 3.14 14.5
1/23/2021 10:00:00 AM 0.01 32.018 0.165 7.33 3.66 14.53
1/23/2021 10:15:00 AM 0.02 32.036 0.165 7.37 3.25 14.54
1/23/2021 10:30:00 AM 0.02 32.036 0.165 7.31 3.37 14.55
1/23/2021 10:45:00 AM 0.02 32.036 0.165 7.31 3.27 14.56
1/23/2021 11:00:00 AM 0.02 32.036 0.165 7.24 3.47 14.56
1/23/2021 11:15:00 AM 0.02 32.036 0.165 7.34 3.18 14.57
1/23/2021 11:30:00 AM 0.08 32.144 0.165 7.35 3.19 14.57
1/23/2021 11:45:00 AM 0.1 32.18 0.166 7.35 3.37 14.56
1/23/2021 12:00:00 PM 0.08 32.144 0.166 7.35 3.06 14.55
1/23/2021 12:15:00 PM 0.05 32.09 0.167 7.34 3.24 14.55
1/23/2021 12:30:00 PM 0.06 32.108 0.167 7.35 3.09 14.53
1/23/2021 12:45:00 PM 0.12 32.216 0.168 7.36 3.17 14.54
1/23/2021 1:00:00 PM 0.16 32.288 0.168 7.37 2.86 14.53
1/23/2021 1:15:00 PM 0.19 32.342 0.167 7.35 3.15 14.53
1/23/2021 1:30:00 PM 0.23 32.414 0.167 7.36 3.06 14.53
1/23/2021 1:45:00 PM 0.29 32.522 0.167 7.37 3.14 14.53
1/23/2021 2:00:00 PM 0.33 32.594 0.167 7.37 2.89 14.54
1/23/2021 2:15:00 PM 0.37 32.666 0.166 7.35 2.97 14.53
1/23/2021 2:30:00 PM 0.4 32.72 0.166 7.38 3.15 14.52
1/23/2021 2:45:00 PM 0.4 32.72 0.165 7.37 3.14 14.51
1/23/2021 3:00:00 PM 0.4 32.72 0.164 7.34 3.24 14.51
1/23/2021 3:15:00 PM 0.39 32.702 0.163 7.34 3.18 14.5
1/23/2021 3:30:00 PM 0.37 32.666 0.162 7.37 3.28 14.5
1/23/2021 3:45:00 PM 0.36 32.648 0.161 7.37 3.06 14.49
1/23/2021 4:00:00 PM 0.32 32.576 0.161 7.36 3.33 14.49
1/23/2021 4:15:00 PM 0.28 32.504 0.161 7.35 3.12 14.47
1/23/2021 4:30:00 PM 0.25 32.45 0.161 7.36 3.2 14.47
1/23/2021 4:45:00 PM 0.21 32.378 0.161 7.35 3.23 14.47
1/23/2021 5:00:00 PM 0.18 32.324 0.161 7.33 3.26 14.44
1/23/2021 5:15:00 PM 0.14 32.252 0.161 7.23 3.24 14.39
1/23/2021 5:30:00 PM 0.1 32.18 0.162 7.31 3.24 14.36
1/23/2021 5:45:00 PM 0.05 32.09 0.162 7.28 3.23 14.33
1/23/2021 6:00:00 PM 0.01 32.018 0.162 7.29 3.18 14.32
1/23/2021 6:15:00 PM -0.03 31.946 0.163 7.28 3.14 14.31
1/23/2021 6:30:00 PM -0.06 31.892 0.163 7.29 3.04 14.31
1/23/2021 6:45:00 PM -0.03 31.946 0.164 7.29 3.02 14.32
1/23/2021 7:00:00 PM -0.03 31.946 0.164 7.32 3.15 14.32
1/23/2021 7:15:00 PM -0.03 31.946 0.165 7.31 2.88 14.33
1/23/2021 7:30:00 PM -0.03 31.946 0.165 7.2 2.96 14.34
1/23/2021 7:45:00 PM -0.03 31.946 0.166 7.31 3.01 14.34
1/23/2021 8:00:00 PM -0.03 31.946 0.166 7.3 2.85 14.33
1/23/2021 8:15:00 PM -0.03 31.946 0.166 7.27 2.79 14.33
1/23/2021 8:30:00 PM -0.02 31.964 0.167 7.3 2.91 14.33
1/23/2021 8:45:00 PM -0.02 31.964 0.167 7.29 2.98 14.33
1/23/2021 9:00:00 PM -0.03 31.946 0.167 7.29 2.87 14.32
1/23/2021 9:15:00 PM -0.03 31.946 0.168 7.29 2.96 14.32
1/23/2021 9:30:00 PM -0.03 31.946 0.168 7.29 2.92 14.32
1/23/2021 9:45:00 PM -0.02 31.964 0.168 7.29 3.08 14.32
1/23/2021 10:00:00 PM -0.02 31.964 0.169 7.28 3.01 14.31
1/23/2021 10:15:00 PM -0.02 31.964 0.169 7.29 2.79 14.31
1/23/2021 10:30:00 PM -0.02 31.964 0.169 7.29 3.14 14.31
1/23/2021 10:45:00 PM -0.02 31.964 0.17 7.29 2.7 14.3
1/23/2021 11:00:00 PM -0.02 31.964 0.17 7.28 2.76 14.3
1/23/2021 11:15:00 PM -0.02 31.964 0.17 7.2 3 14.29
1/23/2021 11:30:00 PM -0.02 31.964 0.171 7.26 2.78 14.29
1/23/2021 11:45:00 PM -0.02 31.964 0.171 7.28 2.92 14.29
1/24/2021 12:00:00 AM -0.02 31.964 0.171 7.27 2.96 14.29
1/24/2021 12:15:00 AM -0.02 31.964 0.171 7.27 3 14.29
1/24/2021 12:30:00 AM -0.02 31.964 0.171 7.27 2.86 14.29
1/24/2021 12:45:00 AM -0.02 31.964 0.172 7.27 2.84 14.28
1/24/2021 1:00:00 AM -0.02 31.964 0.172 7.27 2.81 14.29
1/24/2021 1:15:00 AM -0.02 31.964 0.172 7.27 2.8 14.28
1/24/2021 1:30:00 AM -0.02 31.964 0.172 7.26 2.89 14.27
1/24/2021 1:45:00 AM -0.02 31.964 0.172 7.25 2.64 14.27
1/24/2021 2:00:00 AM -0.02 31.964 0.172 7.27 2.8 14.28
1/24/2021 2:15:00 AM -0.02 31.964 0.172 7.22 2.65 14.28
1/24/2021 2:30:00 AM -0.02 31.964 0.172 7.27 2.68 14.28
1/24/2021 2:45:00 AM -0.02 31.964 0.173 7.22 2.67 14.27
1/24/2021 3:00:00 AM -0.02 31.964 0.172 7.28 2.61 14.27
1/24/2021 3:15:00 AM -0.02 31.964 0.173 7.31 2.6 14.27
1/24/2021 3:30:00 AM -0.02 31.964 0.173 7.25 3.14 14.26
1/24/2021 3:45:00 AM -0.02 31.964 0.173 7.27 3.55 14.27
1/24/2021 4:00:00 AM -0.02 31.964 0.172 7.2 3.22 14.28
1/24/2021 4:15:00 AM -0.02 31.964 0.172 7.27 3.33 14.27
1/24/2021 4:30:00 AM -0.02 31.964 0.172 7.24 2.87 14.27
1/24/2021 4:45:00 AM -0.02 31.964 0.172 7.26 2.72 14.27
1/24/2021 5:00:00 AM -0.02 31.964 0.172 7.26 2.68 14.28
1/24/2021 5:15:00 AM -0.02 31.964 0.172 7.26 2.57 14.27
1/24/2021 5:30:00 AM -0.02 31.964 0.172 7.26 2.71 14.27
1/24/2021 5:45:00 AM -0.02 31.964 0.172 7.26 2.79 14.27
1/24/2021 6:00:00 AM -0.02 31.964 0.172 7.26 3.19 14.27
1/24/2021 6:15:00 AM -0.02 31.964 0.172 7.26 2.68 14.27
1/24/2021 6:30:00 AM -0.02 31.964 0.172 7.26 2.66 14.27
1/24/2021 6:45:00 AM -0.02 31.964 0.172 7.26 2.95 14.27
1/24/2021 7:00:00 AM -0.02 31.964 0.172 7.26 2.83 14.26
1/24/2021 7:15:00 AM -0.02 31.964 0.172 7.26 2.54 14.27
1/24/2021 7:30:00 AM -0.02 31.964 0.172 7.18 2.74 14.27
1/24/2021 7:45:00 AM -0.02 31.964 0.172 7.29 3.07 14.27
1/24/2021 8:00:00 AM -0.02 31.964 0.172 7.28 2.66 14.29
1/24/2021 8:15:00 AM -0.02 31.964 0.172 7.26 9.99 14.31
1/24/2021 8:30:00 AM -0.02 31.964 0.172 7.25 3.27 14.36
1/24/2021 8:45:00 AM -0.02 31.964 0.172 7.2 2.55 14.4
1/24/2021 9:00:00 AM -0.02 31.964 0.172 7.28 2.85 14.44
1/24/2021 9:15:00 AM -0.02 31.964 0.172 7.3 2.8 14.49
1/24/2021 9:30:00 AM -0.01 31.982 0.172 7.31 2.82 14.54
1/24/2021 9:45:00 AM -0.01 31.982 0.172 7.32 2.84 14.57
1/24/2021 10:00:00 AM -0.01 31.982 0.172 7.33 2.76 14.6
1/24/2021 10:15:00 AM -0.01 31.982 0.172 7.34 2.72 14.61
1/24/2021 10:30:00 AM -0.01 31.982 0.171 7.35 2.85 14.64
1/24/2021 10:45:00 AM -0.01 31.982 0.171 7.34 2.78 14.64
1/24/2021 11:00:00 AM 0 32 0.171 7.37 2.77 14.64
1/24/2021 11:15:00 AM 0.03 32.054 0.171 7.3 2.95 14.65
1/24/2021 11:30:00 AM 0.03 32.054 0.171 7.33 3.23 14.64
1/24/2021 11:45:00 AM 0.04 32.072 0.171 7.34 3.38 14.63
1/24/2021 12:00:00 PM 0.05 32.09 0.171 7.35 3.57 14.63
1/24/2021 12:15:00 PM 0.05 32.09 0.17 7.35 3.84 14.62
1/24/2021 12:30:00 PM 0.08 32.144 0.17 7.35 3.9 14.61
1/24/2021 12:45:00 PM 0.07 32.126 0.17 7.35 3.08 14.59
1/24/2021 1:00:00 PM 0.05 32.09 0.17 7.39 4.62 14.58
1/24/2021 1:15:00 PM 0.06 32.108 0.17 7.32 3.82 14.57
1/24/2021 1:30:00 PM 0.06 32.108 0.17 7.35 3.91 14.56
1/24/2021 1:45:00 PM 0.06 32.108 0.17 7.36 3.63 14.55
1/24/2021 2:00:00 PM 0.04 32.072 0.17 7.36 3.52 14.54
1/24/2021 2:15:00 PM 0.03 32.054 0.17 7.36 3.98 14.52
1/24/2021 2:30:00 PM 0.05 32.09 0.17 7.36 4.41 14.51
1/24/2021 2:45:00 PM 0.05 32.09 0.17 7.36 3.69 14.5
1/24/2021 3:00:00 PM 0.06 32.108 0.17 7.37 3.65 14.5
1/24/2021 3:15:00 PM 0.07 32.126 0.17 7.38 3.57 14.49
1/24/2021 3:30:00 PM 0.08 32.144 0.17 7.35 3.78 14.48
1/24/2021 3:45:00 PM 0.09 32.162 0.169 7.38 3.51 14.48
1/24/2021 4:00:00 PM 0.1 32.18 0.169 7.38 3.4 14.48
1/24/2021 4:15:00 PM 0.09 32.162 0.169 7.37 3.34 14.47
1/24/2021 4:30:00 PM 0.08 32.144 0.169 7.37 3.31 14.46
1/24/2021 4:45:00 PM 0.08 32.144 0.169 7.37 3.28 14.44
1/24/2021 5:00:00 PM 0.07 32.126 0.169 7.36 3.21 14.42
1/24/2021 5:15:00 PM 0.05 32.09 0.169 7.34 3.24 14.39
1/24/2021 5:30:00 PM 0.04 32.072 0.169 7.33 3.2 14.36
1/24/2021 5:45:00 PM 0.02 32.036 0.169 7.3 3.26 14.34
1/24/2021 6:00:00 PM 0 32 0.169 7.32 3.14 14.31
1/24/2021 6:15:00 PM -0.01 31.982 0.17 7.31 3.14 14.3
1/24/2021 6:30:00 PM -0.02 31.964 0.17 7.24 3.18 14.29
1/24/2021 6:45:00 PM -0.04 31.928 0.17 7.29 3.13 14.28
1/24/2021 7:00:00 PM -0.05 31.91 0.17 7.28 3.1 14.29
1/24/2021 7:15:00 PM -0.04 31.928 0.171 7.28 3.07 14.29
1/24/2021 7:30:00 PM -0.03 31.946 0.171 7.31 3.06 14.29
1/24/2021 7:45:00 PM -0.03 31.946 0.172 7.31 3.34 14.3
1/24/2021 8:00:00 PM -0.03 31.946 0.172 7.32 3.54 14.3
1/24/2021 8:15:00 PM -0.03 31.946 0.172 7.22 3.34 14.3
1/24/2021 8:30:00 PM -0.03 31.946 0.173 7.3 3.49 14.29
1/24/2021 8:45:00 PM -0.03 31.946 0.173 7.29 3.47 14.29
1/24/2021 9:00:00 PM -0.03 31.946 0.173 7.3 3.01 14.29
1/24/2021 9:15:00 PM -0.03 31.946 0.173 7.2 3.3 14.29
1/24/2021 9:30:00 PM -0.02 31.964 0.174 7.3 3.4 14.29
1/24/2021 9:45:00 PM -0.02 31.964 0.174 7.3 3.19 14.28
1/24/2021 10:00:00 PM -0.02 31.964 0.174 7.31 3.26 14.28
1/24/2021 10:15:00 PM -0.02 31.964 0.174 7.3 3.42 14.27
1/24/2021 10:30:00 PM -0.02 31.964 0.175 7.28 3.47 14.27
1/24/2021 10:45:00 PM -0.02 31.964 0.175 7.38 3.24 14.26
1/24/2021 11:00:00 PM -0.02 31.964 0.175 7.29 3.29 14.26
1/24/2021 11:15:00 PM -0.02 31.964 0.175 7.29 3.41 14.26
1/24/2021 11:30:00 PM -0.02 31.964 0.176 7.29 3.18 14.25
1/24/2021 11:45:00 PM -0.02 31.964 0.176 7.29 3.12 14.25
1/25/2021 12:00:00 AM -0.03 31.946 0.176 7.28 2.91 14.25
1/25/2021 12:15:00 AM -0.03 31.946 0.176 7.28 3.09 14.25
1/25/2021 12:30:00 AM -0.03 31.946 0.177 7.28 2.85 14.25
1/25/2021 12:45:00 AM -0.03 31.946 0.177 7.28 2.91 14.25
1/25/2021 1:00:00 AM -0.03 31.946 0.177 7.29 2.79 14.25
1/25/2021 1:15:00 AM -0.03 31.946 0.178 7.27 2.98 14.25
1/25/2021 1:30:00 AM -0.03 31.946 0.178 7.28 2.76 14.25
1/25/2021 1:45:00 AM -0.03 31.946 0.178 7.33 2.94 14.25
1/25/2021 2:00:00 AM -0.03 31.946 0.178 7.27 2.88 14.25
1/25/2021 2:15:00 AM -0.03 31.946 0.179 7.26 2.84 14.25
1/25/2021 2:30:00 AM -0.03 31.946 0.179 7.27 3.09 14.25
1/25/2021 2:45:00 AM -0.02 31.964 0.179 7.28 3.02 14.25
1/25/2021 3:00:00 AM -0.02 31.964 0.179 7.27 2.84 14.24
1/25/2021 3:15:00 AM -0.02 31.964 0.179 7.27 2.9 14.24
1/25/2021 3:30:00 AM -0.02 31.964 0.179 7.29 6.24 14.24
1/25/2021 3:45:00 AM -0.02 31.964 0.179 7.35 2.79 14.24
1/25/2021 4:00:00 AM -0.02 31.964 0.179 7.28 2.54 14.24
1/25/2021 4:15:00 AM -0.03 31.946 0.179 7.28 2.5 14.24
1/25/2021 4:30:00 AM -0.03 31.946 0.179 7.28 2.61 14.23
1/25/2021 4:45:00 AM -0.03 31.946 0.179 7.28 2.53 14.24
1/25/2021 5:00:00 AM -0.03 31.946 0.179 7.28 2.7 14.24
1/25/2021 5:15:00 AM -0.03 31.946 0.18 7.27 3.14 14.24
1/25/2021 5:30:00 AM -0.03 31.946 0.179 7.27 3.36 14.24
1/25/2021 5:45:00 AM -0.03 31.946 0.18 7.2 3.29 14.24
1/25/2021 6:00:00 AM -0.03 31.946 0.18 7.27 3.09 14.24
1/25/2021 6:15:00 AM -0.03 31.946 0.18 7.27 3.11 14.24
1/25/2021 6:30:00 AM -0.03 31.946 0.18 7.28 3.08 14.24
1/25/2021 6:45:00 AM -0.03 31.946 0.18 7.28 3.16 14.24
1/25/2021 7:00:00 AM -0.03 31.946 0.18 7.27 2.79 14.24
1/25/2021 7:15:00 AM -0.03 31.946 0.18 7.27 2.63 14.24
1/25/2021 7:30:00 AM -0.03 31.946 0.18 7.2 2.85 14.24
1/25/2021 7:45:00 AM -0.02 31.964 0.18 7.27 3.1 14.25
1/25/2021 8:00:00 AM -0.02 31.964 0.18 7.27 2.6 14.27
1/25/2021 8:15:00 AM -0.02 31.964 0.18 7.26 2.73 14.3
1/25/2021 8:30:00 AM -0.01 31.982 0.181 7.27 2.75 14.34
1/25/2021 8:45:00 AM 0 32 0.18 7.29 2.59 14.38
1/25/2021 9:00:00 AM 0.01 32.018 0.18 7.3 2.53 14.42
1/25/2021 9:15:00 AM 0.03 32.054 0.18 7.31 2.54 14.47
1/25/2021 9:30:00 AM 0.02 32.036 0.18 7.32 2.64 14.51
1/25/2021 9:45:00 AM 0.03 32.054 0.179 7.32 2.77 14.55
1/25/2021 10:00:00 AM 0.04 32.072 0.179 7.3 2.71 14.57
1/25/2021 10:15:00 AM 0.05 32.09 0.179 7.31 2.81 14.6
1/25/2021 10:30:00 AM 0.05 32.09 0.179 7.32 2.96 14.6
1/25/2021 10:45:00 AM 0.05 32.09 0.179 7.33 2.81 14.61
1/25/2021 11:00:00 AM 0.06 32.108 0.178 7.33 2.84 14.62
1/25/2021 11:15:00 AM 0.08 32.144 0.178 7.35 2.94 14.62
1/25/2021 11:30:00 AM 0.09 32.162 0.178 7.35 2.85 14.6
1/25/2021 11:45:00 AM 0.09 32.162 0.178 7.36 3.06 14.59
1/25/2021 12:00:00 PM 0.09 32.162 0.177 7.36 3.4 14.6
1/25/2021 12:15:00 PM 0.1 32.18 0.177 7.36 3.09 14.6
1/25/2021 12:30:00 PM 0.11 32.198 0.177 7.29 3.05 14.59
1/25/2021 12:45:00 PM 0.14 32.252 0.177 7.37 3.27 14.57
1/25/2021 1:00:00 PM 0.13 32.234 0.177 7.37 3.14 14.57
1/25/2021 1:15:00 PM 0.13 32.234 0.177 7.37 3.08 14.56
1/25/2021 1:30:00 PM 0.1 32.18 0.177 7.38 3.22 14.57
1/25/2021 1:45:00 PM 0.09 32.162 0.177 7.38 3.3 14.57
1/25/2021 2:00:00 PM 0.09 32.162 0.178 7.39 3.29 14.57
1/25/2021 2:15:00 PM 0.08 32.144 0.178 7.39 3.43 14.56
1/25/2021 2:30:00 PM 0.07 32.126 0.178 7.4 3.45 14.54
1/25/2021 2:45:00 PM 0.06 32.108 0.179 7.41 3.41 14.53
1/25/2021 3:00:00 PM 0.04 32.072 0.179 7.41 3.41 14.52
1/25/2021 3:15:00 PM 0.05 32.09 0.18 7.41 3.65 14.5
1/25/2021 3:30:00 PM 0.04 32.072 0.18 7.4 3.33 14.49
1/25/2021 3:45:00 PM 0.03 32.054 0.179 7.41 3.6 14.48
1/25/2021 4:00:00 PM 0.02 32.036 0.179 7.41 4 14.47
1/25/2021 4:15:00 PM 0.01 32.018 0.178 7.41 3.36 14.45
1/25/2021 4:30:00 PM 0.01 32.018 0.177 7.4 3.66 14.42
1/25/2021 4:45:00 PM 0.01 32.018 0.176 7.4 3.5 14.39
1/25/2021 5:00:00 PM 0.01 32.018 0.176 7.39 3.44 14.36
1/25/2021 5:15:00 PM 0.01 32.018 0.175 7.37 3.37 14.31
1/25/2021 5:30:00 PM 0.01 32.018 0.174 7.35 3.35 14.26
1/25/2021 5:45:00 PM 0.02 32.036 0.174 7.34 3.25 14.22
1/25/2021 6:00:00 PM 0.02 32.036 0.174 7.32 3.3 14.19
1/25/2021 6:15:00 PM 0.02 32.036 0.174 7.32 3.32 14.17
1/25/2021 6:30:00 PM 0.02 32.036 0.174 7.31 3.3 14.16
1/25/2021 6:45:00 PM 0.02 32.036 0.174 7.3 3.29 14.15
1/25/2021 7:00:00 PM 0.02 32.036 0.174 7.3 3.37 14.14
1/25/2021 7:15:00 PM 0.02 32.036 0.174 7.27 3.16 14.14
1/25/2021 7:30:00 PM 0.02 32.036 0.175 7.31 3.34 14.13
1/25/2021 7:45:00 PM 0.02 32.036 0.175 7.22 3.35 14.13
1/25/2021 8:00:00 PM 0.02 32.036 0.176 7.3 3.07 14.12
1/25/2021 8:15:00 PM 0.02 32.036 0.176 7.3 3.17 14.12
1/25/2021 8:30:00 PM 0.02 32.036 0.177 7.29 3.22 14.12
1/25/2021 8:45:00 PM 0.02 32.036 0.177 7.3 3.06 14.12
1/25/2021 9:00:00 PM 0.02 32.036 0.178 7.29 3.37 14.12
1/25/2021 9:15:00 PM 0.02 32.036 0.178 7.29 3.26 14.13
1/25/2021 9:30:00 PM 0.02 32.036 0.179 7.3 3.2 14.12
1/25/2021 9:45:00 PM 0.02 32.036 0.179 7.3 2.99 14.12
1/25/2021 10:00:00 PM 0.02 32.036 0.18 7.28 3.01 14.12
1/25/2021 10:15:00 PM 0.02 32.036 0.18 7.3 3.12 14.12
1/25/2021 10:30:00 PM 0.02 32.036 0.18 7.29 3.17 14.12
1/25/2021 10:45:00 PM 0.02 32.036 0.181 7.23 3.14 14.11
1/25/2021 11:00:00 PM 0.02 32.036 0.181 7.29 3.24 14.12
1/25/2021 11:15:00 PM 0.02 32.036 0.181 7.3 3.13 14.11
1/25/2021 11:30:00 PM 0.02 32.036 0.182 7.29 2.98 14.11
1/25/2021 11:45:00 PM 0.02 32.036 0.182 7.29 3.12 14.11
1/26/2021 12:00:00 AM 0.02 32.036 0.182 7.29 3.02 14.11
1/26/2021 12:15:00 AM 0.02 32.036 0.182 7.29 3.12 14.11
1/26/2021 12:30:00 AM 0.02 32.036 0.183 7.29 3 14.11
1/26/2021 12:45:00 AM 0.02 32.036 0.183 7.29 3.17 14.1
1/26/2021 1:00:00 AM 0.02 32.036 0.183 7.3 2.97 14.1
1/26/2021 1:15:00 AM 0.02 32.036 0.183 7.29 2.85 14.1
1/26/2021 1:30:00 AM 0.02 32.036 0.183 7.29 2.97 14.1
1/26/2021 1:45:00 AM 0.02 32.036 0.183 7.3 3.04 14.09
1/26/2021 2:00:00 AM 0.02 32.036 0.183 7.3 3.09 14.09
1/26/2021 2:15:00 AM 0.02 32.036 0.183 7.29 2.9 14.09
1/26/2021 2:30:00 AM 0.03 32.054 0.183 7.29 2.78 14.08
1/26/2021 2:45:00 AM 0.03 32.054 0.183 7.28 2.94 14.08
1/26/2021 3:00:00 AM 0.03 32.054 0.183 7.29 2.9 14.08
1/26/2021 3:15:00 AM 0.02 32.036 0.183 7.29 2.9 14.08
1/26/2021 3:30:00 AM 0.02 32.036 0.182 7.29 2.83 14.08
1/26/2021 3:45:00 AM 0.02 32.036 0.182 7.29 2.81 14.08
1/26/2021 4:00:00 AM 0.02 32.036 0.182 7.3 2.79 14.08
1/26/2021 4:15:00 AM 0.02 32.036 0.182 7.29 2.83 14.08
1/26/2021 4:30:00 AM 0.02 32.036 0.181 7.29 2.7 14.07
1/26/2021 4:45:00 AM 0.02 32.036 0.181 7.28 2.73 14.06
1/26/2021 5:00:00 AM 0.02 32.036 0.18 7.29 2.94 14.07
1/26/2021 5:15:00 AM 0.02 32.036 0.18 7.29 2.74 14.07
1/26/2021 5:30:00 AM 0.01 32.018 0.18 7.29 2.92 14.06
1/26/2021 5:45:00 AM 0 32 0.18 7.28 2.78 14.07
1/26/2021 6:00:00 AM -0.01 31.982 0.179 7.3 2.74 14.07
1/26/2021 6:15:00 AM -0.02 31.964 0.179 7.29 2.52 14.07
1/26/2021 6:30:00 AM -0.02 31.964 0.179 7.29 2.56 14.07
1/26/2021 6:45:00 AM -0.01 31.982 0.179 7.29 2.8 14.07
1/26/2021 7:00:00 AM -0.01 31.982 0.179 7.28 2.61 14.07
1/26/2021 7:15:00 AM -0.01 31.982 0.178 7.29 2.53 14.07
1/26/2021 7:30:00 AM 0 32 0.178 7.28 2.7 14.07
1/26/2021 7:45:00 AM 0.01 32.018 0.178 7.28 2.61 14.08
1/26/2021 8:00:00 AM 0.02 32.036 0.178 7.29 2.42 14.09
1/26/2021 8:15:00 AM 0.02 32.036 0.178 7.29 2.51 14.1
1/26/2021 8:30:00 AM 0.03 32.054 0.177 7.3 2.59 14.13
1/26/2021 8:45:00 AM 0.04 32.072 0.177 7.31 2.42 14.16
1/26/2021 9:00:00 AM 0.05 32.09 0.177 7.33 2.53 14.19
1/26/2021 9:15:00 AM 0.04 32.072 0.177 7.33 2.67 14.23
1/26/2021 9:30:00 AM 0.02 32.036 0.177 7.34 2.58 14.25
1/26/2021 9:45:00 AM 0.01 32.018 0.177 7.35 2.44 14.27
1/26/2021 10:00:00 AM 0 32 0.177 7.36 2.62 14.32
1/26/2021 10:15:00 AM 0 32 0.177 7.38 2.41 14.35
1/26/2021 10:30:00 AM -0.01 31.982 0.177 7.37 2.6 14.38
1/26/2021 10:45:00 AM -0.01 31.982 0.177 7.39 2.64 14.41
1/26/2021 11:00:00 AM -0.01 31.982 0.177 7.38 2.61 14.42
1/26/2021 11:15:00 AM 0 32 0.177 7.39 2.48 14.44
1/26/2021 11:30:00 AM 0.01 32.018 0.177 7.39 2.56 14.45
1/26/2021 11:45:00 AM 0.01 32.018 0.177 7.4 2.74 14.47
1/26/2021 12:00:00 PM 0.01 32.018 0.177 7.41 2.71 14.49
1/26/2021 12:15:00 PM 0.02 32.036 0.177 7.42 2.71 14.49
1/26/2021 12:30:00 PM 0.01 32.018 0.177 7.42 2.56 14.49
1/26/2021 12:45:00 PM 0 32 0.176 7.42 2.58 14.48
1/26/2021 1:00:00 PM 0 32 0.176 7.41 2.54 14.47
1/26/2021 1:15:00 PM 0 32 0.177 7.33 2.56 14.46
1/26/2021 1:30:00 PM 0 32 0.177 7.41 2.47 14.45
1/26/2021 1:45:00 PM 0 32 0.177 7.42 2.61 14.45
1/26/2021 2:00:00 PM 0 32 0.177 7.42 2.4 14.45
1/26/2021 2:15:00 PM 0 32 0.177 7.41 2.49 14.45
1/26/2021 2:30:00 PM -0.01 31.982 0.177 7.34 2.57 14.44
1/26/2021 2:45:00 PM 0 32 0.177 7.4 2.57 14.43
1/26/2021 3:00:00 PM 0 32 0.177 7.42 2.6 14.43
1/26/2021 3:15:00 PM 0.01 32.018 0.177 7.42 2.46 14.42
1/26/2021 3:30:00 PM 0 32 0.177 7.41 2.49 14.41
1/26/2021 3:45:00 PM 0 32 0.177 7.4 2.29 14.39
1/26/2021 4:00:00 PM 0 32 0.177 7.41 2.3 14.35
1/26/2021 4:15:00 PM 0 32 0.177 7.39 2.62 14.33
1/26/2021 4:30:00 PM 0 32 0.177 7.39 2.45 14.3
1/26/2021 4:45:00 PM 0 32 0.177 7.38 2.45 14.28
1/26/2021 5:00:00 PM 0 32 0.177 7.29 2.5 14.23
1/26/2021 5:15:00 PM 0 32 0.177 7.42 2.43 14.18
1/26/2021 5:30:00 PM 0 32 0.177 7.35 2.46 14.14
1/26/2021 5:45:00 PM 0.01 32.018 0.177 7.35 2.55 14.1
1/26/2021 6:00:00 PM 0.01 32.018 0.177 7.34 2.43 14.07
1/26/2021 6:15:00 PM 0.01 32.018 0.177 7.34 2.51 14.05
1/26/2021 6:30:00 PM 0.01 32.018 0.177 7.33 2.52 14.03
1/26/2021 6:45:00 PM 0.02 32.036 0.177 7.32 2.52 14.01
1/26/2021 7:00:00 PM 0.03 32.054 0.177 7.32 2.33 14
1/26/2021 7:15:00 PM 0.03 32.054 0.177 7.33 2.4 13.98
1/26/2021 7:30:00 PM 0.04 32.072 0.177 7.32 2.41 13.97
1/26/2021 7:45:00 PM 0.05 32.09 0.177 7.32 2.4 13.97
1/26/2021 8:00:00 PM 0.06 32.108 0.177 7.32 2.42 13.96
1/26/2021 8:15:00 PM 0.07 32.126 0.177 7.23 2.51 13.95
1/26/2021 8:30:00 PM 0.09 32.162 0.177 7.32 2.41 13.96
1/26/2021 8:45:00 PM 0.1 32.18 0.177 7.32 2.52 13.95
1/26/2021 9:00:00 PM 0.11 32.198 0.177 7.31 2.52 13.95
1/26/2021 9:15:00 PM 0.12 32.216 0.177 7.31 2.43 13.93
1/26/2021 9:30:00 PM 0.13 32.234 0.177 7.3 2.5 13.94
1/26/2021 9:45:00 PM 0.14 32.252 0.177 7.3 2.42 13.92
1/26/2021 10:00:00 PM 0.15 32.27 0.178 7.3 2.69 13.92
1/26/2021 10:15:00 PM 0.15 32.27 0.178 7.3 2.57 13.93
1/26/2021 10:30:00 PM 0.16 32.288 0.178 7.3 2.58 13.91
1/26/2021 10:45:00 PM 0.17 32.306 0.178 7.31 2.56 13.91
1/26/2021 11:00:00 PM 0.17 32.306 0.178 7.3 2.67 13.92
1/26/2021 11:15:00 PM 0.18 32.324 0.178 7.3 2.49 13.91
1/26/2021 11:30:00 PM 0.18 32.324 0.178 7.3 2.64 13.91
1/26/2021 11:45:00 PM 0.19 32.342 0.178 7.29 2.51 13.91
1/27/2021 12:00:00 AM 0.2 32.36 0.179 7.31 2.67 13.91
1/27/2021 12:15:00 AM 0.2 32.36 0.179 7.3 2.67 13.91
1/27/2021 12:30:00 AM 0.2 32.36 0.178 7.29 2.74 13.91
1/27/2021 12:45:00 AM 0.19 32.342 0.178 7.29 2.7 13.91
1/27/2021 1:00:00 AM 0.19 32.342 0.178 7.29 2.6 13.9
1/27/2021 1:15:00 AM 0.19 32.342 0.178 7.29 2.54 13.92
1/27/2021 1:30:00 AM 0.2 32.36 0.178 7.29 2.55 13.91
1/27/2021 1:45:00 AM 0.2 32.36 0.178 7.29 2.63 13.92
1/27/2021 2:00:00 AM 0.21 32.378 0.178 7.29 2.5 13.93
1/27/2021 2:15:00 AM 0.21 32.378 0.178 7.29 2.62 13.93
1/27/2021 2:30:00 AM 0.21 32.378 0.178 7.3 2.67 13.92
1/27/2021 2:45:00 AM 0.21 32.378 0.178 7.3 2.52 13.92
1/27/2021 3:00:00 AM 0.21 32.378 0.178 7.28 2.45 13.93
1/27/2021 3:15:00 AM 0.21 32.378 0.178 7.29 2.47 13.93
1/27/2021 3:30:00 AM 0.21 32.378 0.178 7.29 2.46 13.95
1/27/2021 3:45:00 AM 0.2 32.36 0.178 7.3 2.54 13.95
1/27/2021 4:00:00 AM 0.2 32.36 0.177 7.29 2.5 13.95
1/27/2021 4:15:00 AM 0.19 32.342 0.177 7.3 2.48 13.97
1/27/2021 4:30:00 AM 0.19 32.342 0.177 7.3 2.4 13.97
1/27/2021 4:45:00 AM 0.18 32.324 0.177 7.23 2.27 13.97
1/27/2021 5:00:00 AM 0.18 32.324 0.177 7.28 2.42 13.98
1/27/2021 5:15:00 AM 0.17 32.306 0.177 7.3 2.37 13.99
1/27/2021 5:30:00 AM 0.16 32.288 0.177 7.29 2.42 13.99
1/27/2021 5:45:00 AM 0.16 32.288 0.177 7.23 2.48 14.01
1/27/2021 6:00:00 AM 0.15 32.27 0.177 7.3 2.3 14.01
1/27/2021 6:15:00 AM 0.15 32.27 0.177 7.3 2.37 14.01
1/27/2021 6:30:00 AM 0.14 32.252 0.177 7.22 2.34 14.02
1/27/2021 6:45:00 AM 0.13 32.234 0.177 7.3 2.48 14.02
1/27/2021 7:00:00 AM 0.12 32.216 0.177 7.3 2.38 14.04
1/27/2021 7:15:00 AM 0.11 32.198 0.177 7.39 2.25 14.04
1/27/2021 7:30:00 AM 0.11 32.198 0.177 7.29 2.32 14.05
1/27/2021 7:45:00 AM 0.1 32.18 0.177 7.3 2.25 14.07
1/27/2021 8:00:00 AM 0.09 32.162 0.177 7.31 2.44 14.1
1/27/2021 8:15:00 AM 0.09 32.162 0.177 7.31 2.33 14.14
1/27/2021 8:30:00 AM 0.1 32.18 0.177 7.33 2.3 14.2
1/27/2021 8:45:00 AM 0.1 32.18 0.177 7.34 2.34 14.25
1/27/2021 9:00:00 AM 0.1 32.18 0.177 7.35 2.29 14.29
1/27/2021 9:15:00 AM 0.11 32.198 0.177 7.35 2.38 14.34
1/27/2021 9:30:00 AM 0.11 32.198 0.177 7.37 2.3 14.38
1/27/2021 9:45:00 AM 0.12 32.216 0.177 7.38 2.42 14.41
1/27/2021 10:00:00 AM 0.13 32.234 0.177 7.4 2.29 14.44
1/27/2021 10:15:00 AM 0.14 32.252 0.177 7.4 2.35 14.48
1/27/2021 10:30:00 AM 0.15 32.27 0.177 7.41 2.15 14.5
1/27/2021 10:45:00 AM 0.17 32.306 0.177 7.42 2.29 14.52
1/27/2021 11:00:00 AM 0.19 32.342 0.177 7.43 2.33 14.55
1/27/2021 11:15:00 AM 0.22 32.396 0.177 7.43 2.28 14.57
1/27/2021 11:30:00 AM 0.24 32.432 0.177 7.43 2.24 14.59
1/27/2021 11:45:00 AM 0.26 32.468 0.177 7.45 2.31 14.59
1/27/2021 12:00:00 PM 0.29 32.522 0.177 7.45 2.19 14.59
1/27/2021 12:15:00 PM 0.31 32.558 0.177 7.45 2.29 14.59
1/27/2021 12:30:00 PM 0.33 32.594 0.177 7.44 2.18 14.59
1/27/2021 12:45:00 PM 0.35 32.63 0.177 7.46 2.25 14.59
1/27/2021 1:00:00 PM 0.35 32.63 0.177 7.46 2.26 14.58
1/27/2021 1:15:00 PM 0.36 32.648 0.177 7.47 2.22 14.59
1/27/2021 1:30:00 PM 0.36 32.648 0.177 7.47 2.19 14.58
1/27/2021 1:45:00 PM 0.37 32.666 0.177 7.47 2.25 14.58
1/27/2021 2:00:00 PM 0.37 32.666 0.177 7.46 2.28 14.58
1/27/2021 2:15:00 PM 0.38 32.684 0.177 7.46 2.16 14.57
1/27/2021 2:30:00 PM 0.38 32.684 0.177 7.47 2.11 14.56
1/27/2021 2:45:00 PM 0.38 32.684 0.177 7.47 2.27 14.55
1/27/2021 3:00:00 PM 0.37 32.666 0.177 7.46 2.21 14.55
1/27/2021 3:15:00 PM 0.36 32.648 0.177 7.46 2.24 14.53
1/27/2021 3:30:00 PM 0.35 32.63 0.178 7.37 2.37 14.51
1/27/2021 3:45:00 PM 0.33 32.594 0.178 7.45 2.11 14.49
1/27/2021 4:00:00 PM 0.32 32.576 0.178 7.42 2.19 14.48
1/27/2021 4:15:00 PM 0.3 32.54 0.178 7.43 2.26 14.46
1/27/2021 4:30:00 PM 0.29 32.522 0.178 7.43 2.27 14.44
1/27/2021 4:45:00 PM 0.28 32.504 0.178 7.41 2.12 14.4
1/27/2021 5:00:00 PM 0.26 32.468 0.178 7.4 2.21 14.37
1/27/2021 5:15:00 PM 0.24 32.432 0.178 7.4 2.21 14.33
1/27/2021 5:30:00 PM 0.23 32.414 0.178 7.38 2.2 14.3
1/27/2021 5:45:00 PM 0.21 32.378 0.178 7.37 2.22 14.28
1/27/2021 6:00:00 PM 0.2 32.36 0.178 7.37 2.21 14.25
1/27/2021 6:15:00 PM 0.17 32.306 0.178 7.35 2.31 14.23
1/27/2021 6:30:00 PM 0.16 32.288 0.178 7.28 2.39 14.21
1/27/2021 6:45:00 PM 0.14 32.252 0.178 7.35 2.2 14.2
1/27/2021 7:00:00 PM 0.13 32.234 0.178 7.27 2.26 14.19
1/27/2021 7:15:00 PM 0.11 32.198 0.178 7.33 2.4 14.2
1/27/2021 7:30:00 PM 0.08 32.144 0.178 7.32 2.38 14.2
1/27/2021 7:45:00 PM 0.05 32.09 0.178 7.32 2.33 14.19
1/27/2021 8:00:00 PM 0.04 32.072 0.178 7.32 2.26 14.2
1/27/2021 8:15:00 PM 0.03 32.054 0.178 7.32 2.32 14.2
1/27/2021 8:30:00 PM 0.02 32.036 0.178 7.32 2.41 14.21
1/27/2021 8:45:00 PM 0 32 0.178 7.32 2.28 14.21
1/27/2021 9:00:00 PM 0 32 0.179 7.29 2.4 14.22
1/27/2021 9:15:00 PM -0.01 31.982 0.179 7.32 2.35 14.21
1/27/2021 9:30:00 PM -0.02 31.964 0.179 7.34 2.26 14.21
1/27/2021 9:45:00 PM -0.04 31.928 0.179 7.32 2.2 14.22
1/27/2021 10:00:00 PM -0.05 31.91 0.179 7.31 2.42 14.23
1/27/2021 10:15:00 PM -0.04 31.928 0.179 7.32 2.24 14.23
1/27/2021 10:30:00 PM -0.03 31.946 0.179 7.34 2.32 14.24
1/27/2021 10:45:00 PM -0.03 31.946 0.179 7.31 2.46 14.25
1/27/2021 11:00:00 PM -0.03 31.946 0.179 7.37 2.42 14.26
1/27/2021 11:15:00 PM -0.03 31.946 0.18 7.28 2.49 14.27
1/27/2021 11:30:00 PM -0.03 31.946 0.18 7.28 2.51 14.26
1/27/2021 11:45:00 PM -0.03 31.946 0.18 7.3 2.38 14.27
1/28/2021 12:00:00 AM -0.03 31.946 0.18 7.29 2.52 14.27
1/28/2021 12:15:00 AM -0.03 31.946 0.18 7.3 2.37 14.27
1/28/2021 12:30:00 AM -0.03 31.946 0.18 7.31 2.23 14.28
1/28/2021 12:45:00 AM -0.03 31.946 0.18 7.3 2.38 14.28
1/28/2021 1:00:00 AM -0.03 31.946 0.18 7.29 2.53 14.28
1/28/2021 1:15:00 AM -0.03 31.946 0.181 7.31 2.33 14.28
1/28/2021 1:30:00 AM -0.03 31.946 0.181 7.31 3.17 14.28
1/28/2021 1:45:00 AM -0.02 31.964 0.181 7.3 2.24 14.27
1/28/2021 2:00:00 AM -0.02 31.964 0.181 7.21 2.41 14.27
1/28/2021 2:15:00 AM -0.02 31.964 0.181 7.3 2.19 14.26
1/28/2021 2:30:00 AM -0.02 31.964 0.181 7.3 2.38 14.26
1/28/2021 2:45:00 AM -0.02 31.964 0.181 7.31 2.32 14.25
1/28/2021 3:00:00 AM -0.03 31.946 0.181 7.3 2.37 14.26
1/28/2021 3:15:00 AM -0.02 31.964 0.181 7.3 2.24 14.25
1/28/2021 3:30:00 AM -0.02 31.964 0.182 7.3 2.24 14.24
1/28/2021 3:45:00 AM -0.02 31.964 0.182 7.29 2.21 14.24
1/28/2021 4:00:00 AM -0.02 31.964 0.182 7.3 2.15 14.24
1/28/2021 4:15:00 AM -0.02 31.964 0.182 7.22 2.13 14.24
1/28/2021 4:30:00 AM -0.02 31.964 0.182 7.3 2.25 14.23
1/28/2021 4:45:00 AM -0.02 31.964 0.182 7.3 2.29 14.23
1/28/2021 5:00:00 AM -0.02 31.964 0.182 7.29 2.27 14.23
1/28/2021 5:15:00 AM -0.02 31.964 0.182 7.29 2.22 14.23
1/28/2021 5:30:00 AM -0.02 31.964 0.182 7.22 2.16 14.22
1/28/2021 5:45:00 AM -0.02 31.964 0.182 7.28 2.34 14.22
1/28/2021 6:00:00 AM -0.02 31.964 0.182 7.3 2.46 14.22
1/28/2021 6:15:00 AM -0.02 31.964 0.182 7.3 2.5 14.22
1/28/2021 6:30:00 AM -0.02 31.964 0.183 7.22 2.45 14.22
1/28/2021 6:45:00 AM -0.02 31.964 0.183 7.3 2.46 14.22
1/28/2021 7:00:00 AM -0.02 31.964 0.183 7.29 2.15 14.23
1/28/2021 7:15:00 AM -0.03 31.946 0.183 7.3 2.42 14.23
1/28/2021 7:30:00 AM -0.03 31.946 0.183 7.3 2.25 14.24
1/28/2021 7:45:00 AM -0.03 31.946 0.183 7.3 2.45 14.26
1/28/2021 8:00:00 AM -0.02 31.964 0.183 7.3 2.41 14.28
1/28/2021 8:15:00 AM -0.02 31.964 0.183 7.31 2.29 14.32
1/28/2021 8:30:00 AM -0.02 31.964 0.184 7.32 2.31 14.37
1/28/2021 8:45:00 AM -0.01 31.982 0.184 7.33 2.24 14.42
1/28/2021 9:00:00 AM -0.01 31.982 0.184 7.33 2.08 14.49
1/28/2021 9:15:00 AM 0 32 0.184 7.35 2.1 14.54
1/28/2021 9:30:00 AM 0 32 0.184 7.36 2.17 14.6
1/28/2021 9:45:00 AM 0 32 0.184 7.37 2.07 14.64
1/28/2021 10:00:00 AM 0 32 0.184 7.39 2.14 14.67
1/28/2021 10:15:00 AM 0 32 0.184 7.4 2.24 14.71
1/28/2021 10:30:00 AM 0 32 0.184 7.4 2.12 14.73
1/28/2021 10:45:00 AM 0.01 32.018 0.184 7.41 2.12 14.76
1/28/2021 11:00:00 AM 0.02 32.036 0.183 7.43 2.28 14.77
1/28/2021 11:15:00 AM 0.03 32.054 0.183 7.43 2.28 14.77
1/28/2021 11:30:00 AM 0.03 32.054 0.183 7.43 2.24 14.76
1/28/2021 11:45:00 AM 0.05 32.09 0.183 7.34 2.6 14.76
1/28/2021 12:00:00 PM 0.06 32.108 0.183 7.44 2.54 14.75
1/28/2021 12:15:00 PM 0.07 32.126 0.183 7.44 2.3 14.76
1/28/2021 12:30:00 PM 0.08 32.144 0.183 7.44 2.42 14.74
1/28/2021 12:45:00 PM 0.09 32.162 0.182 7.36 2.47 14.74
1/28/2021 1:00:00 PM 0.07 32.126 0.182 7.44 2.46 14.72
1/28/2021 1:15:00 PM 0.09 32.162 0.182 7.45 2.34 14.72
1/28/2021 1:30:00 PM 0.1 32.18 0.182 7.44 2.34 14.72
1/28/2021 1:45:00 PM 0.06 32.108 0.182 7.37 2.54 14.73
1/28/2021 2:00:00 PM 0.05 32.09 0.182 7.46 3.01 14.73
1/28/2021 2:15:00 PM 0.04 32.072 0.182 7.45 3.25 14.73
1/28/2021 2:30:00 PM 0.02 32.036 0.182 7.37 2.75 14.72
1/28/2021 2:45:00 PM 0.01 32.018 0.182 7.45 2.42 14.72
1/28/2021 3:00:00 PM 0 32 0.182 7.46 2.29 14.71
1/28/2021 3:15:00 PM -0.01 31.982 0.182 7.45 2.38 14.71
1/28/2021 3:30:00 PM 0 32 0.183 7.46 2.86 14.72
1/28/2021 3:45:00 PM 0 32 0.183 7.45 2.48 14.72
1/28/2021 4:00:00 PM -0.01 31.982 0.183 7.45 2.49 14.72
1/28/2021 4:15:00 PM -0.03 31.946 0.183 7.45 2.3 14.71
1/28/2021 4:30:00 PM -0.03 31.946 0.182 7.44 2.39 14.71
1/28/2021 4:45:00 PM -0.04 31.928 0.182 7.44 2.36 14.7
1/28/2021 5:00:00 PM -0.03 31.946 0.182 7.44 2.37 14.67
1/28/2021 5:15:00 PM -0.03 31.946 0.182 7.36 2.58 14.65
1/28/2021 5:30:00 PM -0.03 31.946 0.182 7.41 2.58 14.61
1/28/2021 5:45:00 PM -0.03 31.946 0.182 7.39 2.36 14.57
1/28/2021 6:00:00 PM -0.03 31.946 0.182 7.38 2.43 14.53
1/28/2021 6:15:00 PM -0.03 31.946 0.182 7.37 2.28 14.49
1/28/2021 6:30:00 PM -0.03 31.946 0.182 7.35 2.52 14.46
1/28/2021 6:45:00 PM -0.03 31.946 0.182 7.34 2.42 14.44
1/28/2021 7:00:00 PM -0.03 31.946 0.182 7.33 2.49 14.41
1/28/2021 7:15:00 PM -0.02 31.964 0.182 7.33 2.42 14.4
1/28/2021 7:30:00 PM -0.02 31.964 0.182 7.33 2.3 14.38
1/28/2021 7:45:00 PM -0.02 31.964 0.182 7.33 2.29 14.37
1/28/2021 8:00:00 PM -0.02 31.964 0.183 7.34 2.23 14.36
1/28/2021 8:15:00 PM -0.03 31.946 0.183 7.34 2.14 14.36
1/28/2021 8:30:00 PM -0.03 31.946 0.183 7.34 2.59 14.35
1/28/2021 8:45:00 PM -0.03 31.946 0.183 7.33 2.37 14.35
1/28/2021 9:00:00 PM -0.03 31.946 0.184 7.32 2.47 14.34
1/28/2021 9:15:00 PM -0.02 31.964 0.184 7.31 2.28 14.34
1/28/2021 9:30:00 PM -0.02 31.964 0.184 7.31 2.42 14.33
1/28/2021 9:45:00 PM -0.02 31.964 0.185 7.32 2.37 14.33
1/28/2021 10:00:00 PM -0.02 31.964 0.185 7.31 2.23 14.32
1/28/2021 10:15:00 PM -0.02 31.964 0.185 7.31 2.47 14.31
1/28/2021 10:30:00 PM -0.02 31.964 0.186 7.31 2.57 14.31
1/28/2021 10:45:00 PM -0.02 31.964 0.186 7.3 2.4 14.3
1/28/2021 11:00:00 PM -0.02 31.964 0.186 7.31 2.43 14.29
1/28/2021 11:15:00 PM -0.02 31.964 0.187 7.31 2.48 14.29
1/28/2021 11:30:00 PM -0.02 31.964 0.187 7.3 2.37 14.28
1/28/2021 11:45:00 PM -0.02 31.964 0.187 7.3 2.29 14.28
1/29/2021 12:00:00 AM -0.02 31.964 0.188 7.3 2.14 14.27
1/29/2021 12:15:00 AM -0.02 31.964 0.188 7.3 2.26 14.26
1/29/2021 12:30:00 AM -0.02 31.964 0.188 7.3 2.24 14.26
1/29/2021 12:45:00 AM -0.02 31.964 0.189 7.24 2.19 14.25
1/29/2021 1:00:00 AM -0.02 31.964 0.189 7.3 2.1 14.25
1/29/2021 1:15:00 AM -0.02 31.964 0.189 7.3 2.13 14.25
1/29/2021 1:30:00 AM -0.02 31.964 0.189 7.3 2.24 14.24
1/29/2021 1:45:00 AM -0.02 31.964 0.189 7.29 2.25 14.24
1/29/2021 2:00:00 AM -0.02 31.964 0.19 7.29 2.28 14.23
1/29/2021 2:15:00 AM -0.02 31.964 0.19 7.29 2.17 14.23
1/29/2021 2:30:00 AM -0.02 31.964 0.19 7.29 2.14 14.23
1/29/2021 2:45:00 AM -0.02 31.964 0.19 7.3 2.21 14.22
1/29/2021 3:00:00 AM -0.02 31.964 0.19 7.3 2.3 14.22
1/29/2021 3:15:00 AM -0.02 31.964 0.19 7.32 2.22 14.21
1/29/2021 3:30:00 AM -0.02 31.964 0.19 7.32 2.51 14.22
1/29/2021 3:45:00 AM -0.02 31.964 0.19 7.3 2.41 14.22
1/29/2021 4:00:00 AM -0.02 31.964 0.19 7.32 2.29 14.22
1/29/2021 4:15:00 AM -0.03 31.946 0.19 7.33 2.36 14.22
1/29/2021 4:30:00 AM -0.02 31.964 0.191 7.31 2.41 14.23
1/29/2021 4:45:00 AM -0.03 31.946 0.191 7.31 2.34 14.23
1/29/2021 5:00:00 AM -0.02 31.964 0.191 7.31 2.48 14.23
1/29/2021 5:15:00 AM -0.02 31.964 0.191 7.31 2.73 14.23
1/29/2021 5:30:00 AM -0.02 31.964 0.191 7.31 2.43 14.23
1/29/2021 5:45:00 AM -0.02 31.964 0.191 7.31 2.55 14.23
1/29/2021 6:00:00 AM -0.02 31.964 0.192 7.3 2.47 14.23
1/29/2021 6:15:00 AM -0.03 31.946 0.192 7.3 2.39 14.23
1/29/2021 6:30:00 AM -0.02 31.964 0.192 7.3 2.53 14.23
1/29/2021 6:45:00 AM -0.02 31.964 0.192 7.29 2.63 14.23
1/29/2021 7:00:00 AM -0.02 31.964 0.192 7.29 3.16 14.22
1/29/2021 7:15:00 AM -0.02 31.964 0.193 7.29 2.74 14.23
1/29/2021 7:30:00 AM -0.02 31.964 0.193 7.27 2.59 14.23
1/29/2021 7:45:00 AM -0.02 31.964 0.193 7.35 3.14 14.23
1/29/2021 8:00:00 AM -0.02 31.964 0.193 7.2 2.42 14.25
1/29/2021 8:15:00 AM -0.02 31.964 0.193 7.33 2.49 14.28
1/29/2021 8:30:00 AM -0.02 31.964 0.193 7.29 2.45 14.32
1/29/2021 8:45:00 AM -0.02 31.964 0.193 7.29 2.35 14.38
1/29/2021 9:00:00 AM -0.01 31.982 0.193 7.24 2.45 14.45
1/29/2021 9:15:00 AM -0.01 31.982 0.193 7.3 2.06 14.51
1/29/2021 9:30:00 AM -0.01 31.982 0.193 7.32 2.2 14.57
1/29/2021 9:45:00 AM -0.01 31.982 0.192 7.34 2.31 14.63
1/29/2021 10:00:00 AM 0 32 0.192 7.35 2.43 14.69
1/29/2021 10:15:00 AM 0 32 0.192 7.36 2.38 14.74
1/29/2021 10:30:00 AM 0 32 0.192 7.38 2.49 14.79
1/29/2021 10:45:00 AM 0 32 0.192 7.39 2.36 14.83
1/29/2021 11:00:00 AM 0 32 0.191 7.4 2.4 14.87
1/29/2021 11:15:00 AM 0 32 0.191 7.41 2.37 14.9
1/29/2021 11:30:00 AM 0 32 0.191 7.42 2.37 14.93
1/29/2021 11:45:00 AM 0.01 32.018 0.191 7.43 2.36 14.95
1/29/2021 12:00:00 PM 0.01 32.018 0.19 7.43 2.35 14.96
1/29/2021 12:15:00 PM 0.01 32.018 0.19 7.44 2.55 14.98
1/29/2021 12:30:00 PM 0.01 32.018 0.19 7.44 2.42 14.98
1/29/2021 12:45:00 PM 0.01 32.018 0.19 7.45 2.6 14.99
1/29/2021 1:00:00 PM 0.01 32.018 0.189 7.46 2.35 14.98
1/29/2021 1:15:00 PM 0.02 32.036 0.189 7.46 2.88 14.98
1/29/2021 1:30:00 PM 0.02 32.036 0.189 7.46 2.67 14.97
1/29/2021 1:45:00 PM 0.01 32.018 0.189 7.45 3.06 14.96
1/29/2021 2:00:00 PM 0.01 32.018 0.188 7.46 3.33 14.95
1/29/2021 2:15:00 PM 0.01 32.018 0.188 7.46 3 14.94
1/29/2021 2:30:00 PM 0.01 32.018 0.188 7.46 2.93 14.95
1/29/2021 2:45:00 PM 0.01 32.018 0.188 7.46 2.85 14.94
1/29/2021 3:00:00 PM 0.01 32.018 0.188 7.46 2.86 14.95
1/29/2021 3:15:00 PM 0 32 0.188 7.47 2.92 14.94
1/29/2021 3:30:00 PM 0 32 0.188 7.46 2.86 14.94
1/29/2021 3:45:00 PM 0 32 0.188 7.46 2.77 14.93
1/29/2021 4:00:00 PM 0 32 0.189 7.45 3.1 14.92
1/29/2021 4:15:00 PM -0.01 31.982 0.189 7.45 3 14.91
1/29/2021 4:30:00 PM -0.01 31.982 0.19 7.45 3.06 14.89
1/29/2021 4:45:00 PM -0.01 31.982 0.19 7.43 3.41 14.86
1/29/2021 5:00:00 PM -0.02 31.964 0.19 7.36 3.01 14.83
1/29/2021 5:15:00 PM -0.02 31.964 0.191 7.42 2.94 14.78
1/29/2021 5:30:00 PM -0.02 31.964 0.191 7.4 2.92 14.71
1/29/2021 5:45:00 PM -0.02 31.964 0.191 7.38 2.8 14.65
1/29/2021 6:00:00 PM -0.02 31.964 0.191 7.37 2.81 14.58
1/29/2021 6:15:00 PM -0.02 31.964 0.191 7.29 2.81 14.53
1/29/2021 6:30:00 PM -0.02 31.964 0.191 7.34 2.64 14.47
1/29/2021 6:45:00 PM -0.02 31.964 0.191 7.34 2.77 14.42
1/29/2021 7:00:00 PM -0.02 31.964 0.19 7.31 2.72 14.38
1/29/2021 7:15:00 PM -0.02 31.964 0.19 7.31 2.74 14.34
1/29/2021 7:30:00 PM -0.02 31.964 0.19 7.23 2.63 14.31
1/29/2021 7:45:00 PM -0.02 31.964 0.19 7.29 2.67 14.28
1/29/2021 8:00:00 PM -0.02 31.964 0.19 7.29 2.49 14.25
1/29/2021 8:15:00 PM -0.02 31.964 0.19 7.28 2.54 14.23
1/29/2021 8:30:00 PM -0.02 31.964 0.19 7.28 2.6 14.22
1/29/2021 8:45:00 PM -0.02 31.964 0.19 7.27 2.69 14.2
1/29/2021 9:00:00 PM -0.02 31.964 0.19 7.26 2.54 14.19
1/29/2021 9:15:00 PM -0.02 31.964 0.19 7.28 2.63 14.18
1/29/2021 9:30:00 PM -0.02 31.964 0.19 7.19 2.44 14.17
1/29/2021 9:45:00 PM -0.02 31.964 0.19 7.25 2.52 14.16
1/29/2021 10:00:00 PM -0.02 31.964 0.19 7.25 2.49 14.15
1/29/2021 10:15:00 PM -0.02 31.964 0.19 7.26 2.44 14.14
1/29/2021 10:30:00 PM -0.02 31.964 0.19 7.25 2.63 14.13
1/29/2021 10:45:00 PM -0.02 31.964 0.19 7.24 2.58 14.13
1/29/2021 11:00:00 PM -0.02 31.964 0.19 7.24 2.42 14.12
1/29/2021 11:15:00 PM -0.02 31.964 0.191 7.24 2.62 14.11
1/29/2021 11:30:00 PM -0.02 31.964 0.191 7.24 2.51 14.1
1/29/2021 11:45:00 PM -0.02 31.964 0.191 7.24 2.77 14.09
1/30/2021 12:00:00 AM -0.02 31.964 0.191 7.24 2.98 14.09
1/30/2021 12:15:00 AM -0.02 31.964 0.191 7.24 3.01 14.09
1/30/2021 12:30:00 AM -0.02 31.964 0.191 7.18 2.68 14.08
1/30/2021 12:45:00 AM -0.02 31.964 0.191 7.24 2.64 14.07
1/30/2021 1:00:00 AM -0.02 31.964 0.192 7.28 2.65 14.07
1/30/2021 1:15:00 AM -0.02 31.964 0.192 7.23 2.64 14.06
1/30/2021 1:30:00 AM -0.02 31.964 0.192 7.24 2.55 14.06
1/30/2021 1:45:00 AM -0.02 31.964 0.192 7.23 2.45 14.05
1/30/2021 2:00:00 AM -0.02 31.964 0.193 7.23 2.42 14.05
1/30/2021 2:15:00 AM -0.02 31.964 0.193 7.24 2.48 14.05
1/30/2021 2:30:00 AM -0.02 31.964 0.193 7.23 2.41 14.04
1/30/2021 2:45:00 AM -0.02 31.964 0.193 7.24 2.55 14.04
1/30/2021 3:00:00 AM -0.02 31.964 0.193 7.16 2.79 14.03
1/30/2021 3:15:00 AM -0.02 31.964 0.193 7.24 2.52 14.04
1/30/2021 3:30:00 AM -0.02 31.964 0.194 7.23 2.42 14.04
1/30/2021 3:45:00 AM -0.02 31.964 0.194 7.23 2.5 14.03
1/30/2021 4:00:00 AM -0.02 31.964 0.194 7.23 2.51 14.03
1/30/2021 4:15:00 AM -0.02 31.964 0.194 7.23 2.54 14.03
1/30/2021 4:30:00 AM -0.02 31.964 0.194 7.22 2.53 14.02
1/30/2021 4:45:00 AM -0.02 31.964 0.195 7.23 2.53 14.02
1/30/2021 5:00:00 AM -0.02 31.964 0.195 7.22 2.5 14.01
1/30/2021 5:15:00 AM -0.02 31.964 0.195 7.22 2.35 14.01
1/30/2021 5:30:00 AM -0.02 31.964 0.195 7.19 2.35 14.01
1/30/2021 5:45:00 AM -0.02 31.964 0.195 7.22 2.47 14.01
1/30/2021 6:00:00 AM -0.02 31.964 0.195 7.17 2.3 14.01
1/30/2021 6:15:00 AM -0.02 31.964 0.196 7.23 2.36 14.01
1/30/2021 6:30:00 AM -0.02 31.964 0.196 7.23 2.38 14.01
1/30/2021 6:45:00 AM -0.02 31.964 0.196 7.22 2.39 14.01
1/30/2021 7:00:00 AM -0.02 31.964 0.196 7.21 2.43 14.01
1/30/2021 7:15:00 AM -0.02 31.964 0.196 7.22 2.39 14.01
1/30/2021 7:30:00 AM -0.02 31.964 0.196 7.21 2.34 14.01
1/30/2021 7:45:00 AM -0.02 31.964 0.196 7.22 2.8 14.03
1/30/2021 8:00:00 AM -0.02 31.964 0.196 7.22 2.71 14.05
1/30/2021 8:15:00 AM -0.01 31.982 0.196 7.23 2.76 14.1
1/30/2021 8:30:00 AM -0.01 31.982 0.197 7.17 2.81 14.16
1/30/2021 8:45:00 AM -0.01 31.982 0.196 7.25 2.49 14.24
1/30/2021 9:00:00 AM -0.01 31.982 0.196 7.27 2.39 14.31
1/30/2021 9:15:00 AM 0 32 0.196 7.28 2.44 14.39
1/30/2021 9:30:00 AM 0 32 0.196 7.23 2.43 14.47
1/30/2021 9:45:00 AM 0 32 0.196 7.31 2.49 14.55
1/30/2021 10:00:00 AM 0.01 32.018 0.196 7.32 2.34 14.62
1/30/2021 10:15:00 AM 0.01 32.018 0.196 7.34 2.31 14.7
1/30/2021 10:30:00 AM 0.02 32.036 0.195 7.36 2.32 14.77
1/30/2021 10:45:00 AM 0.03 32.054 0.195 7.38 2.34 14.84
1/30/2021 11:00:00 AM 0.03 32.054 0.195 7.32 2.24 14.88
1/30/2021 11:15:00 AM 0.02 32.036 0.194 7.4 2.48 14.92
1/30/2021 11:30:00 AM 0.03 32.054 0.194 7.37 2.67 14.94
1/30/2021 11:45:00 AM 0.03 32.054 0.194 7.42 2.51 14.96
1/30/2021 12:00:00 PM 0.05 32.09 0.194 7.43 2.43 14.98
1/30/2021 12:15:00 PM 0.06 32.108 0.193 7.44 2.53 14.99
1/30/2021 12:30:00 PM 0.06 32.108 0.193 7.45 2.44 14.99
1/30/2021 12:45:00 PM 0.06 32.108 0.193 7.46 2.3 14.99
1/30/2021 1:00:00 PM 0.06 32.108 0.192 7.46 2.21 14.99
1/30/2021 1:15:00 PM 0.06 32.108 0.192 7.46 2.44 14.98
1/30/2021 1:30:00 PM 0.06 32.108 0.192 7.46 2.31 14.97
1/30/2021 1:45:00 PM 0.06 32.108 0.191 7.46 2.43 14.95
1/30/2021 2:00:00 PM 0.05 32.09 0.191 7.46 2.45 14.94
1/30/2021 2:15:00 PM 0.05 32.09 0.191 7.46 2.41 14.93
1/30/2021 2:30:00 PM 0.04 32.072 0.191 7.46 2.35 14.92
1/30/2021 2:45:00 PM 0.03 32.054 0.191 7.4 2.45 14.91
1/30/2021 3:00:00 PM 0.03 32.054 0.19 7.45 2.35 14.9
1/30/2021 3:15:00 PM 0.02 32.036 0.19 7.46 2.34 14.88
1/30/2021 3:30:00 PM 0.02 32.036 0.19 7.46 2.33 14.87
1/30/2021 3:45:00 PM 0.02 32.036 0.19 7.39 2.23 14.86
1/30/2021 4:00:00 PM 0.01 32.018 0.19 7.45 2.34 14.83
1/30/2021 4:15:00 PM 0 32 0.19 7.44 2.37 14.79
1/30/2021 4:30:00 PM 0 32 0.19 7.44 2.56 14.76
1/30/2021 4:45:00 PM -0.01 31.982 0.19 7.41 2.39 14.73
1/30/2021 5:00:00 PM -0.01 31.982 0.19 7.41 2.37 14.69
1/30/2021 5:15:00 PM -0.02 31.964 0.19 7.4 2.37 14.65
1/30/2021 5:30:00 PM -0.02 31.964 0.19 7.39 2.3 14.6
1/30/2021 5:45:00 PM -0.02 31.964 0.19 7.33 2.34 14.55
1/30/2021 6:00:00 PM -0.02 31.964 0.19 7.35 2.32 14.5
1/30/2021 6:15:00 PM -0.02 31.964 0.19 7.35 2.48 14.45
1/30/2021 6:30:00 PM -0.03 31.946 0.19 7.34 2.33 14.4
1/30/2021 6:45:00 PM -0.03 31.946 0.19 7.33 2.54 14.37
1/30/2021 7:00:00 PM -0.03 31.946 0.19 7.26 2.49 14.34
1/30/2021 7:15:00 PM -0.03 31.946 0.19 7.31 2.43 14.31
1/30/2021 7:30:00 PM -0.03 31.946 0.191 7.3 2.31 14.29
1/30/2021 7:45:00 PM -0.03 31.946 0.191 7.29 2.44 14.27
1/30/2021 8:00:00 PM -0.03 31.946 0.191 7.29 2.44 14.26
1/30/2021 8:15:00 PM -0.03 31.946 0.191 7.28 2.31 14.25
1/30/2021 8:30:00 PM -0.03 31.946 0.191 7.28 2.3 14.24
1/30/2021 8:45:00 PM -0.03 31.946 0.191 7.27 2.31 14.24
1/30/2021 9:00:00 PM -0.03 31.946 0.191 7.21 2.2 14.24
1/30/2021 9:15:00 PM -0.03 31.946 0.192 7.27 2.48 14.23
1/30/2021 9:30:00 PM -0.03 31.946 0.192 7.26 2.24 14.22
1/30/2021 9:45:00 PM -0.03 31.946 0.192 7.27 2.3 14.22
1/30/2021 10:00:00 PM -0.03 31.946 0.192 7.26 2.45 14.22
1/30/2021 10:15:00 PM -0.03 31.946 0.192 7.26 2.49 14.22
1/30/2021 10:30:00 PM -0.03 31.946 0.192 7.26 2.6 14.21
1/30/2021 10:45:00 PM -0.03 31.946 0.193 7.2 2.41 14.21
1/30/2021 11:00:00 PM -0.03 31.946 0.193 7.25 2.67 14.21
1/30/2021 11:15:00 PM -0.03 31.946 0.193 7.25 2.44 14.2
1/30/2021 11:30:00 PM -0.03 31.946 0.193 7.21 2.76 14.2
1/30/2021 11:45:00 PM -0.03 31.946 0.194 7.25 2.64 14.2
1/31/2021 12:00:00 AM -0.03 31.946 0.194 7.18 2.89 14.19
1/31/2021 12:15:00 AM -0.03 31.946 0.194 7.25 2.73 14.19
1/31/2021 12:30:00 AM -0.03 31.946 0.194 7.19 2.68 14.18
1/31/2021 12:45:00 AM -0.03 31.946 0.195 7.25 2.56 14.18
1/31/2021 1:00:00 AM -0.03 31.946 0.195 7.25 2.61 14.18
1/31/2021 1:15:00 AM -0.03 31.946 0.195 7.24 2.79 14.17
1/31/2021 1:30:00 AM -0.03 31.946 0.195 7.24 2.6 14.17
1/31/2021 1:45:00 AM -0.03 31.946 0.196 7.24 2.54 14.16
1/31/2021 2:00:00 AM -0.03 31.946 0.196 7.23 2.6 14.16
1/31/2021 2:15:00 AM -0.02 31.964 0.196 7.23 2.67 14.16
1/31/2021 2:30:00 AM -0.02 31.964 0.196 7.23 2.46 14.15
1/31/2021 2:45:00 AM -0.02 31.964 0.196 7.23 2.45 14.14
1/31/2021 3:00:00 AM -0.02 31.964 0.197 7.23 2.57 14.13
1/31/2021 3:15:00 AM -0.02 31.964 0.197 7.15 2.47 14.13
1/31/2021 3:30:00 AM -0.02 31.964 0.197 7.23 2.42 14.11
1/31/2021 3:45:00 AM -0.02 31.964 0.197 7.22 2.44 14.11
1/31/2021 4:00:00 AM -0.02 31.964 0.197 7.22 2.33 14.1
1/31/2021 4:15:00 AM -0.02 31.964 0.197 7.22 2.22 14.09
1/31/2021 4:30:00 AM -0.02 31.964 0.197 7.22 2.26 14.09
1/31/2021 4:45:00 AM -0.02 31.964 0.198 7.22 2.38 14.08
1/31/2021 5:00:00 AM -0.02 31.964 0.198 7.17 2.28 14.07
1/31/2021 5:15:00 AM -0.02 31.964 0.198 7.22 2.18 14.06
1/31/2021 5:30:00 AM -0.02 31.964 0.198 7.22 2.42 14.05
1/31/2021 5:45:00 AM -0.02 31.964 0.198 7.22 2.41 14.04
1/31/2021 6:00:00 AM -0.02 31.964 0.198 7.22 2.53 14.03
1/31/2021 6:15:00 AM -0.02 31.964 0.198 7.22 2.59 14.03
1/31/2021 6:30:00 AM -0.02 31.964 0.198 7.22 2.4 14.01
1/31/2021 6:45:00 AM -0.02 31.964 0.198 7.16 2.17 14.01
1/31/2021 7:00:00 AM -0.02 31.964 0.198 7.22 2.36 14
1/31/2021 7:15:00 AM -0.02 31.964 0.198 7.21 2.61 13.99
1/31/2021 7:30:00 AM -0.02 31.964 0.198 7.15 2.47 13.98
1/31/2021 7:45:00 AM -0.02 31.964 0.198 7.21 2.33 13.98
1/31/2021 8:00:00 AM -0.01 31.982 0.199 7.17 2.27 13.99
1/31/2021 8:15:00 AM -0.01 31.982 0.199 7.21 2.47 14.02
1/31/2021 8:30:00 AM -0.01 31.982 0.199 7.22 2.31 14.06
1/31/2021 8:45:00 AM -0.01 31.982 0.199 7.17 2.43 14.11
1/31/2021 9:00:00 AM 0 32 0.199 7.22 2.32 14.19
1/31/2021 9:15:00 AM 0 32 0.199 7.26 2.46 14.27
1/31/2021 9:30:00 AM 0 32 0.199 7.27 2.45 14.36
1/31/2021 9:45:00 AM 0 32 0.199 7.28 2.4 14.44
1/31/2021 10:00:00 AM 0 32 0.198 7.3 2.55 14.52
1/31/2021 10:15:00 AM 0 32 0.198 7.31 2.43 14.58
1/31/2021 10:30:00 AM 0.01 32.018 0.199 7.33 2.34 14.66
1/31/2021 10:45:00 AM 0.02 32.036 0.198 7.35 2.32 14.73
1/31/2021 11:00:00 AM 0.03 32.054 0.198 7.35 2.38 14.82
1/31/2021 11:15:00 AM 0.04 32.072 0.198 7.38 2.42 14.89
1/31/2021 11:30:00 AM 0.03 32.054 0.198 7.4 2.26 14.96
1/31/2021 11:45:00 AM 0.03 32.054 0.198 7.39 2.42 15.01
1/31/2021 12:00:00 PM 0.03 32.054 0.198 7.43 2.32 15.05
1/31/2021 12:15:00 PM 0.03 32.054 0.198 7.43 2.26 15.08
1/31/2021 12:30:00 PM 0.03 32.054 0.198 7.45 2.04 15.1
1/31/2021 12:45:00 PM 0.03 32.054 0.198 7.46 2.21 15.11
1/31/2021 1:00:00 PM 0.03 32.054 0.197 7.51 2.11 15.12
1/31/2021 1:15:00 PM 0.02 32.036 0.197 7.46 2.08 15.11
1/31/2021 1:30:00 PM 0.01 32.018 0.197 7.47 2.12 15.09
1/31/2021 1:45:00 PM 0.01 32.018 0.197 7.47 2.11 15.07
1/31/2021 2:00:00 PM 0.01 32.018 0.197 7.47 2.14 15.05
1/31/2021 2:15:00 PM 0.02 32.036 0.197 7.47 2.15 15.03
1/31/2021 2:30:00 PM 0.02 32.036 0.197 7.47 2 15.03
1/31/2021 2:45:00 PM 0.03 32.054 0.197 7.47 2.18 15.01
1/31/2021 3:00:00 PM 0.02 32.036 0.196 7.47 2.21 15.01
1/31/2021 3:15:00 PM 0.02 32.036 0.196 7.47 2.21 15
1/31/2021 3:30:00 PM 0.02 32.036 0.196 7.47 2.31 14.99
1/31/2021 3:45:00 PM 0.02 32.036 0.196 7.47 2.3 14.98
1/31/2021 4:00:00 PM 0.01 32.018 0.195 7.43 2.28 14.96
1/31/2021 4:15:00 PM 0.01 32.018 0.195 7.45 2.24 14.93
1/31/2021 4:30:00 PM 0 32 0.195 7.45 2.44 14.88
1/31/2021 4:45:00 PM 0 32 0.195 7.44 2.28 14.82
1/31/2021 5:00:00 PM 0 32 0.195 7.44 2.31 14.76
1/31/2021 5:15:00 PM 0 32 0.194 7.41 2.37 14.68
1/31/2021 5:30:00 PM -0.01 31.982 0.194 7.4 2.17 14.6
1/31/2021 5:45:00 PM -0.01 31.982 0.194 7.37 2.41 14.51
1/31/2021 6:00:00 PM -0.01 31.982 0.194 7.36 2.24 14.44
1/31/2021 6:15:00 PM -0.01 31.982 0.194 7.31 2.32 14.36
1/31/2021 6:30:00 PM -0.01 31.982 0.194 7.33 2.21 14.3
1/31/2021 6:45:00 PM -0.01 31.982 0.193 7.31 1.98 14.25
1/31/2021 7:00:00 PM -0.01 31.982 0.193 7.3 2.03 14.2
1/31/2021 7:15:00 PM -0.01 31.982 0.193 7.29 2.08 14.16
1/31/2021 7:30:00 PM -0.01 31.982 0.193 7.28 2.06 14.13
1/31/2021 7:45:00 PM -0.01 31.982 0.193 7.28 1.98 14.1
1/31/2021 8:00:00 PM -0.01 31.982 0.193 7.28 1.96 14.08
1/31/2021 8:15:00 PM -0.01 31.982 0.193 7.27 1.97 14.06
1/31/2021 8:30:00 PM -0.01 31.982 0.193 7.27 2 14.04
1/31/2021 8:45:00 PM -0.01 31.982 0.193 7.26 2.04 14.03
1/31/2021 9:00:00 PM -0.01 31.982 0.193 7.26 1.93 14.02
1/31/2021 9:15:00 PM -0.01 31.982 0.193 7.26 1.87 14.01
1/31/2021 9:30:00 PM 0 32 0.193 7.26 2.05 13.99
1/31/2021 9:45:00 PM -0.01 31.982 0.193 7.26 1.95 13.98
1/31/2021 10:00:00 PM -0.01 31.982 0.193 7.26 1.92 13.97
1/31/2021 10:15:00 PM -0.01 31.982 0.193 7.25 2.16 13.97
1/31/2021 10:30:00 PM -0.01 31.982 0.193 7.25 2.02 13.96
1/31/2021 10:45:00 PM -0.01 31.982 0.193 7.25 1.93 13.95
1/31/2021 11:00:00 PM -0.01 31.982 0.193 7.25 2.11 13.94
1/31/2021 11:15:00 PM -0.01 31.982 0.193 7.19 1.95 13.93
1/31/2021 11:30:00 PM -0.01 31.982 0.193 7.25 1.99 13.93
1/31/2021 11:45:00 PM -0.01 31.982 0.193 7.2 2.09 13.92
2/1/2021 12:00:00 AM -0.01 31.982 0.193 7.25 2.19 13.91
2/1/2021 12:15:00 AM -0.01 31.982 0.194 7.25 2.42 13.91
2/1/2021 12:30:00 AM -0.01 31.982 0.194 7.24 2.13 13.91
2/1/2021 12:45:00 AM -0.01 31.982 0.194 7.2 2.02 13.9
2/1/2021 1:00:00 AM -0.01 31.982 0.194 7.24 2.09 13.89
2/1/2021 1:15:00 AM -0.01 31.982 0.194 7.25 1.9 13.89
2/1/2021 1:30:00 AM -0.01 31.982 0.194 7.25 1.95 13.88
2/1/2021 1:45:00 AM -0.01 31.982 0.194 7.24 1.99 13.88
2/1/2021 2:00:00 AM -0.01 31.982 0.195 7.24 1.94 13.88
2/1/2021 2:15:00 AM -0.01 31.982 0.195 7.24 2.05 13.87
2/1/2021 2:30:00 AM -0.01 31.982 0.195 7.24 2.05 13.87
2/1/2021 2:45:00 AM -0.01 31.982 0.195 7.24 1.93 13.86
2/1/2021 3:00:00 AM -0.01 31.982 0.195 7.24 2.02 13.86
2/1/2021 3:15:00 AM -0.01 31.982 0.195 7.24 1.98 13.85
2/1/2021 3:30:00 AM -0.01 31.982 0.196 7.23 1.97 13.85
2/1/2021 3:45:00 AM -0.01 31.982 0.196 7.23 1.97 13.85
2/1/2021 4:00:00 AM -0.01 31.982 0.196 7.23 2.05 13.84
2/1/2021 4:15:00 AM -0.01 31.982 0.196 7.23 1.97 13.84
2/1/2021 4:30:00 AM -0.01 31.982 0.196 7.23 1.98 13.83
2/1/2021 4:45:00 AM -0.01 31.982 0.196 7.23 1.92 13.83
2/1/2021 5:00:00 AM -0.01 31.982 0.196 7.17 1.92 13.83
2/1/2021 5:15:00 AM -0.01 31.982 0.196 7.24 1.91 13.83
2/1/2021 5:30:00 AM -0.01 31.982 0.196 7.23 1.91 13.82
2/1/2021 5:45:00 AM -0.01 31.982 0.197 7.23 1.97 13.82
2/1/2021 6:00:00 AM -0.01 31.982 0.197 7.23 1.81 13.82
2/1/2021 6:15:00 AM -0.01 31.982 0.197 7.23 1.97 13.81
2/1/2021 6:30:00 AM -0.01 31.982 0.197 7.24 1.94 13.82
2/1/2021 6:45:00 AM -0.01 31.982 0.197 7.24 1.84 13.81
2/1/2021 7:00:00 AM -0.01 31.982 0.197 7.24 1.96 13.81
2/1/2021 7:15:00 AM -0.01 31.982 0.197 7.17 2.01 13.81
2/1/2021 7:30:00 AM -0.01 31.982 0.197 7.22 1.99 13.81
2/1/2021 7:45:00 AM 0 32 0.197 7.23 2.19 13.82
2/1/2021 8:00:00 AM 0 32 0.197 7.23 2.28 13.83
2/1/2021 8:15:00 AM 0 32 0.197 7.25 2.35 13.85
2/1/2021 8:30:00 AM 0 32 0.197 7.2 2.05 13.88
2/1/2021 8:45:00 AM 0 32 0.197 7.25 1.95 13.92
2/1/2021 9:00:00 AM 0 32 0.196 7.26 2.03 13.96
2/1/2021 9:15:00 AM 0.01 32.018 0.196 7.25 2.06 14
2/1/2021 9:30:00 AM 0.01 32.018 0.196 7.28 2.07 14.05
2/1/2021 9:45:00 AM 0.01 32.018 0.196 7.28 2.14 14.09
2/1/2021 10:00:00 AM 0.01 32.018 0.196 7.3 1.98 14.13
2/1/2021 10:15:00 AM 0.01 32.018 0.196 7.3 2.04 14.17
2/1/2021 10:30:00 AM 0.02 32.036 0.196 7.32 2.03 14.22
2/1/2021 10:45:00 AM 0.03 32.054 0.196 7.29 2 14.27
2/1/2021 11:00:00 AM 0.03 32.054 0.195 7.32 1.91 14.31
2/1/2021 11:15:00 AM 0.03 32.054 0.195 7.34 1.99 14.34
2/1/2021 11:30:00 AM 0.04 32.072 0.195 7.35 1.93 14.38
2/1/2021 11:45:00 AM 0.04 32.072 0.195 7.36 1.86 14.41
2/1/2021 12:00:00 PM 0.04 32.072 0.195 7.37 1.96 14.43
2/1/2021 12:15:00 PM 0.04 32.072 0.194 7.37 2.07 14.45
2/1/2021 12:30:00 PM 0.04 32.072 0.194 7.39 2.01 14.47
2/1/2021 12:45:00 PM 0.04 32.072 0.194 7.39 2.02 14.48
2/1/2021 1:00:00 PM 0.05 32.09 0.194 7.4 2.11 14.5
2/1/2021 1:15:00 PM 0.05 32.09 0.194 7.41 1.94 14.51
2/1/2021 1:30:00 PM 0.05 32.09 0.194 7.41 1.86 14.51
2/1/2021 1:45:00 PM 0.04 32.072 0.193 7.37 1.85 14.51
2/1/2021 2:00:00 PM 0.03 32.054 0.193 7.4 1.89 14.5
2/1/2021 2:15:00 PM 0.03 32.054 0.193 7.4 2.05 14.5
2/1/2021 2:30:00 PM 0.02 32.036 0.193 7.41 2.18 14.48
2/1/2021 2:45:00 PM 0.02 32.036 0.193 7.4 2.99 14.47
2/1/2021 3:00:00 PM 0.02 32.036 0.193 7.4 2.49 14.45
2/1/2021 3:15:00 PM 0.01 32.018 0.193 7.41 2.04 14.44
2/1/2021 3:30:00 PM 0 32 0.192 7.41 2.07 14.43
2/1/2021 3:45:00 PM 0.01 32.018 0.192 7.4 2 14.41
2/1/2021 4:00:00 PM 0.01 32.018 0.192 7.38 1.99 14.4
2/1/2021 4:15:00 PM 0 32 0.192 7.4 1.93 14.39
2/1/2021 4:30:00 PM 0 32 0.192 7.32 1.97 14.38
2/1/2021 4:45:00 PM 0 32 0.192 7.39 1.97 14.36
2/1/2021 5:00:00 PM -0.01 31.982 0.192 7.37 2.02 14.33
2/1/2021 5:15:00 PM -0.01 31.982 0.192 7.3 1.94 14.29
2/1/2021 5:30:00 PM -0.01 31.982 0.192 7.37 1.9 14.25
2/1/2021 5:45:00 PM -0.01 31.982 0.192 7.36 1.86 14.21
2/1/2021 6:00:00 PM -0.01 31.982 0.192 7.35 1.89 14.17
2/1/2021 6:15:00 PM -0.01 31.982 0.192 7.34 2.1 14.14
2/1/2021 6:30:00 PM -0.01 31.982 0.192 7.34 1.89 14.11
2/1/2021 6:45:00 PM -0.01 31.982 0.192 7.33 1.92 14.08
2/1/2021 7:00:00 PM -0.01 31.982 0.192 7.32 1.84 14.05
2/1/2021 7:15:00 PM -0.01 31.982 0.192 7.3 1.91 14.03
2/1/2021 7:30:00 PM -0.01 31.982 0.192 7.26 1.93 14.01
2/1/2021 7:45:00 PM -0.01 31.982 0.193 7.3 2.05 13.99
2/1/2021 8:00:00 PM -0.01 31.982 0.193 7.3 1.78 13.98
2/1/2021 8:15:00 PM -0.01 31.982 0.193 7.31 1.85 13.97
2/1/2021 8:30:00 PM -0.01 31.982 0.193 7.28 1.73 13.95
2/1/2021 8:45:00 PM -0.01 31.982 0.193 7.28 1.9 13.95
2/1/2021 9:00:00 PM -0.01 31.982 0.193 7.28 1.67 13.94
2/1/2021 9:15:00 PM -0.01 31.982 0.193 7.23 1.81 13.93
2/1/2021 9:30:00 PM -0.01 31.982 0.193 7.27 1.83 13.92
2/1/2021 9:45:00 PM -0.01 31.982 0.193 7.24 1.84 13.92
2/1/2021 10:00:00 PM -0.01 31.982 0.193 7.27 1.92 13.91
2/1/2021 10:15:00 PM -0.01 31.982 0.193 7.27 1.77 13.9
2/1/2021 10:30:00 PM -0.01 31.982 0.193 7.27 1.77 13.9
2/1/2021 10:45:00 PM -0.01 31.982 0.193 7.27 1.73 13.89
2/1/2021 11:00:00 PM -0.01 31.982 0.193 7.27 1.88 13.89
2/1/2021 11:15:00 PM -0.01 31.982 0.193 7.23 1.75 13.88
2/1/2021 11:30:00 PM -0.01 31.982 0.193 7.26 1.74 13.88
2/1/2021 11:45:00 PM -0.01 31.982 0.193 7.26 1.79 13.87
2/2/2021 12:00:00 AM -0.01 31.982 0.193 7.26 1.86 13.86
2/2/2021 12:15:00 AM -0.01 31.982 0.193 7.19 1.84 13.86
2/2/2021 12:30:00 AM -0.01 31.982 0.193 7.26 1.79 13.85
2/2/2021 12:45:00 AM -0.01 31.982 0.193 7.26 1.94 13.85
2/2/2021 1:00:00 AM -0.01 31.982 0.193 7.26 2.15 13.85
2/2/2021 1:15:00 AM -0.01 31.982 0.193 7.25 2.64 13.84
2/2/2021 1:30:00 AM -0.01 31.982 0.193 7.25 2.25 13.84
2/2/2021 1:45:00 AM -0.01 31.982 0.194 7.25 2.36 13.83
2/2/2021 2:00:00 AM -0.01 31.982 0.194 7.25 1.99 13.83
2/2/2021 2:15:00 AM -0.01 31.982 0.193 7.25 1.96 13.82
2/2/2021 2:30:00 AM -0.02 31.964 0.193 7.18 2.07 13.82
2/2/2021 2:45:00 AM -0.02 31.964 0.194 7.26 1.86 13.82
2/2/2021 3:00:00 AM -0.02 31.964 0.193 7.24 2.14 13.82
2/2/2021 3:15:00 AM -0.02 31.964 0.194 7.25 2 13.81
2/2/2021 3:30:00 AM -0.02 31.964 0.194 7.25 2.11 13.81
2/2/2021 3:45:00 AM -0.02 31.964 0.194 7.24 1.86 13.8
2/2/2021 4:00:00 AM -0.02 31.964 0.194 7.24 1.75 13.79
2/2/2021 4:15:00 AM -0.02 31.964 0.194 7.25 1.99 13.79
2/2/2021 4:30:00 AM -0.02 31.964 0.194 7.24 1.88 13.79
2/2/2021 4:45:00 AM -0.02 31.964 0.194 7.19 1.97 13.78
2/2/2021 5:00:00 AM -0.02 31.964 0.194 7.24 1.99 13.77
2/2/2021 5:15:00 AM -0.02 31.964 0.194 7.24 1.93 13.76
2/2/2021 5:30:00 AM -0.02 31.964 0.194 7.24 1.83 13.76
2/2/2021 5:45:00 AM -0.01 31.982 0.194 7.24 2.15 13.76
2/2/2021 6:00:00 AM -0.01 31.982 0.194 7.23 1.92 13.75
2/2/2021 6:15:00 AM -0.01 31.982 0.194 7.24 2.01 13.74
2/2/2021 6:30:00 AM -0.01 31.982 0.194 7.23 2.01 13.73
2/2/2021 6:45:00 AM -0.01 31.982 0.194 7.23 1.97 13.72
2/2/2021 7:00:00 AM -0.01 31.982 0.194 7.23 1.95 13.72
2/2/2021 7:15:00 AM -0.01 31.982 0.194 7.22 1.86 13.72
2/2/2021 7:30:00 AM -0.01 31.982 0.194 7.22 1.97 13.71
2/2/2021 7:45:00 AM -0.01 31.982 0.194 7.22 2.01 13.71
2/2/2021 8:00:00 AM -0.01 31.982 0.194 7.22 2.06 13.72
2/2/2021 8:15:00 AM 0 32 0.194 7.23 2.05 13.72
2/2/2021 8:30:00 AM 0 32 0.194 7.23 1.96 13.75
2/2/2021 8:45:00 AM 0 32 0.194 7.23 2.02 13.77
2/2/2021 9:00:00 AM 0 32 0.193 7.24 1.82 13.8
2/2/2021 9:15:00 AM 0 32 0.193 7.25 1.87 13.83
2/2/2021 9:30:00 AM 0 32 0.193 7.2 1.89 13.87
2/2/2021 9:45:00 AM 0 32 0.193 7.26 2.11 13.91
2/2/2021 10:00:00 AM 0 32 0.193 7.26 1.97 13.94
2/2/2021 10:15:00 AM 0.01 32.018 0.193 7.28 1.95 13.99
2/2/2021 10:30:00 AM 0.02 32.036 0.193 7.29 1.89 14.04
2/2/2021 10:45:00 AM 0.02 32.036 0.193 7.29 2.02 14.09
2/2/2021 11:00:00 AM 0.02 32.036 0.192 7.31 2.04 14.13
2/2/2021 11:15:00 AM 0.03 32.054 0.192 7.31 1.91 14.18
2/2/2021 11:30:00 AM 0.04 32.072 0.192 7.33 1.98 14.21
2/2/2021 11:45:00 AM 0.05 32.09 0.192 7.34 1.94 14.25
2/2/2021 12:00:00 PM 0.05 32.09 0.191 7.35 1.91 14.29
2/2/2021 12:15:00 PM 0.03 32.054 0.191 7.36 1.9 14.32
2/2/2021 12:30:00 PM 0.03 32.054 0.191 7.37 2.4 14.34
2/2/2021 12:45:00 PM 0.04 32.072 0.191 7.37 2.29 14.36
2/2/2021 1:00:00 PM 0.04 32.072 0.191 7.38 1.99 14.37
2/2/2021 1:15:00 PM 0.04 32.072 0.191 7.33 2.92 14.38
2/2/2021 1:30:00 PM 0.04 32.072 0.191 7.38 1.83 14.38
2/2/2021 1:45:00 PM 0.03 32.054 0.191 7.36 1.78 14.38
2/2/2021 2:00:00 PM 0.02 32.036 0.191 7.37 1.64 14.38
2/2/2021 2:15:00 PM 0.02 32.036 0.191 7.4 1.65 14.38
2/2/2021 2:30:00 PM 0.02 32.036 0.191 7.4 1.62 14.38
2/2/2021 2:45:00 PM 0.02 32.036 0.191 7.41 1.78 14.37
2/2/2021 3:00:00 PM 0.02 32.036 0.191 7.41 3.7 14.37
2/2/2021 3:15:00 PM 0.01 32.018 0.191 7.39 1.51 14.36
2/2/2021 3:30:00 PM 0.01 32.018 0.191 7.4 1.59 14.35
2/2/2021 3:45:00 PM 0.01 32.018 0.191 7.37 1.78 14.33
2/2/2021 4:00:00 PM 0 32 0.191 7.41 14.86 14.31
2/2/2021 4:15:00 PM 0 32 0.191 7.39 1.59 14.28
2/2/2021 4:30:00 PM 0 32 0.191 7.36 1.68 14.25
2/2/2021 4:45:00 PM 0 32 0.192 7.37 1.62 14.22
2/2/2021 5:00:00 PM 0 32 0.192 7.3 1.71 14.18
2/2/2021 5:15:00 PM -0.01 31.982 0.192 7.36 1.62 14.15
2/2/2021 5:30:00 PM -0.01 31.982 0.192 7.34 1.54 14.1
2/2/2021 5:45:00 PM -0.01 31.982 0.192 7.34 1.55 14.06
2/2/2021 6:00:00 PM -0.01 31.982 0.192 7.33 1.65 14.03
2/2/2021 6:15:00 PM -0.01 31.982 0.193 7.31 1.56 13.99
2/2/2021 6:30:00 PM -0.01 31.982 0.193 7.3 1.55 13.95
2/2/2021 6:45:00 PM -0.01 31.982 0.193 7.28 1.63 13.92
2/2/2021 7:00:00 PM -0.01 31.982 0.193 7.22 1.5 13.9
2/2/2021 7:15:00 PM -0.01 31.982 0.193 7.29 1.6 13.87
2/2/2021 7:30:00 PM -0.01 31.982 0.194 7.22 1.58 13.85
2/2/2021 7:45:00 PM -0.01 31.982 0.194 7.28 1.54 13.84
2/2/2021 8:00:00 PM -0.01 31.982 0.194 7.26 1.51 13.82
2/2/2021 8:15:00 PM -0.01 31.982 0.194 7.27 1.64 13.8
2/2/2021 8:30:00 PM -0.01 31.982 0.194 7.27 1.45 13.79
2/2/2021 8:45:00 PM -0.01 31.982 0.194 7.25 1.53 13.78
2/2/2021 9:00:00 PM -0.01 31.982 0.194 7.25 1.56 13.77
2/2/2021 9:15:00 PM -0.01 31.982 0.194 7.24 1.51 13.76
2/2/2021 9:30:00 PM -0.01 31.982 0.194 7.26 1.58 13.75
2/2/2021 9:45:00 PM -0.01 31.982 0.194 7.2 1.5 13.74
2/2/2021 10:00:00 PM -0.01 31.982 0.194 7.24 1.57 13.73
2/2/2021 10:15:00 PM -0.01 31.982 0.194 7.25 1.57 13.73
2/2/2021 10:30:00 PM -0.01 31.982 0.194 7.25 1.6 13.72
2/2/2021 10:45:00 PM -0.01 31.982 0.194 7.25 1.59 13.72
2/2/2021 11:00:00 PM -0.01 31.982 0.194 7.25 1.52 13.71
2/2/2021 11:15:00 PM -0.01 31.982 0.194 7.25 1.82 13.71
2/2/2021 11:30:00 PM -0.01 31.982 0.194 7.25 1.67 13.7
2/2/2021 11:45:00 PM -0.01 31.982 0.194 7.21 1.64 13.7
2/3/2021 12:00:00 AM -0.01 31.982 0.194 7.24 1.65 13.7
2/3/2021 12:15:00 AM -0.01 31.982 0.194 7.24 1.8 13.69
2/3/2021 12:30:00 AM 0 32 0.194 7.24 1.8 13.68
2/3/2021 12:45:00 AM 0 32 0.194 7.24 1.7 13.68
2/3/2021 1:00:00 AM -0.01 31.982 0.194 7.2 1.83 13.68
2/3/2021 1:15:00 AM -0.01 31.982 0.194 7.18 1.63 13.67
2/3/2021 1:30:00 AM -0.01 31.982 0.194 7.23 1.65 13.67
2/3/2021 1:45:00 AM -0.01 31.982 0.194 7.23 1.74 13.66
2/3/2021 2:00:00 AM -0.01 31.982 0.194 7.17 1.61 13.66
2/3/2021 2:15:00 AM -0.01 31.982 0.194 7.24 1.58 13.65
2/3/2021 2:30:00 AM -0.01 31.982 0.194 7.18 1.63 13.66
2/3/2021 2:45:00 AM -0.01 31.982 0.195 7.23 1.66 13.65
2/3/2021 3:00:00 AM -0.01 31.982 0.195 7.17 1.69 13.65
2/3/2021 3:15:00 AM -0.01 31.982 0.195 7.24 1.78 13.65
2/3/2021 3:30:00 AM -0.01 31.982 0.195 7.25 1.81 13.64
2/3/2021 3:45:00 AM -0.01 31.982 0.195 7.24 1.65 13.65
2/3/2021 4:00:00 AM -0.01 31.982 0.195 7.25 1.63 13.65
2/3/2021 4:15:00 AM -0.01 31.982 0.195 7.24 1.61 13.65
2/3/2021 4:30:00 AM -0.01 31.982 0.196 7.24 1.62 13.65
2/3/2021 4:45:00 AM -0.01 31.982 0.196 7.24 1.58 13.64
2/3/2021 5:00:00 AM -0.01 31.982 0.196 7.24 1.7 13.64
2/3/2021 5:15:00 AM -0.01 31.982 0.196 7.24 1.53 13.64
2/3/2021 5:30:00 AM -0.01 31.982 0.196 7.25 1.83 13.64
2/3/2021 5:45:00 AM -0.01 31.982 0.196 7.24 1.59 13.64
2/3/2021 6:00:00 AM -0.01 31.982 0.196 7.24 1.67 13.64
2/3/2021 6:15:00 AM -0.01 31.982 0.196 7.3 1.59 13.64
2/3/2021 6:30:00 AM -0.01 31.982 0.196 7.24 1.7 13.64
2/3/2021 6:45:00 AM -0.01 31.982 0.196 7.24 1.68 13.64
2/3/2021 7:00:00 AM -0.01 31.982 0.196 7.24 1.72 13.64
2/3/2021 7:15:00 AM -0.01 31.982 0.196 7.24 1.78 13.64
2/3/2021 7:30:00 AM -0.01 31.982 0.196 7.24 1.75 13.65
2/3/2021 7:45:00 AM -0.01 31.982 0.196 7.25 1.77 13.66
2/3/2021 8:00:00 AM 0 32 0.196 7.25 1.7 13.67
2/3/2021 8:15:00 AM 0 32 0.196 7.24 1.71 13.69
2/3/2021 8:30:00 AM 0 32 0.196 7.25 1.77 13.72
2/3/2021 8:45:00 AM 0 32 0.195 7.25 1.91 13.75
2/3/2021 9:00:00 AM 0.01 32.018 0.195 7.27 1.84 13.8
2/3/2021 9:15:00 AM 0.01 32.018 0.195 7.26 1.63 13.84
2/3/2021 9:30:00 AM 0.01 32.018 0.195 7.28 1.69 13.89
2/3/2021 9:45:00 AM 0.01 32.018 0.195 7.29 1.68 13.94
2/3/2021 10:00:00 AM 0.01 32.018 0.195 7.31 1.72 13.99
2/3/2021 10:15:00 AM 0.01 32.018 0.195 7.31 1.71 14.04
2/3/2021 10:30:00 AM 0.01 32.018 0.195 7.33 1.6 14.08
2/3/2021 10:45:00 AM 0.01 32.018 0.194 7.34 1.69 14.11
2/3/2021 11:00:00 AM 0.02 32.036 0.194 7.35 1.69 14.15
2/3/2021 11:15:00 AM 0.02 32.036 0.194 7.36 1.51 14.18
2/3/2021 11:30:00 AM 0.03 32.054 0.194 7.36 1.57 14.21
2/3/2021 11:45:00 AM 0.03 32.054 0.194 7.36 1.83 14.24
2/3/2021 12:00:00 PM 0.04 32.072 0.194 7.38 1.74 14.26
2/3/2021 12:15:00 PM 0.03 32.054 0.193 7.39 1.63 14.28
2/3/2021 12:30:00 PM 0.03 32.054 0.193 7.4 1.84 14.3
2/3/2021 12:45:00 PM 0.02 32.036 0.193 7.4 1.64 14.3
2/3/2021 1:00:00 PM 0.02 32.036 0.193 7.39 1.7 14.3
2/3/2021 1:15:00 PM 0.02 32.036 0.193 7.39 1.8 14.29
2/3/2021 1:30:00 PM 0.02 32.036 0.193 7.4 1.66 14.29
2/3/2021 1:45:00 PM 0.02 32.036 0.193 7.37 1.76 14.29
2/3/2021 2:00:00 PM 0.02 32.036 0.193 7.4 1.72 14.28
2/3/2021 2:15:00 PM 0.02 32.036 0.193 7.41 1.49 14.29
2/3/2021 2:30:00 PM 0.02 32.036 0.193 7.41 38.34 14.29
2/3/2021 2:45:00 PM 0.02 32.036 0.193 7.4 1.6 14.29
2/3/2021 3:00:00 PM 0.02 32.036 0.193 7.41 1.5 14.29
2/3/2021 3:15:00 PM 0.01 32.018 0.193 7.41 1.6 14.3
2/3/2021 3:30:00 PM 0.01 32.018 0.193 7.4 1.61 14.29
2/3/2021 3:45:00 PM 0.01 32.018 0.193 7.37 1.49 14.29
2/3/2021 4:00:00 PM 0.01 32.018 0.193 7.4 1.57 14.28
2/3/2021 4:15:00 PM 0.01 32.018 0.193 7.35 1.47 14.27
2/3/2021 4:30:00 PM 0 32 0.193 7.42 3.43 14.27
2/3/2021 4:45:00 PM 0 32 0.194 7.4 1.67 14.25
2/3/2021 5:00:00 PM 0 32 0.194 7.39 1.47 14.23
2/3/2021 5:15:00 PM 0 32 0.194 7.31 1.43 14.2
2/3/2021 5:30:00 PM 0 32 0.194 7.36 1.49 14.16
2/3/2021 5:45:00 PM 0 32 0.194 7.36 1.43 14.11
2/3/2021 6:00:00 PM 0 32 0.194 7.35 1.41 14.07
2/3/2021 6:15:00 PM 0 32 0.194 7.35 1.42 14.04
2/3/2021 6:30:00 PM 0 32 0.195 7.34 1.62 14.02
2/3/2021 6:45:00 PM 0 32 0.195 7.28 1.61 13.99
2/3/2021 7:00:00 PM 0 32 0.195 7.32 1.58 13.97
2/3/2021 7:15:00 PM 0 32 0.195 7.32 1.59 13.94
2/3/2021 7:30:00 PM 0 32 0.195 7.32 1.54 13.92
2/3/2021 7:45:00 PM 0 32 0.196 7.31 1.49 13.9
2/3/2021 8:00:00 PM -0.01 31.982 0.196 7.31 1.46 13.89
2/3/2021 8:15:00 PM -0.01 31.982 0.196 7.29 1.53 13.88
2/3/2021 8:30:00 PM -0.01 31.982 0.196 7.3 1.46 13.87
2/3/2021 8:45:00 PM -0.01 31.982 0.196 7.22 1.53 13.86
2/3/2021 9:00:00 PM -0.01 31.982 0.196 7.34 1.45 13.86
2/3/2021 9:15:00 PM -0.02 31.964 0.196 7.27 1.47 13.85
2/3/2021 9:30:00 PM -0.02 31.964 0.197 7.28 1.44 13.85
2/3/2021 9:45:00 PM -0.02 31.964 0.197 7.28 1.44 13.84
2/3/2021 10:00:00 PM -0.02 31.964 0.197 7.28 1.38 13.84
2/3/2021 10:15:00 PM -0.02 31.964 0.197 7.22 1.36 13.84
2/3/2021 10:30:00 PM -0.02 31.964 0.197 7.27 1.46 13.83
2/3/2021 10:45:00 PM -0.02 31.964 0.197 7.25 1.74 13.83
2/3/2021 11:00:00 PM -0.02 31.964 0.197 7.26 1.49 13.84
2/3/2021 11:15:00 PM -0.02 31.964 0.197 7.23 1.5 13.84
2/3/2021 11:30:00 PM -0.02 31.964 0.197 7.15 1.54 13.84
2/3/2021 11:45:00 PM -0.02 31.964 0.197 7.21 1.49 13.84
2/4/2021 12:00:00 AM -0.02 31.964 0.197 7.28 1.49 13.84
2/4/2021 12:15:00 AM -0.02 31.964 0.197 7.25 3.67 13.83
2/4/2021 12:30:00 AM -0.02 31.964 0.197 7.24 1.52 13.83
2/4/2021 12:45:00 AM -0.02 31.964 0.198 7.24 1.43 13.83
2/4/2021 1:00:00 AM -0.02 31.964 0.197 7.2 1.4 13.83
2/4/2021 1:15:00 AM -0.02 31.964 0.198 7.24 1.49 13.83
2/4/2021 1:30:00 AM -0.02 31.964 0.198 7.25 1.44 13.82
2/4/2021 1:45:00 AM -0.02 31.964 0.198 7.33 1.46 13.82
2/4/2021 2:00:00 AM -0.02 31.964 0.198 7.24 1.39 13.83
2/4/2021 2:15:00 AM -0.02 31.964 0.198 7.25 1.51 13.82
2/4/2021 2:30:00 AM -0.02 31.964 0.198 7.25 1.55 13.82
2/4/2021 2:45:00 AM -0.02 31.964 0.198 7.25 1.5 13.82
2/4/2021 3:00:00 AM -0.02 31.964 0.198 7.25 1.59 13.81
2/4/2021 3:15:00 AM -0.02 31.964 0.198 7.25 1.5 13.82
2/4/2021 3:30:00 AM -0.02 31.964 0.198 7.26 1.53 13.81
2/4/2021 3:45:00 AM -0.02 31.964 0.198 7.25 1.44 13.81
2/4/2021 4:00:00 AM -0.02 31.964 0.198 7.18 1.53 13.81
2/4/2021 4:15:00 AM -0.02 31.964 0.198 7.26 1.44 13.81
2/4/2021 4:30:00 AM -0.03 31.946 0.198 7.25 1.5 13.81
2/4/2021 4:45:00 AM -0.03 31.946 0.199 7.25 1.47 13.81
2/4/2021 5:00:00 AM -0.03 31.946 0.198 7.25 1.4 13.81
2/4/2021 5:15:00 AM -0.03 31.946 0.199 7.25 1.41 13.81
2/4/2021 5:30:00 AM -0.03 31.946 0.199 7.25 1.37 13.8
2/4/2021 5:45:00 AM -0.02 31.964 0.199 7.26 2.19 13.81
2/4/2021 6:00:00 AM -0.03 31.946 0.199 7.23 1.35 13.8
2/4/2021 6:15:00 AM -0.03 31.946 0.199 7.22 1.44 13.8
2/4/2021 6:30:00 AM -0.03 31.946 0.199 7.24 1.35 13.81
2/4/2021 6:45:00 AM -0.02 31.964 0.199 7.17 1.34 13.81
2/4/2021 7:00:00 AM -0.03 31.946 0.199 7.24 1.31 13.8
2/4/2021 7:15:00 AM -0.03 31.946 0.199 7.24 1.37 13.81
2/4/2021 7:30:00 AM -0.02 31.964 0.2 7.24 1.39 13.81
2/4/2021 7:45:00 AM -0.02 31.964 0.199 7.19 1.53 13.83
2/4/2021 8:00:00 AM -0.02 31.964 0.199 7.25 1.34 13.86
2/4/2021 8:15:00 AM -0.02 31.964 0.199 7.25 1.44 13.89
2/4/2021 8:30:00 AM -0.01 31.982 0.199 7.26 1.43 13.93
2/4/2021 8:45:00 AM 0 32 0.199 7.27 1.28 13.98
2/4/2021 9:00:00 AM 0 32 0.199 7.28 1.47 14.03
2/4/2021 9:15:00 AM 0.01 32.018 0.199 7.29 1.5 14.09
2/4/2021 9:30:00 AM 0.02 32.036 0.199 7.29 1.43 14.15
2/4/2021 9:45:00 AM 0.02 32.036 0.199 7.31 1.32 14.2
2/4/2021 10:00:00 AM 0.03 32.054 0.199 7.32 1.3 14.25
2/4/2021 10:15:00 AM 0.04 32.072 0.198 7.33 1.51 14.31
2/4/2021 10:30:00 AM 0.04 32.072 0.198 7.41 1.29 14.37
2/4/2021 10:45:00 AM 0.05 32.09 0.198 7.33 1.34 14.42
2/4/2021 11:00:00 AM 0.06 32.108 0.198 7.31 1.4 14.47
2/4/2021 11:15:00 AM 0.06 32.108 0.197 7.4 1.4 14.5
2/4/2021 11:30:00 AM 0.06 32.108 0.197 7.38 1.26 14.53
2/4/2021 11:45:00 AM 0.07 32.126 0.197 7.43 1.33 14.53
2/4/2021 12:00:00 PM 0.07 32.126 0.197 7.39 1.47 14.53
2/4/2021 12:15:00 PM 0.07 32.126 0.196 7.35 1.42 14.55
2/4/2021 12:30:00 PM 0.06 32.108 0.196 7.39 1.53 14.55
2/4/2021 12:45:00 PM 0.06 32.108 0.196 7.42 1.6 14.56
2/4/2021 1:00:00 PM 0.06 32.108 0.196 7.35 9.77 14.56
2/4/2021 1:15:00 PM 0.06 32.108 0.195 7.42 1.51 14.57
2/4/2021 1:30:00 PM 0.05 32.09 0.195 7.43 1.52 14.57
2/4/2021 1:45:00 PM 0.05 32.09 0.196 7.36 1.44 14.56
2/4/2021 2:00:00 PM 0.05 32.09 0.196 7.42 1.54 14.56
2/4/2021 2:15:00 PM 0.04 32.072 0.196 7.43 1.65 14.54
2/4/2021 2:30:00 PM 0.04 32.072 0.196 7.43 1.68 14.53
2/4/2021 2:45:00 PM 0.03 32.054 0.197 7.44 1.53 14.52
2/4/2021 3:00:00 PM 0.03 32.054 0.197 7.41 1.54 14.51
2/4/2021 3:15:00 PM 0.02 32.036 0.198 7.4 1.57 14.49
2/4/2021 3:30:00 PM 0.02 32.036 0.198 7.4 1.56 14.48
2/4/2021 3:45:00 PM 0.01 32.018 0.198 7.39 1.66 14.47
2/4/2021 4:00:00 PM 0.01 32.018 0.198 7.43 1.69 14.46
2/4/2021 4:15:00 PM 0 32 0.198 7.48 1.73 14.43
2/4/2021 4:30:00 PM 0 32 0.198 7.35 1.88 14.39
2/4/2021 4:45:00 PM -0.01 31.982 0.198 7.49 1.74 14.36
2/4/2021 5:00:00 PM -0.01 31.982 0.199 7.45 1.93 14.34
2/4/2021 5:15:00 PM -0.01 31.982 0.199 7.38 1.88 14.31
2/4/2021 5:30:00 PM -0.01 31.982 0.199 7.38 1.85 14.27
2/4/2021 5:45:00 PM -0.01 31.982 0.199 7.36 1.99 14.23
2/4/2021 6:00:00 PM -0.02 31.964 0.199 7.3 2.05 14.18
2/4/2021 6:15:00 PM -0.02 31.964 0.199 7.42 1.9 14.14
2/4/2021 6:30:00 PM -0.02 31.964 0.199 7.34 1.92 14.11
2/4/2021 6:45:00 PM -0.02 31.964 0.199 7.41 2.2 14.08
2/4/2021 7:00:00 PM -0.02 31.964 0.199 7.31 1.85 14.05
2/4/2021 7:15:00 PM -0.02 31.964 0.199 7.25 2 14.03
2/4/2021 7:30:00 PM -0.02 31.964 0.199 7.31 2.06 14.01
2/4/2021 7:45:00 PM -0.02 31.964 0.199 7.26 1.88 14
2/4/2021 8:00:00 PM -0.02 31.964 0.199 7.31 1.98 13.98
2/4/2021 8:15:00 PM -0.02 31.964 0.199 7.29 1.77 13.97
2/4/2021 8:30:00 PM -0.02 31.964 0.199 7.27 1.8 13.96
2/4/2021 8:45:00 PM -0.02 31.964 0.199 7.29 1.87 13.95
2/4/2021 9:00:00 PM -0.02 31.964 0.2 7.22 1.71 13.95
2/4/2021 9:15:00 PM -0.02 31.964 0.2 7.29 1.76 13.94
2/4/2021 9:30:00 PM -0.01 31.982 0.2 7.25 1.81 13.93
2/4/2021 9:45:00 PM -0.01 31.982 0.201 7.36 1.67 13.92
2/4/2021 10:00:00 PM -0.01 31.982 0.201 7.33 1.73 13.91
2/4/2021 10:15:00 PM -0.01 31.982 0.201 7.27 1.65 13.9
2/4/2021 10:30:00 PM -0.01 31.982 0.202 7.28 1.65 13.89
2/4/2021 10:45:00 PM -0.01 31.982 0.202 7.28 1.72 13.89
2/4/2021 11:00:00 PM -0.01 31.982 0.202 7.29 1.67 13.88
2/4/2021 11:15:00 PM -0.01 31.982 0.202 7.26 1.63 13.88
2/4/2021 11:30:00 PM -0.01 31.982 0.203 7.2 1.69 13.87
2/4/2021 11:45:00 PM -0.01 31.982 0.203 7.27 1.73 13.86
2/5/2021 12:00:00 AM -0.01 31.982 0.203 7.27 1.68 13.85
2/5/2021 12:15:00 AM -0.01 31.982 0.203 7.27 1.73 13.84
2/5/2021 12:30:00 AM -0.01 31.982 0.203 7.2 1.58 13.83
2/5/2021 12:45:00 AM 0 32 0.204 7.26 1.45 13.83
2/5/2021 1:00:00 AM 0 32 0.204 7.25 1.47 13.82
2/5/2021 1:15:00 AM 0 32 0.204 7.26 1.64 13.81
2/5/2021 1:30:00 AM 0 32 0.204 7.27 1.74 13.8
2/5/2021 1:45:00 AM 0 32 0.204 7.27 1.73 13.8
2/5/2021 2:00:00 AM 0 32 0.204 7.27 1.65 13.79
2/5/2021 2:15:00 AM 0 32 0.204 7.27 1.62 13.79
2/5/2021 2:30:00 AM 0 32 0.204 7.27 1.67 13.78
2/5/2021 2:45:00 AM 0 32 0.204 7.2 1.62 13.77
2/5/2021 3:00:00 AM 0 32 0.204 7.26 1.78 13.77
2/5/2021 3:15:00 AM 0 32 0.204 7.27 1.7 13.76
2/5/2021 3:30:00 AM 0 32 0.204 7.21 1.51 13.75
2/5/2021 3:45:00 AM 0 32 0.204 7.27 1.65 13.74
2/5/2021 4:00:00 AM 0 32 0.203 7.27 1.64 13.74
2/5/2021 4:15:00 AM 0 32 0.203 7.24 1.72 13.73
2/5/2021 4:30:00 AM 0 32 0.203 7.28 1.86 13.72
2/5/2021 4:45:00 AM 0 32 0.203 7.32 1.61 13.71
2/5/2021 5:00:00 AM 0 32 0.203 7.33 1.56 13.71
2/5/2021 5:15:00 AM 0 32 0.203 7.19 1.68 13.7
2/5/2021 5:30:00 AM 0 32 0.202 7.28 3.88 13.69
2/5/2021 5:45:00 AM 0 32 0.202 7.27 1.7 13.7
2/5/2021 6:00:00 AM 0 32 0.202 7.22 1.59 13.69
2/5/2021 6:15:00 AM 0 32 0.202 7.27 1.54 13.68
2/5/2021 6:30:00 AM 0 32 0.202 7.36 1.56 13.68
2/5/2021 6:45:00 AM 0 32 0.202 7.26 1.53 13.67
2/5/2021 7:00:00 AM 0 32 0.202 7.26 1.57 13.67
2/5/2021 7:15:00 AM 0 32 0.202 7.36 1.46 13.67
2/5/2021 7:30:00 AM 0 32 0.202 7.24 1.49 13.67
2/5/2021 7:45:00 AM 0 32 0.202 7.21 1.82 13.68
2/5/2021 8:00:00 AM 0 32 0.202 7.3 1.56 13.7
2/5/2021 8:15:00 AM 0 32 0.202 7.27 1.57 13.74
2/5/2021 8:30:00 AM 0.01 32.018 0.202 7.29 1.46 13.8
2/5/2021 8:45:00 AM 0.03 32.054 0.202 7.31 1.68 13.86
2/5/2021 9:00:00 AM 0.03 32.054 0.202 7.25 1.61 13.94
2/5/2021 9:15:00 AM 0.04 32.072 0.202 7.34 1.57 14.02
2/5/2021 9:30:00 AM 0.04 32.072 0.202 7.3 1.57 14.1
2/5/2021 9:45:00 AM 0.05 32.09 0.201 7.37 1.61 14.17
2/5/2021 10:00:00 AM 0.06 32.108 0.201 7.38 1.5 14.24
2/5/2021 10:15:00 AM 0.08 32.144 0.201 7.41 1.66 14.31
2/5/2021 10:30:00 AM 0.08 32.144 0.201 7.42 1.73 14.36